<?xml version='1.0' encoding='UTF-8'?><gpx version="1.1" creator="JPX - https://github.com/jenetics/jpx" xmlns="http://www.topografix.com/GPX/1/1"><trk><trkseg><trkpt lat="45.594524594755676" lon="10.134630331716215"><ele>163.99999999999997</ele><time>2026-03-24T16:46:58.998Z</time></trkpt><trkpt lat="45.59454500475837" lon="10.134525496920945"><ele>164.0</ele><time>2026-03-24T16:47:19.999Z</time></trkpt><trkpt lat="45.59449052606706" lon="10.1344425784238"><ele>164.0</ele><time>2026-03-24T16:48:17Z</time></trkpt><trkpt lat="45.594490323134345" lon="10.134346775463744"><ele>164.0</ele><time>2026-03-24T16:48:20Z</time></trkpt><trkpt lat="45.59453049449705" lon="10.134270230305372"><ele>164.0</ele><time>2026-03-24T16:48:24Z</time></trkpt><trkpt lat="45.59455133570131" lon="10.134149939706498"><ele>163.99999999999997</ele><time>2026-03-24T16:48:28Z</time></trkpt><trkpt lat="45.59456281917098" lon="10.134058470488498"><ele>164.0</ele><time>2026-03-24T16:48:31Z</time></trkpt><trkpt lat="45.59457131583563" lon="10.133964500509556"><ele>163.99999999999997</ele><time>2026-03-24T16:48:35Z</time></trkpt><trkpt lat="45.59457977058407" lon="10.133869680249473"><ele>164.0</ele><time>2026-03-24T16:48:38Z</time></trkpt><trkpt lat="45.59459992952472" lon="10.133768647847624"><ele>164.0</ele><time>2026-03-24T16:48:41Z</time></trkpt><trkpt lat="45.59462635518779" lon="10.133670482932246"><ele>164.0</ele><time>2026-03-24T16:48:44Z</time></trkpt><trkpt lat="45.59463801012892" lon="10.133566012419568"><ele>164.0</ele><time>2026-03-24T16:48:47Z</time></trkpt><trkpt lat="45.59465827320868" lon="10.133464751719718"><ele>163.99999999999997</ele><time>2026-03-24T16:48:50Z</time></trkpt><trkpt lat="45.594681928403524" lon="10.133373362505093"><ele>164.0</ele><time>2026-03-24T16:48:53Z</time></trkpt><trkpt lat="45.594703707108025" lon="10.133276402973994"><ele>163.57142857142856</ele><time>2026-03-24T16:48:56Z</time></trkpt><trkpt lat="45.5947130333981" lon="10.13316846347113"><ele>163.14285714285714</ele><time>2026-03-24T16:48:59Z</time></trkpt><trkpt lat="45.59473212077634" lon="10.133063605950992"><ele>162.71428571428572</ele><time>2026-03-24T16:49:02Z</time></trkpt><trkpt lat="45.594744821463856" lon="10.132958627064003"><ele>162.28571428571428</ele><time>2026-03-24T16:49:05Z</time></trkpt><trkpt lat="45.59476840877198" lon="10.132860030792328"><ele>161.85714285714286</ele><time>2026-03-24T16:49:08Z</time></trkpt><trkpt lat="45.5947858080017" lon="10.132766442849167"><ele>161.42857142857142</ele><time>2026-03-24T16:49:11.001Z</time></trkpt><trkpt lat="45.59481322694827" lon="10.132674022324185"><ele>161.0</ele><time>2026-03-24T16:49:14.001Z</time></trkpt><trkpt lat="45.59483322337407" lon="10.132578392032302"><ele>161.0</ele><time>2026-03-24T16:49:17.001Z</time></trkpt><trkpt lat="45.594843859953606" lon="10.13248773341508"><ele>161.0</ele><time>2026-03-24T16:49:20.001Z</time></trkpt><trkpt lat="45.5948595570054" lon="10.132380126689549"><ele>161.0</ele><time>2026-03-24T16:49:23.001Z</time></trkpt><trkpt lat="45.59487104601263" lon="10.132269225645661"><ele>161.0</ele><time>2026-03-24T16:49:26.001Z</time></trkpt><trkpt lat="45.59488202829616" lon="10.132167958927784"><ele>161.0</ele><time>2026-03-24T16:49:30.001Z</time></trkpt><trkpt lat="45.59489734840919" lon="10.132054605016434"><ele>161.0</ele><time>2026-03-24T16:49:34.001Z</time></trkpt><trkpt lat="45.594920154471716" lon="10.131969842092426"><ele>161.0</ele><time>2026-03-24T16:49:37.001Z</time></trkpt><trkpt lat="45.594942286743986" lon="10.131872537460936"><ele>160.85714285714286</ele><time>2026-03-24T16:49:40.001Z</time></trkpt><trkpt lat="45.59496090719254" lon="10.13176948025179"><ele>160.71428571428572</ele><time>2026-03-24T16:49:43.001Z</time></trkpt><trkpt lat="45.59500277468449" lon="10.131689474216111"><ele>160.57142857142856</ele><time>2026-03-24T16:49:46.001Z</time></trkpt><trkpt lat="45.59506880569503" lon="10.13164293687235"><ele>160.42857142857144</ele><time>2026-03-24T16:49:49.001Z</time></trkpt><trkpt lat="45.59514656495663" lon="10.131625456844183"><ele>160.28571428571428</ele><time>2026-03-24T16:49:52.001Z</time></trkpt><trkpt lat="45.59521872034843" lon="10.13162073826589"><ele>160.14285714285714</ele><time>2026-03-24T16:49:55.001Z</time></trkpt><trkpt lat="45.595292717667114" lon="10.13162927803934"><ele>160.0</ele><time>2026-03-24T16:49:58.001Z</time></trkpt><trkpt lat="45.595356375125355" lon="10.131641135263338"><ele>160.71428571428572</ele><time>2026-03-24T16:50:01.001Z</time></trkpt><trkpt lat="45.59542312633614" lon="10.131645672415491"><ele>161.42857142857144</ele><time>2026-03-24T16:50:04.001Z</time></trkpt><trkpt lat="45.59548762185415" lon="10.131637049669923"><ele>162.14285714285717</ele><time>2026-03-24T16:50:07.001Z</time></trkpt><trkpt lat="45.59555612514089" lon="10.131608876763579"><ele>162.85714285714286</ele><time>2026-03-24T16:50:10.001Z</time></trkpt><trkpt lat="45.59562054930262" lon="10.131568799162608"><ele>163.57142857142858</ele><time>2026-03-24T16:50:13.001Z</time></trkpt><trkpt lat="45.59568810103473" lon="10.131605680680877"><ele>164.2857142857143</ele><time>2026-03-24T16:50:16.001Z</time></trkpt><trkpt lat="45.5957505617883" lon="10.131672806747714"><ele>165.0</ele><time>2026-03-24T16:50:19.001Z</time></trkpt><trkpt lat="45.59581697795913" lon="10.131730444111101"><ele>165.00000000000003</ele><time>2026-03-24T16:50:22.001Z</time></trkpt><trkpt lat="45.59588587452314" lon="10.131781523113622"><ele>165.0</ele><time>2026-03-24T16:50:25.001Z</time></trkpt><trkpt lat="45.5959487718735" lon="10.131833207406647"><ele>165.0</ele><time>2026-03-24T16:50:28.001Z</time></trkpt><trkpt lat="45.59601090217582" lon="10.131895330785689"><ele>165.0</ele><time>2026-03-24T16:50:31.001Z</time></trkpt><trkpt lat="45.59607039963184" lon="10.1319522472024"><ele>165.0</ele><time>2026-03-24T16:50:34.001Z</time></trkpt><trkpt lat="45.59613154257312" lon="10.1320120964801"><ele>165.00000000000003</ele><time>2026-03-24T16:50:37.001Z</time></trkpt><trkpt lat="45.59619307474656" lon="10.132062476072988"><ele>165.0</ele><time>2026-03-24T16:50:40.001Z</time></trkpt><trkpt lat="45.59624527854407" lon="10.132115956019847"><ele>165.33333333333334</ele><time>2026-03-24T16:50:43.001Z</time></trkpt><trkpt lat="45.59630670994707" lon="10.132146739365082"><ele>165.66666666666666</ele><time>2026-03-24T16:50:46.001Z</time></trkpt><trkpt lat="45.59637975772318" lon="10.13213025209373"><ele>166.0</ele><time>2026-03-24T16:50:49.001Z</time></trkpt><trkpt lat="45.59643721858" lon="10.13204920369657"><ele>166.33333333333331</ele><time>2026-03-24T16:50:52.001Z</time></trkpt><trkpt lat="45.596484092842154" lon="10.13196891702374"><ele>166.66666666666666</ele><time>2026-03-24T16:50:55.001Z</time></trkpt><trkpt lat="45.5965385777538" lon="10.13188477818625"><ele>167.0</ele><time>2026-03-24T16:50:58.001Z</time></trkpt><trkpt lat="45.59658994935797" lon="10.131799519497314"><ele>167.0</ele><time>2026-03-24T16:51:01.001Z</time></trkpt><trkpt lat="45.59661517453919" lon="10.131705259208708"><ele>167.0</ele><time>2026-03-24T16:51:04.001Z</time></trkpt><trkpt lat="45.5966491623424" lon="10.131608460589286"><ele>167.0</ele><time>2026-03-24T16:51:07.001Z</time></trkpt><trkpt lat="45.59668794893181" lon="10.131505884584971"><ele>167.0</ele><time>2026-03-24T16:51:10.001Z</time></trkpt><trkpt lat="45.59671485441911" lon="10.131407656526939"><ele>167.0</ele><time>2026-03-24T16:51:13.001Z</time></trkpt><trkpt lat="45.596749620045635" lon="10.131303940435988"><ele>167.0</ele><time>2026-03-24T16:51:16.001Z</time></trkpt><trkpt lat="45.59676799328243" lon="10.131202138915954"><ele>166.57142857142856</ele><time>2026-03-24T16:51:19.001Z</time></trkpt><trkpt lat="45.596772869639935" lon="10.131105982343348"><ele>166.14285714285714</ele><time>2026-03-24T16:51:22.001Z</time></trkpt><trkpt lat="45.59677325619852" lon="10.131001556048034"><ele>165.71428571428572</ele><time>2026-03-24T16:51:25.001Z</time></trkpt><trkpt lat="45.59677677178024" lon="10.130902515721518"><ele>165.28571428571428</ele><time>2026-03-24T16:51:28.001Z</time></trkpt><trkpt lat="45.59677842055773" lon="10.130800424466063"><ele>164.85714285714286</ele><time>2026-03-24T16:51:31.001Z</time></trkpt><trkpt lat="45.59677334515935" lon="10.1307013185598"><ele>164.42857142857142</ele><time>2026-03-24T16:51:34.001Z</time></trkpt><trkpt lat="45.59676828678525" lon="10.13060611878496"><ele>164.0</ele><time>2026-03-24T16:51:37.001Z</time></trkpt><trkpt lat="45.59677185591434" lon="10.130510417251598"><ele>163.85714285714283</ele><time>2026-03-24T16:51:40.001Z</time></trkpt><trkpt lat="45.59677182231197" lon="10.13041195297468"><ele>163.71428571428572</ele><time>2026-03-24T16:51:43.001Z</time></trkpt><trkpt lat="45.5967690378162" lon="10.130318428430474"><ele>163.57142857142856</ele><time>2026-03-24T16:51:46.002Z</time></trkpt><trkpt lat="45.59676921222034" lon="10.130222089377241"><ele>163.42857142857142</ele><time>2026-03-24T16:51:49.002Z</time></trkpt><trkpt lat="45.59678187309122" lon="10.130126086591948"><ele>163.28571428571428</ele><time>2026-03-24T16:51:52.002Z</time></trkpt><trkpt lat="45.59679106404453" lon="10.130027179975315"><ele>163.14285714285714</ele><time>2026-03-24T16:51:55.002Z</time></trkpt><trkpt lat="45.59679647861196" lon="10.129930561600519"><ele>163.0</ele><time>2026-03-24T16:51:58.002Z</time></trkpt><trkpt lat="45.59679922740202" lon="10.129831163394647"><ele>163.0</ele><time>2026-03-24T16:52:01.002Z</time></trkpt><trkpt lat="45.59679915530533" lon="10.129738347566562"><ele>163.0</ele><time>2026-03-24T16:52:04.002Z</time></trkpt><trkpt lat="45.59681641762419" lon="10.12964803889462"><ele>163.0</ele><time>2026-03-24T16:52:08.002Z</time></trkpt><trkpt lat="45.596829304959066" lon="10.12954021066833"><ele>163.0</ele><time>2026-03-24T16:52:12.002Z</time></trkpt><trkpt lat="45.59680492503009" lon="10.129440607979475"><ele>163.0</ele><time>2026-03-24T16:52:16.002Z</time></trkpt><trkpt lat="45.596792244337415" lon="10.129335306282172"><ele>163.0</ele><time>2026-03-24T16:52:20.002Z</time></trkpt><trkpt lat="45.596784789800026" lon="10.129225737197018"><ele>163.0</ele><time>2026-03-24T16:52:24.002Z</time></trkpt><trkpt lat="45.59677683905918" lon="10.129117316251579"><ele>162.66666666666669</ele><time>2026-03-24T16:52:28.002Z</time></trkpt><trkpt lat="45.59675562790094" lon="10.129001520663888"><ele>162.33333333333334</ele><time>2026-03-24T16:52:32.002Z</time></trkpt><trkpt lat="45.59672039942642" lon="10.128892053344385"><ele>162.0</ele><time>2026-03-24T16:52:35.002Z</time></trkpt><trkpt lat="45.596695129599716" lon="10.128804301427511"><ele>161.66666666666666</ele><time>2026-03-24T16:52:37.002Z</time></trkpt><trkpt lat="45.59666890059013" lon="10.128687504799302"><ele>161.33333333333331</ele><time>2026-03-24T16:52:40.002Z</time></trkpt><trkpt lat="45.59664063293729" lon="10.128576647904609"><ele>161.0</ele><time>2026-03-24T16:52:43.002Z</time></trkpt><trkpt lat="45.5966136056603" lon="10.128460251638385"><ele>161.0</ele><time>2026-03-24T16:52:46.002Z</time></trkpt><trkpt lat="45.596597221441954" lon="10.128352391920627"><ele>161.0</ele><time>2026-03-24T16:52:49.002Z</time></trkpt><trkpt lat="45.59658226642045" lon="10.12824268538467"><ele>161.0</ele><time>2026-03-24T16:52:52.002Z</time></trkpt><trkpt lat="45.59656807515914" lon="10.128138980553905"><ele>161.0</ele><time>2026-03-24T16:52:55.002Z</time></trkpt><trkpt lat="45.59655366257055" lon="10.12803633366173"><ele>161.0</ele><time>2026-03-24T16:52:58.002Z</time></trkpt><trkpt lat="45.59653778769924" lon="10.127936198674593"><ele>161.0</ele><time>2026-03-24T16:53:01.002Z</time></trkpt><trkpt lat="45.59653222610352" lon="10.127844913653831"><ele>161.0</ele><time>2026-03-24T16:53:04.002Z</time></trkpt><trkpt lat="45.59651582904347" lon="10.127741143043945"><ele>161.28571428571428</ele><time>2026-03-24T16:53:07.002Z</time></trkpt><trkpt lat="45.5965051979005" lon="10.127644780364665"><ele>161.57142857142856</ele><time>2026-03-24T16:53:10.002Z</time></trkpt><trkpt lat="45.59649513174356" lon="10.127549000295875"><ele>161.85714285714286</ele><time>2026-03-24T16:53:13.002Z</time></trkpt><trkpt lat="45.59648671459838" lon="10.127438157938604"><ele>162.14285714285714</ele><time>2026-03-24T16:53:16.002Z</time></trkpt><trkpt lat="45.59648106668685" lon="10.127334568645438"><ele>162.42857142857142</ele><time>2026-03-24T16:53:19.002Z</time></trkpt><trkpt lat="45.59648018826254" lon="10.127230012588079"><ele>162.71428571428572</ele><time>2026-03-24T16:53:22.002Z</time></trkpt><trkpt lat="45.596482187660904" lon="10.127131642926352"><ele>163.0</ele><time>2026-03-24T16:53:25.002Z</time></trkpt><trkpt lat="45.59648231808858" lon="10.127033710225028"><ele>163.2857142857143</ele><time>2026-03-24T16:53:28.002Z</time></trkpt><trkpt lat="45.59647959797191" lon="10.126936312723602"><ele>163.57142857142856</ele><time>2026-03-24T16:53:31.002Z</time></trkpt><trkpt lat="45.59647553763612" lon="10.126846160655816"><ele>163.85714285714286</ele><time>2026-03-24T16:53:34.002Z</time></trkpt><trkpt lat="45.596469915402935" lon="10.126727098332623"><ele>164.14285714285717</ele><time>2026-03-24T16:53:38.002Z</time></trkpt><trkpt lat="45.59646992808407" lon="10.12663255518069"><ele>164.42857142857144</ele><time>2026-03-24T16:53:41.002Z</time></trkpt><trkpt lat="45.596476430812466" lon="10.126536784068048"><ele>164.71428571428572</ele><time>2026-03-24T16:53:44.002Z</time></trkpt><trkpt lat="45.59649999603621" lon="10.126440413132482"><ele>165.0</ele><time>2026-03-24T16:53:47.002Z</time></trkpt><trkpt lat="45.596504597776615" lon="10.126341900933582"><ele>165.5</ele><time>2026-03-24T16:53:50.002Z</time></trkpt><trkpt lat="45.59651743283999" lon="10.12624260918455"><ele>166.0</ele><time>2026-03-24T16:53:53.002Z</time></trkpt><trkpt lat="45.596527749809084" lon="10.12614101243287"><ele>166.5</ele><time>2026-03-24T16:53:56.002Z</time></trkpt><trkpt lat="45.59653116222946" lon="10.126024574365168"><ele>167.0</ele><time>2026-03-24T16:53:59.002Z</time></trkpt><trkpt lat="45.59653792700336" lon="10.125915385598045"><ele>167.5</ele><time>2026-03-24T16:54:02.002Z</time></trkpt><trkpt lat="45.59655201319438" lon="10.125799735673775"><ele>168.0</ele><time>2026-03-24T16:54:05.002Z</time></trkpt><trkpt lat="45.59654133383154" lon="10.125685012880119"><ele>168.0</ele><time>2026-03-24T16:54:08.002Z</time></trkpt><trkpt lat="45.59654444528829" lon="10.125590829159355"><ele>168.0</ele><time>2026-03-24T16:54:11.002Z</time></trkpt><trkpt lat="45.59653610150208" lon="10.125487472236966"><ele>168.0</ele><time>2026-03-24T16:54:14.002Z</time></trkpt><trkpt lat="45.59653860465127" lon="10.125390570257068"><ele>168.0</ele><time>2026-03-24T16:54:17.002Z</time></trkpt><trkpt lat="45.596542231506575" lon="10.125296915721353"><ele>168.0</ele><time>2026-03-24T16:54:20.002Z</time></trkpt><trkpt lat="45.59655360524459" lon="10.125183886310014"><ele>168.0</ele><time>2026-03-24T16:54:23.002Z</time></trkpt><trkpt lat="45.59658234079665" lon="10.12507595080085"><ele>168.0</ele><time>2026-03-24T16:54:26.003Z</time></trkpt><trkpt lat="45.596600158835685" lon="10.12497821522557"><ele>168.0</ele><time>2026-03-24T16:54:29.003Z</time></trkpt><trkpt lat="45.59660699799138" lon="10.124886322393863"><ele>168.0</ele><time>2026-03-24T16:54:32.003Z</time></trkpt><trkpt lat="45.59661442011579" lon="10.124779602892218"><ele>168.0</ele><time>2026-03-24T16:54:35.003Z</time></trkpt><trkpt lat="45.59661909051146" lon="10.124672759637079"><ele>168.0</ele><time>2026-03-24T16:54:38.003Z</time></trkpt><trkpt lat="45.596605665530376" lon="10.12457896108938"><ele>168.0</ele><time>2026-03-24T16:54:41.003Z</time></trkpt><trkpt lat="45.596597346915544" lon="10.124465967857615"><ele>168.0</ele><time>2026-03-24T16:54:44.003Z</time></trkpt><trkpt lat="45.59658996080205" lon="10.124361599152337"><ele>168.0</ele><time>2026-03-24T16:54:47.003Z</time></trkpt><trkpt lat="45.596563159170366" lon="10.124255604599933"><ele>168.0</ele><time>2026-03-24T16:54:50.003Z</time></trkpt><trkpt lat="45.596568937011455" lon="10.124149957245079"><ele>168.0</ele><time>2026-03-24T16:54:53.003Z</time></trkpt><trkpt lat="45.596545820777486" lon="10.124063489683392"><ele>168.0</ele><time>2026-03-24T16:54:56.003Z</time></trkpt><trkpt lat="45.596554202862535" lon="10.12394484035313"><ele>168.0</ele><time>2026-03-24T16:54:59.003Z</time></trkpt><trkpt lat="45.596556322406244" lon="10.123839721388968"><ele>168.0</ele><time>2026-03-24T16:55:02.003Z</time></trkpt><trkpt lat="45.596569829740154" lon="10.12372301738491"><ele>168.0</ele><time>2026-03-24T16:55:05.003Z</time></trkpt><trkpt lat="45.59657587529978" lon="10.123603969945904"><ele>168.0</ele><time>2026-03-24T16:55:08.003Z</time></trkpt><trkpt lat="45.59657499712992" lon="10.123502713700445"><ele>168.0</ele><time>2026-03-24T16:55:11.003Z</time></trkpt><trkpt lat="45.59657676011833" lon="10.123389950122364"><ele>168.0</ele><time>2026-03-24T16:55:14.003Z</time></trkpt><trkpt lat="45.59657262299169" lon="10.123278928558296"><ele>168.0</ele><time>2026-03-24T16:55:17.003Z</time></trkpt><trkpt lat="45.59656340551107" lon="10.123168703476553"><ele>168.0</ele><time>2026-03-24T16:55:20.003Z</time></trkpt><trkpt lat="45.596553651953045" lon="10.123065098020547"><ele>168.0</ele><time>2026-03-24T16:55:23.003Z</time></trkpt><trkpt lat="45.59654313690379" lon="10.12295369873141"><ele>167.71428571428572</ele><time>2026-03-24T16:55:26.003Z</time></trkpt><trkpt lat="45.596524079229084" lon="10.122865248389491"><ele>167.42857142857144</ele><time>2026-03-24T16:55:29.003Z</time></trkpt><trkpt lat="45.59652535570582" lon="10.12275770604951"><ele>167.14285714285714</ele><time>2026-03-24T16:55:32.003Z</time></trkpt><trkpt lat="45.59651571824071" lon="10.1226570819557"><ele>166.85714285714286</ele><time>2026-03-24T16:55:35.003Z</time></trkpt><trkpt lat="45.59651503134569" lon="10.122549966818148"><ele>166.57142857142858</ele><time>2026-03-24T16:55:38.003Z</time></trkpt><trkpt lat="45.59654320967789" lon="10.122441759821212"><ele>166.28571428571428</ele><time>2026-03-24T16:55:41.003Z</time></trkpt><trkpt lat="45.59655834481462" lon="10.12232975920879"><ele>166.0</ele><time>2026-03-24T16:55:44.003Z</time></trkpt><trkpt lat="45.59660525158172" lon="10.122228549885596"><ele>165.83333333333334</ele><time>2026-03-24T16:55:47.003Z</time></trkpt><trkpt lat="45.59663572631513" lon="10.122101784534706"><ele>165.66666666666669</ele><time>2026-03-24T16:55:50.003Z</time></trkpt><trkpt lat="45.59666734215144" lon="10.121989098271406"><ele>165.5</ele><time>2026-03-24T16:55:53.003Z</time></trkpt><trkpt lat="45.59669623459477" lon="10.121889293315146"><ele>165.33333333333334</ele><time>2026-03-24T16:55:56.003Z</time></trkpt><trkpt lat="45.59670936309818" lon="10.121785795023271"><ele>165.16666666666666</ele><time>2026-03-24T16:55:59.003Z</time></trkpt><trkpt lat="45.59672966673582" lon="10.121688063082516"><ele>165.0</ele><time>2026-03-24T16:56:02.003Z</time></trkpt><trkpt lat="45.596753269336475" lon="10.121576951403172"><ele>165.00000000000003</ele><time>2026-03-24T16:56:05.003Z</time></trkpt><trkpt lat="45.596756279611654" lon="10.121481457576264"><ele>165.0</ele><time>2026-03-24T16:56:08.003Z</time></trkpt><trkpt lat="45.596760174535326" lon="10.121380734119299"><ele>165.0</ele><time>2026-03-24T16:56:11.003Z</time></trkpt><trkpt lat="45.596760746711276" lon="10.121271965900213"><ele>165.0</ele><time>2026-03-24T16:56:14.003Z</time></trkpt><trkpt lat="45.596782671372075" lon="10.12116707639964"><ele>165.0</ele><time>2026-03-24T16:56:17.003Z</time></trkpt><trkpt lat="45.596784127600465" lon="10.121071876930596"><ele>165.00000000000003</ele><time>2026-03-24T16:56:20.003Z</time></trkpt><trkpt lat="45.59678878913446" lon="10.12096980876119"><ele>165.0</ele><time>2026-03-24T16:56:23.003Z</time></trkpt><trkpt lat="45.59678381010499" lon="10.120879860964045"><ele>165.00000000000003</ele><time>2026-03-24T16:56:26.003Z</time></trkpt><trkpt lat="45.59678566612848" lon="10.12078067882248"><ele>165.0</ele><time>2026-03-24T16:56:29.003Z</time></trkpt><trkpt lat="45.59681132798475" lon="10.120680103277165"><ele>165.0</ele><time>2026-03-24T16:56:32.003Z</time></trkpt><trkpt lat="45.59682246955659" lon="10.120576272815429"><ele>165.0</ele><time>2026-03-24T16:56:35.003Z</time></trkpt><trkpt lat="45.59683995711595" lon="10.120475627333104"><ele>165.0</ele><time>2026-03-24T16:56:38.003Z</time></trkpt><trkpt lat="45.59684799279384" lon="10.120381970622251"><ele>165.00000000000003</ele><time>2026-03-24T16:56:41.003Z</time></trkpt><trkpt lat="45.59685405619826" lon="10.120285480399971"><ele>165.0</ele><time>2026-03-24T16:56:44.003Z</time></trkpt><trkpt lat="45.59686237268821" lon="10.120184100681303"><ele>165.16666666666666</ele><time>2026-03-24T16:56:47.003Z</time></trkpt><trkpt lat="45.5968687754626" lon="10.120080875655724"><ele>165.33333333333334</ele><time>2026-03-24T16:56:50.003Z</time></trkpt><trkpt lat="45.59687644147557" lon="10.119986467585562"><ele>165.5</ele><time>2026-03-24T16:56:53.003Z</time></trkpt><trkpt lat="45.59689670396616" lon="10.119875549301817"><ele>165.66666666666669</ele><time>2026-03-24T16:56:57.003Z</time></trkpt><trkpt lat="45.5969016329007" lon="10.119759331600108"><ele>165.83333333333334</ele><time>2026-03-24T16:57:01.004Z</time></trkpt><trkpt lat="45.596904829079115" lon="10.119641307681196"><ele>166.0</ele><time>2026-03-24T16:57:05.004Z</time></trkpt><trkpt lat="45.59690107505614" lon="10.119523265878115"><ele>166.5</ele><time>2026-03-24T16:57:09.004Z</time></trkpt><trkpt lat="45.59691944041666" lon="10.1194128570567"><ele>167.0</ele><time>2026-03-24T16:57:13.004Z</time></trkpt><trkpt lat="45.59693682700063" lon="10.119307132900625"><ele>167.5</ele><time>2026-03-24T16:57:17.004Z</time></trkpt><trkpt lat="45.596945605130564" lon="10.119194450003063"><ele>168.0</ele><time>2026-03-24T16:57:21.004Z</time></trkpt><trkpt lat="45.59695644151315" lon="10.11910364106308"><ele>168.5</ele><time>2026-03-24T16:57:24.004Z</time></trkpt><trkpt lat="45.59698105668427" lon="10.118989868022197"><ele>169.0</ele><time>2026-03-24T16:57:28.004Z</time></trkpt><trkpt lat="45.59699539704875" lon="10.118879734768814"><ele>168.83333333333334</ele><time>2026-03-24T16:57:32.004Z</time></trkpt><trkpt lat="45.597003948979804" lon="10.118766319902061"><ele>168.66666666666669</ele><time>2026-03-24T16:57:36.004Z</time></trkpt><trkpt lat="45.59700516842776" lon="10.118657329661492"><ele>168.5</ele><time>2026-03-24T16:57:40.004Z</time></trkpt><trkpt lat="45.59702181425261" lon="10.118551725679083"><ele>168.33333333333334</ele><time>2026-03-24T16:57:44.004Z</time></trkpt><trkpt lat="45.597026279420774" lon="10.118435745401273"><ele>168.16666666666666</ele><time>2026-03-24T16:57:48.004Z</time></trkpt><trkpt lat="45.59703074155388" lon="10.11832206609264"><ele>168.0</ele><time>2026-03-24T16:57:51.004Z</time></trkpt><trkpt lat="45.59704076984593" lon="10.1182121388309"><ele>168.33333333333334</ele><time>2026-03-24T16:57:54.004Z</time></trkpt><trkpt lat="45.59704617076761" lon="10.118086831160742"><ele>168.66666666666666</ele><time>2026-03-24T16:57:57.004Z</time></trkpt><trkpt lat="45.597048636826614" lon="10.117976005571748"><ele>169.0</ele><time>2026-03-24T16:58:00.004Z</time></trkpt><trkpt lat="45.59705633133435" lon="10.117866395325544"><ele>169.33333333333331</ele><time>2026-03-24T16:58:03.004Z</time></trkpt><trkpt lat="45.59707163305388" lon="10.117743790167063"><ele>169.66666666666666</ele><time>2026-03-24T16:58:06.004Z</time></trkpt><trkpt lat="45.59709284664199" lon="10.1176292271387"><ele>170.0</ele><time>2026-03-24T16:58:09.004Z</time></trkpt><trkpt lat="45.59710273766247" lon="10.11751410377481"><ele>170.0</ele><time>2026-03-24T16:58:12.004Z</time></trkpt><trkpt lat="45.59710301829694" lon="10.117422020134246"><ele>170.0</ele><time>2026-03-24T16:58:14.004Z</time></trkpt><trkpt lat="45.597099251479506" lon="10.117299424489874"><ele>170.0</ele><time>2026-03-24T16:58:17.004Z</time></trkpt><trkpt lat="45.59709937972145" lon="10.117172249282547"><ele>170.0</ele><time>2026-03-24T16:58:20.004Z</time></trkpt><trkpt lat="45.597099925857734" lon="10.11705118040222"><ele>170.0</ele><time>2026-03-24T16:58:23.004Z</time></trkpt><trkpt lat="45.5970970522903" lon="10.11693308752976"><ele>170.0</ele><time>2026-03-24T16:58:26.004Z</time></trkpt><trkpt lat="45.59710725500968" lon="10.116824205980258"><ele>170.16666666666666</ele><time>2026-03-24T16:58:29.004Z</time></trkpt><trkpt lat="45.597111807350736" lon="10.116709515231118"><ele>170.33333333333331</ele><time>2026-03-24T16:58:32.004Z</time></trkpt><trkpt lat="45.597114550530726" lon="10.116607981835886"><ele>170.5</ele><time>2026-03-24T16:58:35.004Z</time></trkpt><trkpt lat="45.597102203425436" lon="10.116497811050776"><ele>170.66666666666666</ele><time>2026-03-24T16:58:38.004Z</time></trkpt><trkpt lat="45.597090845298354" lon="10.116382519770642"><ele>170.83333333333334</ele><time>2026-03-24T16:58:41.004Z</time></trkpt><trkpt lat="45.597082796829554" lon="10.116274262657365"><ele>171.0</ele><time>2026-03-24T16:58:44.004Z</time></trkpt><trkpt lat="45.597070920619295" lon="10.116160707660674"><ele>171.0</ele><time>2026-03-24T16:58:47.004Z</time></trkpt><trkpt lat="45.59705472626308" lon="10.116048640987506"><ele>171.0</ele><time>2026-03-24T16:58:50.004Z</time></trkpt><trkpt lat="45.59704710591745" lon="10.115927823655763"><ele>171.0</ele><time>2026-03-24T16:58:53.004Z</time></trkpt><trkpt lat="45.597037938417344" lon="10.115813486334897"><ele>171.0</ele><time>2026-03-24T16:58:56.004Z</time></trkpt><trkpt lat="45.59703427646484" lon="10.115688808905356"><ele>171.0</ele><time>2026-03-24T16:58:59.004Z</time></trkpt><trkpt lat="45.59701504740468" lon="10.115583038215101"><ele>171.0</ele><time>2026-03-24T16:59:02.004Z</time></trkpt><trkpt lat="45.59699734861132" lon="10.1154905788089"><ele>170.99999999999997</ele><time>2026-03-24T16:59:05.004Z</time></trkpt><trkpt lat="45.59698863111123" lon="10.11539274157968"><ele>171.0</ele><time>2026-03-24T16:59:08.004Z</time></trkpt><trkpt lat="45.59697267941852" lon="10.115297147903714"><ele>171.0</ele><time>2026-03-24T16:59:11.004Z</time></trkpt><trkpt lat="45.59695691565001" lon="10.11520840023747"><ele>171.0</ele><time>2026-03-24T16:59:14.004Z</time></trkpt><trkpt lat="45.59694148416951" lon="10.115102820801262"><ele>171.0</ele><time>2026-03-24T16:59:17.004Z</time></trkpt><trkpt lat="45.59692927927425" lon="10.115004448831122"><ele>170.99999999999997</ele><time>2026-03-24T16:59:20.004Z</time></trkpt><trkpt lat="45.596920394516495" lon="10.11491094700406"><ele>171.0</ele><time>2026-03-24T16:59:23.004Z</time></trkpt><trkpt lat="45.59690551370395" lon="10.114816483137982"><ele>171.14285714285714</ele><time>2026-03-24T16:59:26.004Z</time></trkpt><trkpt lat="45.59689464856595" lon="10.114720158110607"><ele>171.28571428571428</ele><time>2026-03-24T16:59:29.004Z</time></trkpt><trkpt lat="45.596884097692595" lon="10.114625637150162"><ele>171.42857142857144</ele><time>2026-03-24T16:59:32.004Z</time></trkpt><trkpt lat="45.596870705061896" lon="10.114532852211951"><ele>171.57142857142856</ele><time>2026-03-24T16:59:35.004Z</time></trkpt><trkpt lat="45.59685893405267" lon="10.114439793976183"><ele>171.71428571428572</ele><time>2026-03-24T16:59:38.004Z</time></trkpt><trkpt lat="45.59684811606339" lon="10.114342580963395"><ele>171.85714285714286</ele><time>2026-03-24T16:59:41.005Z</time></trkpt><trkpt lat="45.59683804776813" lon="10.11424840951372"><ele>172.0</ele><time>2026-03-24T16:59:44.005Z</time></trkpt><trkpt lat="45.59682135506058" lon="10.114156739177567"><ele>172.14285714285717</ele><time>2026-03-24T16:59:47.005Z</time></trkpt><trkpt lat="45.59681037200682" lon="10.114059246462686"><ele>172.28571428571428</ele><time>2026-03-24T16:59:50.005Z</time></trkpt><trkpt lat="45.596802314620355" lon="10.113962098017351"><ele>172.42857142857144</ele><time>2026-03-24T16:59:53.005Z</time></trkpt><trkpt lat="45.59679229783882" lon="10.11386588358685"><ele>172.57142857142858</ele><time>2026-03-24T16:59:56.005Z</time></trkpt><trkpt lat="45.596781045585786" lon="10.113766128633781"><ele>172.71428571428572</ele><time>2026-03-24T16:59:59.005Z</time></trkpt><trkpt lat="45.5967689015922" lon="10.113644782197253"><ele>172.85714285714286</ele><time>2026-03-24T17:00:03.005Z</time></trkpt><trkpt lat="45.596772346750456" lon="10.1135403977653"><ele>173.0</ele><time>2026-03-24T17:00:06.005Z</time></trkpt><trkpt lat="45.59678009402108" lon="10.113440273087408"><ele>173.0</ele><time>2026-03-24T17:00:09.005Z</time></trkpt><trkpt lat="45.59678749309298" lon="10.113346826357311"><ele>173.0</ele><time>2026-03-24T17:00:12.005Z</time></trkpt><trkpt lat="45.59679055651381" lon="10.113249327674747"><ele>173.0</ele><time>2026-03-24T17:00:15.005Z</time></trkpt><trkpt lat="45.596800765598566" lon="10.11314795631722"><ele>173.0</ele><time>2026-03-24T17:00:18.005Z</time></trkpt><trkpt lat="45.59680454470234" lon="10.113051477359896"><ele>173.0</ele><time>2026-03-24T17:00:21.005Z</time></trkpt><trkpt lat="45.59681210461342" lon="10.112950642266997"><ele>173.0</ele><time>2026-03-24T17:00:24.005Z</time></trkpt><trkpt lat="45.596822185508245" lon="10.112852989529278"><ele>173.0</ele><time>2026-03-24T17:00:27.005Z</time></trkpt><trkpt lat="45.59684197562087" lon="10.112753450354516"><ele>173.0</ele><time>2026-03-24T17:00:30.005Z</time></trkpt><trkpt lat="45.596857598386535" lon="10.112661335572623"><ele>173.0</ele><time>2026-03-24T17:00:33.005Z</time></trkpt><trkpt lat="45.5968747929609" lon="10.112563554233006"><ele>173.0</ele><time>2026-03-24T17:00:36.005Z</time></trkpt><trkpt lat="45.596888215528786" lon="10.11247127864509"><ele>173.0</ele><time>2026-03-24T17:00:39.005Z</time></trkpt><trkpt lat="45.59690833644169" lon="10.11238024255207"><ele>173.0</ele><time>2026-03-24T17:00:42.005Z</time></trkpt><trkpt lat="45.596922815925886" lon="10.11228521766859"><ele>173.0</ele><time>2026-03-24T17:00:45.005Z</time></trkpt><trkpt lat="45.59696415262605" lon="10.112191710823293"><ele>173.0</ele><time>2026-03-24T17:00:48.005Z</time></trkpt><trkpt lat="45.597011844831854" lon="10.112110664487409"><ele>173.57142857142856</ele><time>2026-03-24T17:00:51.005Z</time></trkpt><trkpt lat="45.597058911867755" lon="10.112041908157307"><ele>174.14285714285717</ele><time>2026-03-24T17:00:54.005Z</time></trkpt><trkpt lat="45.597105478688206" lon="10.111972699351293"><ele>174.71428571428572</ele><time>2026-03-24T17:00:57.005Z</time></trkpt><trkpt lat="45.597144074165605" lon="10.111891822083924"><ele>175.28571428571428</ele><time>2026-03-24T17:01:00.005Z</time></trkpt><trkpt lat="45.59717729037372" lon="10.111786476500212"><ele>175.85714285714283</ele><time>2026-03-24T17:01:03.005Z</time></trkpt><trkpt lat="45.597198472414505" lon="10.111688220809556"><ele>176.42857142857144</ele><time>2026-03-24T17:01:06.005Z</time></trkpt><trkpt lat="45.59720789965162" lon="10.111594288605277"><ele>177.0</ele><time>2026-03-24T17:01:09.005Z</time></trkpt><trkpt lat="45.597256604244734" lon="10.11152723746172"><ele>177.0</ele><time>2026-03-24T17:01:12.005Z</time></trkpt><trkpt lat="45.59730273458341" lon="10.111461229815305"><ele>177.0</ele><time>2026-03-24T17:01:15.005Z</time></trkpt><trkpt lat="45.59734913187428" lon="10.111381826770321"><ele>177.0</ele><time>2026-03-24T17:01:18.005Z</time></trkpt><trkpt lat="45.597399744503335" lon="10.111297186731429"><ele>177.0</ele><time>2026-03-24T17:01:21.005Z</time></trkpt><trkpt lat="45.59744614809635" lon="10.111226814476254"><ele>177.0</ele><time>2026-03-24T17:01:24.005Z</time></trkpt><trkpt lat="45.597479921164854" lon="10.111117609531242"><ele>177.0</ele><time>2026-03-24T17:01:27.005Z</time></trkpt><trkpt lat="45.59752565929558" lon="10.111028289965263"><ele>177.0</ele><time>2026-03-24T17:01:30.005Z</time></trkpt><trkpt lat="45.597559762036646" lon="10.110921974084869"><ele>177.0</ele><time>2026-03-24T17:01:33.005Z</time></trkpt><trkpt lat="45.597583357674395" lon="10.110810068760472"><ele>177.0</ele><time>2026-03-24T17:01:36.005Z</time></trkpt><trkpt lat="45.597576470590546" lon="10.110704180085651"><ele>177.0</ele><time>2026-03-24T17:01:39.005Z</time></trkpt><trkpt lat="45.59757239255216" lon="10.110610565372784"><ele>177.0</ele><time>2026-03-24T17:01:42.005Z</time></trkpt><trkpt lat="45.59755061318377" lon="10.11052202492453"><ele>177.0</ele><time>2026-03-24T17:01:45.005Z</time></trkpt><trkpt lat="45.5975338893167" lon="10.110405047042288"><ele>177.0</ele><time>2026-03-24T17:01:49.005Z</time></trkpt><trkpt lat="45.59752054489037" lon="10.110300478719772"><ele>177.0</ele><time>2026-03-24T17:01:52.005Z</time></trkpt><trkpt lat="45.59750736923363" lon="10.110208818398899"><ele>176.83333333333334</ele><time>2026-03-24T17:01:55.005Z</time></trkpt><trkpt lat="45.59749588743854" lon="10.110114200636149"><ele>176.66666666666666</ele><time>2026-03-24T17:01:58.005Z</time></trkpt><trkpt lat="45.59745479120491" lon="10.110027555952026"><ele>176.5</ele><time>2026-03-24T17:02:01.005Z</time></trkpt><trkpt lat="45.597430894594574" lon="10.109925385586527"><ele>176.33333333333331</ele><time>2026-03-24T17:02:04.005Z</time></trkpt><trkpt lat="45.59744306606451" lon="10.109798888724129"><ele>176.16666666666666</ele><time>2026-03-24T17:02:07.005Z</time></trkpt><trkpt lat="45.59744932797662" lon="10.109687811356075"><ele>176.0</ele><time>2026-03-24T17:02:10.005Z</time></trkpt><trkpt lat="45.59739196296797" lon="10.10962245215181"><ele>176.0</ele><time>2026-03-24T17:02:14.005Z</time></trkpt><trkpt lat="45.59730824497442" lon="10.109631634319008"><ele>176.0</ele><time>2026-03-24T17:02:17.006Z</time></trkpt><trkpt lat="45.597230264512135" lon="10.109637637982209"><ele>176.0</ele><time>2026-03-24T17:02:20.006Z</time></trkpt><trkpt lat="45.597154838473095" lon="10.109638998664025"><ele>176.0</ele><time>2026-03-24T17:02:23.006Z</time></trkpt><trkpt lat="45.59708456503384" lon="10.10966763255753"><ele>176.0</ele><time>2026-03-24T17:02:26.006Z</time></trkpt><trkpt lat="45.597012175689365" lon="10.109701236873255"><ele>176.0</ele><time>2026-03-24T17:02:29.006Z</time></trkpt><trkpt lat="45.59692722623823" lon="10.109704588102002"><ele>175.71428571428572</ele><time>2026-03-24T17:02:32.006Z</time></trkpt><trkpt lat="45.59685315733765" lon="10.109686261468518"><ele>175.42857142857142</ele><time>2026-03-24T17:02:35.006Z</time></trkpt><trkpt lat="45.596782119478355" lon="10.10971141792394"><ele>175.14285714285714</ele><time>2026-03-24T17:02:38.006Z</time></trkpt><trkpt lat="45.59671024525584" lon="10.109709224191647"><ele>174.85714285714286</ele><time>2026-03-24T17:02:41.006Z</time></trkpt><trkpt lat="45.596639730390656" lon="10.109702066226053"><ele>174.57142857142858</ele><time>2026-03-24T17:02:44.006Z</time></trkpt><trkpt lat="45.59657451302717" lon="10.109712389806926"><ele>174.28571428571428</ele><time>2026-03-24T17:02:47.006Z</time></trkpt><trkpt lat="45.59650058088376" lon="10.109714078536209"><ele>174.0</ele><time>2026-03-24T17:02:50.006Z</time></trkpt><trkpt lat="45.59641877801996" lon="10.109700939340167"><ele>174.0</ele><time>2026-03-24T17:02:53.006Z</time></trkpt><trkpt lat="45.59634696822674" lon="10.109703110875264"><ele>174.0</ele><time>2026-03-24T17:02:56.006Z</time></trkpt><trkpt lat="45.59627562379406" lon="10.109699283939548"><ele>174.0</ele><time>2026-03-24T17:02:59.006Z</time></trkpt><trkpt lat="45.59618696128142" lon="10.109699232465793"><ele>174.0</ele><time>2026-03-24T17:03:02.006Z</time></trkpt><trkpt lat="45.59611038681838" lon="10.109718359040029"><ele>174.0</ele><time>2026-03-24T17:03:05.006Z</time></trkpt><trkpt lat="45.59604415213243" lon="10.10972808518543"><ele>174.0</ele><time>2026-03-24T17:03:08.006Z</time></trkpt><trkpt lat="45.5959705518213" lon="10.109743651712822"><ele>174.14285714285714</ele><time>2026-03-24T17:03:11.006Z</time></trkpt><trkpt lat="45.59590097583335" lon="10.109740490850024"><ele>174.28571428571428</ele><time>2026-03-24T17:03:14.006Z</time></trkpt><trkpt lat="45.59583382642386" lon="10.109756662939379"><ele>174.42857142857144</ele><time>2026-03-24T17:03:17.006Z</time></trkpt><trkpt lat="45.59576870555962" lon="10.109765880707652"><ele>174.57142857142856</ele><time>2026-03-24T17:03:20.006Z</time></trkpt><trkpt lat="45.59570070248264" lon="10.10977576256058"><ele>174.71428571428572</ele><time>2026-03-24T17:03:23.006Z</time></trkpt><trkpt lat="45.595626464732966" lon="10.109787179101417"><ele>174.85714285714286</ele><time>2026-03-24T17:03:26.006Z</time></trkpt><trkpt lat="45.59555050759545" lon="10.10981223489059"><ele>175.0</ele><time>2026-03-24T17:03:29.006Z</time></trkpt><trkpt lat="45.59546746176174" lon="10.109813517468213"><ele>175.0</ele><time>2026-03-24T17:03:32.006Z</time></trkpt><trkpt lat="45.595382636444796" lon="10.109810401127325"><ele>175.0</ele><time>2026-03-24T17:03:35.006Z</time></trkpt><trkpt lat="45.59530212929271" lon="10.109830418140472"><ele>175.0</ele><time>2026-03-24T17:03:38.006Z</time></trkpt><trkpt lat="45.59522966347883" lon="10.109886921970254"><ele>175.0</ele><time>2026-03-24T17:03:41.006Z</time></trkpt><trkpt lat="45.59515219474566" lon="10.109931205995432"><ele>175.0</ele><time>2026-03-24T17:03:44.006Z</time></trkpt><trkpt lat="45.59511215119137" lon="10.110013440675717"><ele>175.0</ele><time>2026-03-24T17:03:47.006Z</time></trkpt><trkpt lat="45.59508523352315" lon="10.110104501101185"><ele>174.5</ele><time>2026-03-24T17:03:50.006Z</time></trkpt><trkpt lat="45.59503906447827" lon="10.110204267743054"><ele>174.0</ele><time>2026-03-24T17:03:54.006Z</time></trkpt><trkpt lat="45.594951935526254" lon="10.110234719264868"><ele>173.5</ele><time>2026-03-24T17:03:57.006Z</time></trkpt><trkpt lat="45.59487648021993" lon="10.110274146304638"><ele>173.0</ele><time>2026-03-24T17:04:00.006Z</time></trkpt><trkpt lat="45.594811068162024" lon="10.110292237562374"><ele>172.5</ele><time>2026-03-24T17:04:03.006Z</time></trkpt><trkpt lat="45.59474011708173" lon="10.11031511487261"><ele>172.0</ele><time>2026-03-24T17:04:06.006Z</time></trkpt><trkpt lat="45.594654465011416" lon="10.110370184817045"><ele>172.0</ele><time>2026-03-24T17:04:09.006Z</time></trkpt><trkpt lat="45.59458264526861" lon="10.110428091383373"><ele>172.0</ele><time>2026-03-24T17:04:12.006Z</time></trkpt><trkpt lat="45.594513380428616" lon="10.110502367709087"><ele>172.0</ele><time>2026-03-24T17:04:15.006Z</time></trkpt><trkpt lat="45.594444027221535" lon="10.110556949286574"><ele>172.0</ele><time>2026-03-24T17:04:18.006Z</time></trkpt><trkpt lat="45.594368254500765" lon="10.11059375584096"><ele>172.0</ele><time>2026-03-24T17:04:21.006Z</time></trkpt><trkpt lat="45.59430966041159" lon="10.110657062290302"><ele>172.0</ele><time>2026-03-24T17:04:24.006Z</time></trkpt><trkpt lat="45.59425274242679" lon="10.110737988579178"><ele>171.85714285714286</ele><time>2026-03-24T17:04:27.006Z</time></trkpt><trkpt lat="45.59419281444148" lon="10.11078095604635"><ele>171.71428571428572</ele><time>2026-03-24T17:04:30.006Z</time></trkpt><trkpt lat="45.59411658505794" lon="10.110795619657667"><ele>171.57142857142856</ele><time>2026-03-24T17:04:33.006Z</time></trkpt><trkpt lat="45.594044789850685" lon="10.110825405927168"><ele>171.42857142857144</ele><time>2026-03-24T17:04:36.006Z</time></trkpt><trkpt lat="45.59397753058128" lon="10.110864733383888"><ele>171.28571428571428</ele><time>2026-03-24T17:04:39.006Z</time></trkpt><trkpt lat="45.593899485501616" lon="10.110889864001535"><ele>171.14285714285714</ele><time>2026-03-24T17:04:42.006Z</time></trkpt><trkpt lat="45.59382425364149" lon="10.11087863955331"><ele>171.0</ele><time>2026-03-24T17:04:45.006Z</time></trkpt><trkpt lat="45.59374217694348" lon="10.110866367408871"><ele>170.99999999999997</ele><time>2026-03-24T17:04:48.006Z</time></trkpt><trkpt lat="45.59366469607947" lon="10.110872753334872"><ele>171.0</ele><time>2026-03-24T17:04:51.006Z</time></trkpt><trkpt lat="45.593592277896704" lon="10.110885535691885"><ele>171.0</ele><time>2026-03-24T17:04:54.007Z</time></trkpt><trkpt lat="45.593516626380165" lon="10.110887190953687"><ele>171.0</ele><time>2026-03-24T17:04:57.007Z</time></trkpt><trkpt lat="45.593453483467684" lon="10.110903563270345"><ele>171.0</ele><time>2026-03-24T17:05:00.007Z</time></trkpt><trkpt lat="45.59338322179833" lon="10.110908698031176"><ele>170.99999999999997</ele><time>2026-03-24T17:05:03.007Z</time></trkpt><trkpt lat="45.59329509878603" lon="10.110903662985192"><ele>171.0</ele><time>2026-03-24T17:05:07.007Z</time></trkpt><trkpt lat="45.593220326492364" lon="10.110887916842774"><ele>171.0</ele><time>2026-03-24T17:05:10.007Z</time></trkpt><trkpt lat="45.59315618448874" lon="10.110883728160376"><ele>171.0</ele><time>2026-03-24T17:05:13.007Z</time></trkpt><trkpt lat="45.593086274466046" lon="10.110866951977494"><ele>171.0</ele><time>2026-03-24T17:05:16.007Z</time></trkpt><trkpt lat="45.59301868541877" lon="10.110836934977256"><ele>171.0</ele><time>2026-03-24T17:05:19.007Z</time></trkpt><trkpt lat="45.5929334063977" lon="10.110841236485628"><ele>171.0</ele><time>2026-03-24T17:05:22.007Z</time></trkpt><trkpt lat="45.592865945744364" lon="10.110841478191205"><ele>171.0</ele><time>2026-03-24T17:05:24.007Z</time></trkpt><trkpt lat="45.592773056163416" lon="10.110820163795278"><ele>171.0</ele><time>2026-03-24T17:05:27.007Z</time></trkpt><trkpt lat="45.59268599930017" lon="10.11078125978727"><ele>171.0</ele><time>2026-03-24T17:05:30.007Z</time></trkpt><trkpt lat="45.592611951243626" lon="10.110768605784386"><ele>171.0</ele><time>2026-03-24T17:05:33.007Z</time></trkpt><trkpt lat="45.59254474677861" lon="10.110760805215104"><ele>171.0</ele><time>2026-03-24T17:05:36.007Z</time></trkpt><trkpt lat="45.59247819568155" lon="10.11072322666166"><ele>171.0</ele><time>2026-03-24T17:05:39.007Z</time></trkpt><trkpt lat="45.592414169654376" lon="10.11066200994291"><ele>171.0</ele><time>2026-03-24T17:05:42.007Z</time></trkpt><trkpt lat="45.592352264127534" lon="10.110608623316292"><ele>170.99999999999997</ele><time>2026-03-24T17:05:45.007Z</time></trkpt><trkpt lat="45.592286963166984" lon="10.110564345006813"><ele>171.0</ele><time>2026-03-24T17:05:48.007Z</time></trkpt><trkpt lat="45.59222084108209" lon="10.11053008753761"><ele>171.0</ele><time>2026-03-24T17:05:51.007Z</time></trkpt><trkpt lat="45.59216437101915" lon="10.110484293315467"><ele>171.0</ele><time>2026-03-24T17:05:54.007Z</time></trkpt><trkpt lat="45.59209870368278" lon="10.110434660114505"><ele>171.0</ele><time>2026-03-24T17:05:57.007Z</time></trkpt><trkpt lat="45.59203310954465" lon="10.110388411891922"><ele>170.99999999999997</ele><time>2026-03-24T17:06:00.007Z</time></trkpt><trkpt lat="45.59196874237405" lon="10.110328093323862"><ele>171.0</ele><time>2026-03-24T17:06:03.007Z</time></trkpt><trkpt lat="45.59190195167144" lon="10.11028625181877"><ele>170.83333333333334</ele><time>2026-03-24T17:06:06.007Z</time></trkpt><trkpt lat="45.591826696031895" lon="10.11023713400885"><ele>170.66666666666666</ele><time>2026-03-24T17:06:10.007Z</time></trkpt><trkpt lat="45.59174841204547" lon="10.110204512808068"><ele>170.5</ele><time>2026-03-24T17:06:13.007Z</time></trkpt><trkpt lat="45.591666863066834" lon="10.11016438965795"><ele>170.33333333333331</ele><time>2026-03-24T17:06:16.007Z</time></trkpt><trkpt lat="45.59159318361673" lon="10.110134065152208"><ele>170.16666666666666</ele><time>2026-03-24T17:06:19.007Z</time></trkpt><trkpt lat="45.5915232386914" lon="10.110122601201406"><ele>170.0</ele><time>2026-03-24T17:06:22.007Z</time></trkpt><trkpt lat="45.59145284143278" lon="10.110113333203115"><ele>170.0</ele><time>2026-03-24T17:06:25.007Z</time></trkpt><trkpt lat="45.59137815743266" lon="10.110100429438448"><ele>170.0</ele><time>2026-03-24T17:06:28.007Z</time></trkpt><trkpt lat="45.59130793506138" lon="10.110096183786087"><ele>170.0</ele><time>2026-03-24T17:06:31.007Z</time></trkpt><trkpt lat="45.59123717386853" lon="10.110101038213267"><ele>170.0</ele><time>2026-03-24T17:06:34.007Z</time></trkpt><trkpt lat="45.591166751174214" lon="10.110099229422563"><ele>170.0</ele><time>2026-03-24T17:06:37.007Z</time></trkpt><trkpt lat="45.59108942262808" lon="10.11009113221699"><ele>170.0</ele><time>2026-03-24T17:06:40.007Z</time></trkpt><trkpt lat="45.59101763729564" lon="10.11009358536411"><ele>170.0</ele><time>2026-03-24T17:06:43.007Z</time></trkpt><trkpt lat="45.5909529524189" lon="10.110104832697466"><ele>169.85714285714286</ele><time>2026-03-24T17:06:46.007Z</time></trkpt><trkpt lat="45.5908806467363" lon="10.11009421668276"><ele>169.7142857142857</ele><time>2026-03-24T17:06:49.007Z</time></trkpt><trkpt lat="45.59080647278173" lon="10.11009186763145"><ele>169.57142857142856</ele><time>2026-03-24T17:06:52.007Z</time></trkpt><trkpt lat="45.59073909743497" lon="10.110094259335542"><ele>169.42857142857144</ele><time>2026-03-24T17:06:55.003Z</time></trkpt><trkpt lat="45.59066618775093" lon="10.110100236527105"><ele>169.28571428571428</ele><time>2026-03-24T17:06:58.003Z</time></trkpt><trkpt lat="45.59059341720481" lon="10.110109596144257"><ele>169.14285714285714</ele><time>2026-03-24T17:07:01.003Z</time></trkpt><trkpt lat="45.59052638030704" lon="10.110124507427319"><ele>169.0</ele><time>2026-03-24T17:07:04.003Z</time></trkpt><trkpt lat="45.59044840722828" lon="10.110131232178245"><ele>169.0</ele><time>2026-03-24T17:07:07.003Z</time></trkpt><trkpt lat="45.59037431471718" lon="10.110127086240572"><ele>169.0</ele><time>2026-03-24T17:07:10.003Z</time></trkpt><trkpt lat="45.59030609917744" lon="10.110152398600926"><ele>169.0</ele><time>2026-03-24T17:07:13.003Z</time></trkpt><trkpt lat="45.590234848860135" lon="10.110164438819169"><ele>169.0</ele><time>2026-03-24T17:07:16.003Z</time></trkpt><trkpt lat="45.59016445524522" lon="10.110187521348289"><ele>169.0</ele><time>2026-03-24T17:07:19.003Z</time></trkpt><trkpt lat="45.590093803635185" lon="10.110196386279132"><ele>169.0</ele><time>2026-03-24T17:07:22.003Z</time></trkpt><trkpt lat="45.59002061494918" lon="10.11019557270052"><ele>169.0</ele><time>2026-03-24T17:07:25.003Z</time></trkpt><trkpt lat="45.589946010655204" lon="10.110178408692393"><ele>168.85714285714286</ele><time>2026-03-24T17:07:28.003Z</time></trkpt><trkpt lat="45.58987437777845" lon="10.11018542453483"><ele>168.71428571428572</ele><time>2026-03-24T17:07:31.003Z</time></trkpt><trkpt lat="45.58980703683843" lon="10.110177953764154"><ele>168.57142857142856</ele><time>2026-03-24T17:07:34.003Z</time></trkpt><trkpt lat="45.58973368701902" lon="10.11016276029844"><ele>168.42857142857144</ele><time>2026-03-24T17:07:37.003Z</time></trkpt><trkpt lat="45.58966061158162" lon="10.110154908625397"><ele>168.28571428571428</ele><time>2026-03-24T17:07:40.002Z</time></trkpt><trkpt lat="45.589585861931496" lon="10.110154266349275"><ele>168.14285714285714</ele><time>2026-03-24T17:07:43.003Z</time></trkpt><trkpt lat="45.5895164106063" lon="10.110163937767455"><ele>168.0</ele><time>2026-03-24T17:07:46.003Z</time></trkpt><trkpt lat="45.58944445934886" lon="10.110174418246544"><ele>167.57142857142858</ele><time>2026-03-24T17:07:49.003Z</time></trkpt><trkpt lat="45.58937628733283" lon="10.110174509477694"><ele>167.14285714285714</ele><time>2026-03-24T17:07:52.002Z</time></trkpt><trkpt lat="45.589302215246725" lon="10.110176170360868"><ele>166.71428571428572</ele><time>2026-03-24T17:07:55.003Z</time></trkpt><trkpt lat="45.58923218108196" lon="10.110187314758472"><ele>166.28571428571428</ele><time>2026-03-24T17:07:58.003Z</time></trkpt><trkpt lat="45.58916274528001" lon="10.11020505638037"><ele>165.85714285714286</ele><time>2026-03-24T17:08:01.003Z</time></trkpt><trkpt lat="45.589099940987055" lon="10.110254070406144"><ele>165.42857142857144</ele><time>2026-03-24T17:08:04.003Z</time></trkpt><trkpt lat="45.58903281431331" lon="10.110284717125928"><ele>165.0</ele><time>2026-03-24T17:08:07.003Z</time></trkpt><trkpt lat="45.588963981546414" lon="10.110329335666675"><ele>165.00000000000003</ele><time>2026-03-24T17:08:10.003Z</time></trkpt><trkpt lat="45.58889496571899" lon="10.110367484618065"><ele>165.0</ele><time>2026-03-24T17:08:13.003Z</time></trkpt><trkpt lat="45.58883188606669" lon="10.110408991048192"><ele>165.0</ele><time>2026-03-24T17:08:16.003Z</time></trkpt><trkpt lat="45.588767516959166" lon="10.1104393288848"><ele>165.0</ele><time>2026-03-24T17:08:19.003Z</time></trkpt><trkpt lat="45.58869643148581" lon="10.110468024361111"><ele>165.0</ele><time>2026-03-24T17:08:22.004Z</time></trkpt><trkpt lat="45.588626328584134" lon="10.110501295202113"><ele>165.00000000000003</ele><time>2026-03-24T17:08:25.004Z</time></trkpt><trkpt lat="45.58855418464199" lon="10.110522456062586"><ele>165.0</ele><time>2026-03-24T17:08:28.004Z</time></trkpt><trkpt lat="45.58848254860151" lon="10.110537601900068"><ele>164.71428571428572</ele><time>2026-03-24T17:08:31.004Z</time></trkpt><trkpt lat="45.58841729583348" lon="10.11054136093348"><ele>164.42857142857144</ele><time>2026-03-24T17:08:34.004Z</time></trkpt><trkpt lat="45.58834654087504" lon="10.110552208735617"><ele>164.14285714285717</ele><time>2026-03-24T17:08:37.004Z</time></trkpt><trkpt lat="45.58827713003293" lon="10.11056491060854"><ele>163.85714285714286</ele><time>2026-03-24T17:08:40.004Z</time></trkpt><trkpt lat="45.588207200492505" lon="10.110565612810896"><ele>163.57142857142856</ele><time>2026-03-24T17:08:43.004Z</time></trkpt><trkpt lat="45.58813612632142" lon="10.110565189093508"><ele>163.2857142857143</ele><time>2026-03-24T17:08:46.004Z</time></trkpt><trkpt lat="45.58806844369842" lon="10.110561809766395"><ele>163.0</ele><time>2026-03-24T17:08:49.004Z</time></trkpt><trkpt lat="45.58799759775323" lon="10.11055717622919"><ele>163.0</ele><time>2026-03-24T17:08:52.004Z</time></trkpt><trkpt lat="45.58792683549685" lon="10.110546546971761"><ele>163.0</ele><time>2026-03-24T17:08:55.004Z</time></trkpt><trkpt lat="45.587855970902964" lon="10.11053975871678"><ele>163.0</ele><time>2026-03-24T17:08:58.004Z</time></trkpt><trkpt lat="45.58778522057187" lon="10.110523964940166"><ele>163.0</ele><time>2026-03-24T17:09:01.004Z</time></trkpt><trkpt lat="45.587712641054026" lon="10.110515345290477"><ele>163.0</ele><time>2026-03-24T17:09:04.004Z</time></trkpt><trkpt lat="45.5876450067605" lon="10.110484811146442"><ele>163.0</ele><time>2026-03-24T17:09:07.004Z</time></trkpt><trkpt lat="45.58757512659732" lon="10.110467134778082"><ele>163.0</ele><time>2026-03-24T17:09:10.004Z</time></trkpt><trkpt lat="45.58750737055167" lon="10.110455577079078"><ele>163.14285714285714</ele><time>2026-03-24T17:09:13.004Z</time></trkpt><trkpt lat="45.58743676230777" lon="10.110428492809364"><ele>163.28571428571428</ele><time>2026-03-24T17:09:16.004Z</time></trkpt><trkpt lat="45.58736820677706" lon="10.1104124051486"><ele>163.42857142857142</ele><time>2026-03-24T17:09:19.004Z</time></trkpt><trkpt lat="45.587298426841826" lon="10.110382099757691"><ele>163.57142857142856</ele><time>2026-03-24T17:09:22.004Z</time></trkpt><trkpt lat="45.58723176015577" lon="10.110359296223853"><ele>163.71428571428572</ele><time>2026-03-24T17:09:25.004Z</time></trkpt><trkpt lat="45.58716568402612" lon="10.110341603348463"><ele>163.85714285714283</ele><time>2026-03-24T17:09:28.004Z</time></trkpt><trkpt lat="45.58710051488744" lon="10.11031909209289"><ele>164.0</ele><time>2026-03-24T17:09:31.004Z</time></trkpt><trkpt lat="45.58703194798569" lon="10.110295169933485"><ele>163.85714285714283</ele><time>2026-03-24T17:09:34.004Z</time></trkpt><trkpt lat="45.58696726370928" lon="10.110271731904497"><ele>163.71428571428572</ele><time>2026-03-24T17:09:37.004Z</time></trkpt><trkpt lat="45.58690050955184" lon="10.110257885322026"><ele>163.57142857142856</ele><time>2026-03-24T17:09:40.004Z</time></trkpt><trkpt lat="45.58683488893538" lon="10.110250554650419"><ele>163.42857142857142</ele><time>2026-03-24T17:09:43.004Z</time></trkpt><trkpt lat="45.58676648657392" lon="10.110218277312876"><ele>163.28571428571428</ele><time>2026-03-24T17:09:46.004Z</time></trkpt><trkpt lat="45.58669812391345" lon="10.110201871481099"><ele>163.14285714285714</ele><time>2026-03-24T17:09:49.004Z</time></trkpt><trkpt lat="45.586632582412754" lon="10.110176432620486"><ele>163.0</ele><time>2026-03-24T17:09:52.004Z</time></trkpt><trkpt lat="45.58656366322593" lon="10.110146033736298"><ele>163.0</ele><time>2026-03-24T17:09:55.004Z</time></trkpt><trkpt lat="45.58649809223112" lon="10.110128882859621"><ele>163.0</ele><time>2026-03-24T17:09:58.004Z</time></trkpt><trkpt lat="45.58643197130606" lon="10.110102326186048"><ele>163.0</ele><time>2026-03-24T17:10:01.004Z</time></trkpt><trkpt lat="45.586366340440634" lon="10.110084939859188"><ele>163.0</ele><time>2026-03-24T17:10:04.004Z</time></trkpt><trkpt lat="45.58630019672737" lon="10.11006999090428"><ele>163.0</ele><time>2026-03-24T17:10:07.004Z</time></trkpt><trkpt lat="45.58623281797496" lon="10.110050429247606"><ele>163.0</ele><time>2026-03-24T17:10:10.004Z</time></trkpt><trkpt lat="45.58616667615437" lon="10.11002945626068"><ele>163.0</ele><time>2026-03-24T17:10:13.004Z</time></trkpt><trkpt lat="45.58610065339541" lon="10.110009835433576"><ele>162.85714285714286</ele><time>2026-03-24T17:10:16.004Z</time></trkpt><trkpt lat="45.58603299297051" lon="10.109984347597697"><ele>162.7142857142857</ele><time>2026-03-24T17:10:19.004Z</time></trkpt><trkpt lat="45.58596255856829" lon="10.109966572368423"><ele>162.57142857142856</ele><time>2026-03-24T17:10:22.004Z</time></trkpt><trkpt lat="45.585897860757306" lon="10.10993502203776"><ele>162.42857142857144</ele><time>2026-03-24T17:10:25.004Z</time></trkpt><trkpt lat="45.58582628668444" lon="10.109928233114388"><ele>162.28571428571428</ele><time>2026-03-24T17:10:28.004Z</time></trkpt><trkpt lat="45.585766337011435" lon="10.109969800378227"><ele>162.14285714285714</ele><time>2026-03-24T17:10:31.004Z</time></trkpt><trkpt lat="45.58569218568091" lon="10.109946088916958"><ele>162.0</ele><time>2026-03-24T17:10:34.004Z</time></trkpt><trkpt lat="45.585620940190964" lon="10.109918423415705"><ele>162.14285714285714</ele><time>2026-03-24T17:10:37.004Z</time></trkpt><trkpt lat="45.585550787780264" lon="10.109893844308916"><ele>162.28571428571428</ele><time>2026-03-24T17:10:40.004Z</time></trkpt><trkpt lat="45.58547821506792" lon="10.109870109292823"><ele>162.42857142857144</ele><time>2026-03-24T17:10:43.004Z</time></trkpt><trkpt lat="45.58540267826156" lon="10.109859642720917"><ele>162.57142857142856</ele><time>2026-03-24T17:10:46.004Z</time></trkpt><trkpt lat="45.585337188086434" lon="10.109884697511953"><ele>162.7142857142857</ele><time>2026-03-24T17:10:49.004Z</time></trkpt><trkpt lat="45.585271393034866" lon="10.109915777119713"><ele>162.85714285714286</ele><time>2026-03-24T17:10:52.005Z</time></trkpt><trkpt lat="45.585213668025546" lon="10.109958595340128"><ele>163.0</ele><time>2026-03-24T17:10:55.005Z</time></trkpt><trkpt lat="45.58517695012044" lon="10.110037341572202"><ele>162.57142857142858</ele><time>2026-03-24T17:10:58.005Z</time></trkpt><trkpt lat="45.58514345571473" lon="10.110129298274108"><ele>162.14285714285714</ele><time>2026-03-24T17:11:01.005Z</time></trkpt><trkpt lat="45.58510187706729" lon="10.110220772786882"><ele>161.71428571428572</ele><time>2026-03-24T17:11:04.005Z</time></trkpt><trkpt lat="45.58503962931161" lon="10.110286300688593"><ele>161.28571428571428</ele><time>2026-03-24T17:11:07.005Z</time></trkpt><trkpt lat="45.58497301936086" lon="10.110329828056843"><ele>160.85714285714286</ele><time>2026-03-24T17:11:10.005Z</time></trkpt><trkpt lat="45.58490310777629" lon="10.110352296405056"><ele>160.42857142857142</ele><time>2026-03-24T17:11:13.005Z</time></trkpt><trkpt lat="45.584830527414795" lon="10.110342940088772"><ele>160.0</ele><time>2026-03-24T17:11:16.005Z</time></trkpt><trkpt lat="45.58475581485592" lon="10.110324530713475"><ele>160.0</ele><time>2026-03-24T17:11:19.005Z</time></trkpt><trkpt lat="45.58468387945568" lon="10.110304033539084"><ele>160.0</ele><time>2026-03-24T17:11:22.005Z</time></trkpt><trkpt lat="45.58461239126868" lon="10.110287187732958"><ele>160.0</ele><time>2026-03-24T17:11:25.005Z</time></trkpt><trkpt lat="45.58454222723528" lon="10.11026434494285"><ele>160.0</ele><time>2026-03-24T17:11:28.005Z</time></trkpt><trkpt lat="45.584470145992036" lon="10.11024238931758"><ele>160.0</ele><time>2026-03-24T17:11:31.005Z</time></trkpt><trkpt lat="45.58439855904854" lon="10.110221916605049"><ele>160.0</ele><time>2026-03-24T17:11:34.005Z</time></trkpt><trkpt lat="45.584326610299684" lon="10.110200079049203"><ele>160.0</ele><time>2026-03-24T17:11:37.005Z</time></trkpt><trkpt lat="45.58425525914834" lon="10.110183870907724"><ele>160.14285714285714</ele><time>2026-03-24T17:11:40.005Z</time></trkpt><trkpt lat="45.584180416866175" lon="10.110170458565783"><ele>160.28571428571428</ele><time>2026-03-24T17:11:43.005Z</time></trkpt><trkpt lat="45.58411065709472" lon="10.110165046037814"><ele>160.42857142857144</ele><time>2026-03-24T17:11:46.005Z</time></trkpt><trkpt lat="45.584037297373584" lon="10.110164811963674"><ele>160.57142857142856</ele><time>2026-03-24T17:11:49.005Z</time></trkpt><trkpt lat="45.583970965884184" lon="10.110159408706014"><ele>160.71428571428572</ele><time>2026-03-24T17:11:52.004Z</time></trkpt><trkpt lat="45.58390002545341" lon="10.110153458159338"><ele>160.85714285714286</ele><time>2026-03-24T17:11:55.005Z</time></trkpt><trkpt lat="45.583830070747595" lon="10.110153797305998"><ele>161.0</ele><time>2026-03-24T17:11:58.004Z</time></trkpt><trkpt lat="45.58375775981312" lon="10.110154742410753"><ele>161.0</ele><time>2026-03-24T17:12:01.004Z</time></trkpt><trkpt lat="45.58368770374612" lon="10.110165509383517"><ele>161.0</ele><time>2026-03-24T17:12:04.004Z</time></trkpt><trkpt lat="45.583620133819416" lon="10.110184963428797"><ele>161.0</ele><time>2026-03-24T17:12:07.005Z</time></trkpt><trkpt lat="45.58355304398125" lon="10.110210846993937"><ele>161.0</ele><time>2026-03-24T17:12:10.005Z</time></trkpt><trkpt lat="45.58348231757726" lon="10.110231413509181"><ele>161.0</ele><time>2026-03-24T17:12:13.005Z</time></trkpt><trkpt lat="45.583414499668415" lon="10.110257897570373"><ele>161.0</ele><time>2026-03-24T17:12:16.005Z</time></trkpt><trkpt lat="45.5833390643073" lon="10.110290690811626"><ele>161.0</ele><time>2026-03-24T17:12:19.005Z</time></trkpt><trkpt lat="45.58326957591548" lon="10.110330130439399"><ele>161.0</ele><time>2026-03-24T17:12:22.005Z</time></trkpt><trkpt lat="45.583212931144494" lon="10.110391239533266"><ele>161.0</ele><time>2026-03-24T17:12:25.005Z</time></trkpt><trkpt lat="45.583174523974414" lon="10.110472154292497"><ele>161.0</ele><time>2026-03-24T17:12:28.005Z</time></trkpt><trkpt lat="45.58313918596316" lon="10.11055563426869"><ele>161.0</ele><time>2026-03-24T17:12:31.005Z</time></trkpt><trkpt lat="45.583097998270325" lon="10.110662447640582"><ele>161.0</ele><time>2026-03-24T17:12:35.005Z</time></trkpt><trkpt lat="45.583067752045594" lon="10.110743718013989"><ele>161.0</ele><time>2026-03-24T17:12:38.005Z</time></trkpt><trkpt lat="45.58304423500741" lon="10.110832922179101"><ele>161.0</ele><time>2026-03-24T17:12:41.005Z</time></trkpt><trkpt lat="45.583021597351326" lon="10.11093914952622"><ele>160.85714285714286</ele><time>2026-03-24T17:12:44.005Z</time></trkpt><trkpt lat="45.58300376838871" lon="10.11103748125789"><ele>160.71428571428572</ele><time>2026-03-24T17:12:47.005Z</time></trkpt><trkpt lat="45.58297867481331" lon="10.111149016064244"><ele>160.57142857142856</ele><time>2026-03-24T17:12:50.005Z</time></trkpt><trkpt lat="45.582961948046616" lon="10.1112588069607"><ele>160.42857142857144</ele><time>2026-03-24T17:12:53.005Z</time></trkpt><trkpt lat="45.58294296835177" lon="10.11135918791903"><ele>160.28571428571428</ele><time>2026-03-24T17:12:56.005Z</time></trkpt><trkpt lat="45.582928878421285" lon="10.111454813557234"><ele>160.14285714285714</ele><time>2026-03-24T17:12:59.005Z</time></trkpt><trkpt lat="45.58291634870451" lon="10.111544812415321"><ele>160.0</ele><time>2026-03-24T17:13:02.005Z</time></trkpt><trkpt lat="45.582902584822016" lon="10.111638331140563"><ele>159.85714285714286</ele><time>2026-03-24T17:13:05.005Z</time></trkpt><trkpt lat="45.58289657939961" lon="10.11172873116793"><ele>159.71428571428572</ele><time>2026-03-24T17:13:08.005Z</time></trkpt><trkpt lat="45.58287944269247" lon="10.111821557564081"><ele>159.57142857142856</ele><time>2026-03-24T17:13:11.005Z</time></trkpt><trkpt lat="45.58287093594563" lon="10.111918272645735"><ele>159.42857142857144</ele><time>2026-03-24T17:13:14.005Z</time></trkpt><trkpt lat="45.58285531455823" lon="10.112012624589315"><ele>159.2857142857143</ele><time>2026-03-24T17:13:17.005Z</time></trkpt><trkpt lat="45.582839637443236" lon="10.112107293423207"><ele>159.14285714285714</ele><time>2026-03-24T17:13:20.005Z</time></trkpt><trkpt lat="45.582821982912215" lon="10.112213843480518"><ele>159.0</ele><time>2026-03-24T17:13:23.005Z</time></trkpt><trkpt lat="45.582804835749606" lon="10.112315906510732"><ele>159.14285714285714</ele><time>2026-03-24T17:13:26.005Z</time></trkpt><trkpt lat="45.58279363582877" lon="10.112409857237632"><ele>159.2857142857143</ele><time>2026-03-24T17:13:29.005Z</time></trkpt><trkpt lat="45.58278008529747" lon="10.11251104330568"><ele>159.42857142857144</ele><time>2026-03-24T17:13:32.005Z</time></trkpt><trkpt lat="45.58276703110199" lon="10.112612530782508"><ele>159.57142857142856</ele><time>2026-03-24T17:13:35.005Z</time></trkpt><trkpt lat="45.58275363673481" lon="10.112715855341332"><ele>159.71428571428572</ele><time>2026-03-24T17:13:38.005Z</time></trkpt><trkpt lat="45.58274278862343" lon="10.112815782118231"><ele>159.85714285714286</ele><time>2026-03-24T17:13:41.005Z</time></trkpt><trkpt lat="45.58273176709997" lon="10.112905560280778"><ele>160.0</ele><time>2026-03-24T17:13:44.005Z</time></trkpt><trkpt lat="45.58272183315408" lon="10.112998933511415"><ele>160.0</ele><time>2026-03-24T17:13:47.005Z</time></trkpt><trkpt lat="45.5827079926496" lon="10.113092708641918"><ele>160.0</ele><time>2026-03-24T17:13:50.005Z</time></trkpt><trkpt lat="45.582695759747985" lon="10.113185873598605"><ele>160.0</ele><time>2026-03-24T17:13:53.005Z</time></trkpt><trkpt lat="45.58267387901845" lon="10.113286502396322"><ele>160.0</ele><time>2026-03-24T17:13:56.005Z</time></trkpt><trkpt lat="45.58265836236373" lon="10.113395540044536"><ele>160.0</ele><time>2026-03-24T17:13:59.005Z</time></trkpt><trkpt lat="45.58263561579124" lon="10.113496251275105"><ele>160.0</ele><time>2026-03-24T17:14:02.005Z</time></trkpt><trkpt lat="45.582617019463875" lon="10.113592806867024"><ele>160.0</ele><time>2026-03-24T17:14:05.005Z</time></trkpt><trkpt lat="45.582589269234" lon="10.113697169138796"><ele>160.0</ele><time>2026-03-24T17:14:08.005Z</time></trkpt><trkpt lat="45.582562436728224" lon="10.113791927193803"><ele>160.0</ele><time>2026-03-24T17:14:11.005Z</time></trkpt><trkpt lat="45.582538923346014" lon="10.113887592608064"><ele>160.0</ele><time>2026-03-24T17:14:14.005Z</time></trkpt><trkpt lat="45.58252048842119" lon="10.113993542382778"><ele>160.0</ele><time>2026-03-24T17:14:17.005Z</time></trkpt><trkpt lat="45.582500989443545" lon="10.114090000789302"><ele>160.0</ele><time>2026-03-24T17:14:20.005Z</time></trkpt><trkpt lat="45.58247442560815" lon="10.11419036605538"><ele>160.0</ele><time>2026-03-24T17:14:23.005Z</time></trkpt><trkpt lat="45.58245341052153" lon="10.11429239131874"><ele>160.0</ele><time>2026-03-24T17:14:26.005Z</time></trkpt><trkpt lat="45.58243048716562" lon="10.114391619339282"><ele>159.85714285714286</ele><time>2026-03-24T17:14:29.005Z</time></trkpt><trkpt lat="45.58241235007303" lon="10.114486603680977"><ele>159.71428571428572</ele><time>2026-03-24T17:14:32.005Z</time></trkpt><trkpt lat="45.58239049961022" lon="10.114579498470173"><ele>159.57142857142856</ele><time>2026-03-24T17:14:35.005Z</time></trkpt><trkpt lat="45.582367386279735" lon="10.114671447555871"><ele>159.42857142857144</ele><time>2026-03-24T17:14:38.005Z</time></trkpt><trkpt lat="45.58234149520345" lon="10.114782428131642"><ele>159.2857142857143</ele><time>2026-03-24T17:14:42.005Z</time></trkpt><trkpt lat="45.58232281982166" lon="10.11487752922398"><ele>159.14285714285714</ele><time>2026-03-24T17:14:45.005Z</time></trkpt><trkpt lat="45.58230761209627" lon="10.114999093086011"><ele>159.0</ele><time>2026-03-24T17:14:49.005Z</time></trkpt><trkpt lat="45.58230152343525" lon="10.115099923862452"><ele>159.0</ele><time>2026-03-24T17:14:52.005Z</time></trkpt><trkpt lat="45.582292454537765" lon="10.115205625892587"><ele>159.0</ele><time>2026-03-24T17:14:55.005Z</time></trkpt><trkpt lat="45.582287035990745" lon="10.115309632034947"><ele>159.0</ele><time>2026-03-24T17:14:58.005Z</time></trkpt><trkpt lat="45.58227030067036" lon="10.115418230545982"><ele>159.0</ele><time>2026-03-24T17:15:01.005Z</time></trkpt><trkpt lat="45.58225368243089" lon="10.115525469780767"><ele>159.0</ele><time>2026-03-24T17:15:04.005Z</time></trkpt><trkpt lat="45.582246363565744" lon="10.115617680948764"><ele>159.0</ele><time>2026-03-24T17:15:07.005Z</time></trkpt><trkpt lat="45.5822377443366" lon="10.115725424531727"><ele>159.0</ele><time>2026-03-24T17:15:10.005Z</time></trkpt><trkpt lat="45.58223925801466" lon="10.115831183845168"><ele>158.57142857142856</ele><time>2026-03-24T17:15:13.005Z</time></trkpt><trkpt lat="45.582229854305815" lon="10.115937023047534"><ele>158.14285714285717</ele><time>2026-03-24T17:15:16.005Z</time></trkpt><trkpt lat="45.58222117819943" lon="10.116048561757244"><ele>157.71428571428572</ele><time>2026-03-24T17:15:19.005Z</time></trkpt><trkpt lat="45.58221003229597" lon="10.116150355808331"><ele>157.28571428571428</ele><time>2026-03-24T17:15:22.005Z</time></trkpt><trkpt lat="45.58220704619013" lon="10.116256703442156"><ele>156.85714285714283</ele><time>2026-03-24T17:15:25.005Z</time></trkpt><trkpt lat="45.5821946327172" lon="10.116360293906705"><ele>156.42857142857144</ele><time>2026-03-24T17:15:28.005Z</time></trkpt><trkpt lat="45.582186532290685" lon="10.116466314822961"><ele>156.0</ele><time>2026-03-24T17:15:31.005Z</time></trkpt><trkpt lat="45.58217910232838" lon="10.11656627671051"><ele>156.0</ele><time>2026-03-24T17:15:34.005Z</time></trkpt><trkpt lat="45.58217332721138" lon="10.116667935529007"><ele>156.0</ele><time>2026-03-24T17:15:37.005Z</time></trkpt><trkpt lat="45.5821634251898" lon="10.116775578438109"><ele>156.0</ele><time>2026-03-24T17:15:40.005Z</time></trkpt><trkpt lat="45.58216314227482" lon="10.116884089543339"><ele>156.0</ele><time>2026-03-24T17:15:43.005Z</time></trkpt><trkpt lat="45.5821703193088" lon="10.116987278179062"><ele>156.0</ele><time>2026-03-24T17:15:46.005Z</time></trkpt><trkpt lat="45.58217470394516" lon="10.117090375926535"><ele>156.0</ele><time>2026-03-24T17:15:49.005Z</time></trkpt><trkpt lat="45.58218138652177" lon="10.11719442508602"><ele>156.0</ele><time>2026-03-24T17:15:52.005Z</time></trkpt><trkpt lat="45.582184200284054" lon="10.11730267488549"><ele>155.85714285714286</ele><time>2026-03-24T17:15:55.005Z</time></trkpt><trkpt lat="45.58219480521136" lon="10.117407251637363"><ele>155.7142857142857</ele><time>2026-03-24T17:15:58.005Z</time></trkpt><trkpt lat="45.58219933182092" lon="10.1175110172079"><ele>155.57142857142856</ele><time>2026-03-24T17:16:01.005Z</time></trkpt><trkpt lat="45.58222195469436" lon="10.117606054763952"><ele>155.42857142857144</ele><time>2026-03-24T17:16:04.005Z</time></trkpt><trkpt lat="45.5822810834741" lon="10.117681819079273"><ele>155.28571428571428</ele><time>2026-03-24T17:16:07.006Z</time></trkpt><trkpt lat="45.58233627910782" lon="10.117754541186093"><ele>155.14285714285714</ele><time>2026-03-24T17:16:10.005Z</time></trkpt><trkpt lat="45.5823800461677" lon="10.11783768611067"><ele>155.0</ele><time>2026-03-24T17:16:13.005Z</time></trkpt><trkpt lat="45.582428684872404" lon="10.117909543506338"><ele>155.0</ele><time>2026-03-24T17:16:16.005Z</time></trkpt><trkpt lat="45.58244702468572" lon="10.118023536767646"><ele>155.0</ele><time>2026-03-24T17:16:20.006Z</time></trkpt><trkpt lat="45.58240066047301" lon="10.118111871760531"><ele>155.0</ele><time>2026-03-24T17:16:23.006Z</time></trkpt><trkpt lat="45.58233280537777" lon="10.11814860656309"><ele>155.0</ele><time>2026-03-24T17:16:26.006Z</time></trkpt><trkpt lat="45.58227223356564" lon="10.118199512953492"><ele>155.0</ele><time>2026-03-24T17:16:29.006Z</time></trkpt><trkpt lat="45.58220928491507" lon="10.118245728778682"><ele>155.0</ele><time>2026-03-24T17:16:32.006Z</time></trkpt><trkpt lat="45.582143176968714" lon="10.118313380240384"><ele>155.0</ele><time>2026-03-24T17:16:36.006Z</time></trkpt><trkpt lat="45.582099917791794" lon="10.118400631646054"><ele>155.0</ele><time>2026-03-24T17:16:39.006Z</time></trkpt><trkpt lat="45.58207427750351" lon="10.118500308364675"><ele>155.0</ele><time>2026-03-24T17:16:42.006Z</time></trkpt><trkpt lat="45.5820580845923" lon="10.118594606638665"><ele>155.0</ele><time>2026-03-24T17:16:45.006Z</time></trkpt><trkpt lat="45.58203581709809" lon="10.118686047872604"><ele>155.0</ele><time>2026-03-24T17:16:48.006Z</time></trkpt><trkpt lat="45.58201553336969" lon="10.118783266018532"><ele>155.0</ele><time>2026-03-24T17:16:51.006Z</time></trkpt><trkpt lat="45.581995792604765" lon="10.118882374483128"><ele>155.0</ele><time>2026-03-24T17:16:54.006Z</time></trkpt><trkpt lat="45.5819825648466" lon="10.11897488393555"><ele>155.0</ele><time>2026-03-24T17:16:57.006Z</time></trkpt><trkpt lat="45.581966236827874" lon="10.119066270534132"><ele>155.0</ele><time>2026-03-24T17:17:00.006Z</time></trkpt><trkpt lat="45.58194937941436" lon="10.11916847275183"><ele>155.0</ele><time>2026-03-24T17:17:03.006Z</time></trkpt><trkpt lat="45.58192883060458" lon="10.11926956058815"><ele>155.0</ele><time>2026-03-24T17:17:06.006Z</time></trkpt><trkpt lat="45.58191572289054" lon="10.119371244327102"><ele>155.0</ele><time>2026-03-24T17:17:09.006Z</time></trkpt><trkpt lat="45.5818989939368" lon="10.11946025989402"><ele>155.0</ele><time>2026-03-24T17:17:12.006Z</time></trkpt><trkpt lat="45.58188908458057" lon="10.119560125069626"><ele>155.0</ele><time>2026-03-24T17:17:15.006Z</time></trkpt><trkpt lat="45.58187600892708" lon="10.11966677673247"><ele>155.0</ele><time>2026-03-24T17:17:18.006Z</time></trkpt><trkpt lat="45.58186728763474" lon="10.119760715826025"><ele>155.0</ele><time>2026-03-24T17:17:21.006Z</time></trkpt><trkpt lat="45.58186764272724" lon="10.11985474298619"><ele>155.0</ele><time>2026-03-24T17:17:24.006Z</time></trkpt><trkpt lat="45.58187564172568" lon="10.119960758749665"><ele>155.0</ele><time>2026-03-24T17:17:27.006Z</time></trkpt><trkpt lat="45.58188913978493" lon="10.120068442165685"><ele>155.0</ele><time>2026-03-24T17:17:30.006Z</time></trkpt><trkpt lat="45.58190270744254" lon="10.120180232756656"><ele>155.0</ele><time>2026-03-24T17:17:33.006Z</time></trkpt><trkpt lat="45.581936621598395" lon="10.120264551883686"><ele>155.0</ele><time>2026-03-24T17:17:36.006Z</time></trkpt><trkpt lat="45.58196155812428" lon="10.12037279643107"><ele>155.0</ele><time>2026-03-24T17:17:39.006Z</time></trkpt><trkpt lat="45.581987508377026" lon="10.12046133441205"><ele>155.0</ele><time>2026-03-24T17:17:42.006Z</time></trkpt><trkpt lat="45.58201023314237" lon="10.120558418795099"><ele>155.0</ele><time>2026-03-24T17:17:45.006Z</time></trkpt><trkpt lat="45.58203363424562" lon="10.120654087316776"><ele>155.0</ele><time>2026-03-24T17:17:48.006Z</time></trkpt><trkpt lat="45.58206865546931" lon="10.120745896034704"><ele>155.0</ele><time>2026-03-24T17:17:51.006Z</time></trkpt><trkpt lat="45.58209714918882" lon="10.120839760782326"><ele>155.0</ele><time>2026-03-24T17:17:54.006Z</time></trkpt><trkpt lat="45.582126031318424" lon="10.120935817000875"><ele>155.0</ele><time>2026-03-24T17:17:57.006Z</time></trkpt><trkpt lat="45.58214539420042" lon="10.121035266559568"><ele>154.85714285714286</ele><time>2026-03-24T17:18:00.006Z</time></trkpt><trkpt lat="45.5821579383154" lon="10.121144026025332"><ele>154.71428571428572</ele><time>2026-03-24T17:18:03.006Z</time></trkpt><trkpt lat="45.58215718578069" lon="10.121259988216835"><ele>154.57142857142856</ele><time>2026-03-24T17:18:06.006Z</time></trkpt><trkpt lat="45.5821581783632" lon="10.121350539285785"><ele>154.42857142857144</ele><time>2026-03-24T17:18:09.006Z</time></trkpt><trkpt lat="45.58215713207164" lon="10.121446675653358"><ele>154.28571428571428</ele><time>2026-03-24T17:18:12.006Z</time></trkpt><trkpt lat="45.58215024700634" lon="10.1215362530309"><ele>154.14285714285714</ele><time>2026-03-24T17:18:15.006Z</time></trkpt><trkpt lat="45.582143781545454" lon="10.121628123851323"><ele>154.0</ele><time>2026-03-24T17:18:18.006Z</time></trkpt><trkpt lat="45.582138976931596" lon="10.121744184967731"><ele>154.14285714285714</ele><time>2026-03-24T17:18:21.006Z</time></trkpt><trkpt lat="45.58213336916649" lon="10.121843774087312"><ele>154.28571428571428</ele><time>2026-03-24T17:18:24.005Z</time></trkpt><trkpt lat="45.58213054562957" lon="10.121949057486665"><ele>154.42857142857144</ele><time>2026-03-24T17:18:27.006Z</time></trkpt><trkpt lat="45.58211875156906" lon="10.12204792176384"><ele>154.57142857142856</ele><time>2026-03-24T17:18:30.006Z</time></trkpt><trkpt lat="45.58211754981032" lon="10.122146581444976"><ele>154.71428571428572</ele><time>2026-03-24T17:18:33.006Z</time></trkpt><trkpt lat="45.58211027917082" lon="10.12224271066116"><ele>154.85714285714286</ele><time>2026-03-24T17:18:36.006Z</time></trkpt><trkpt lat="45.58211040125992" lon="10.122336914670205"><ele>155.0</ele><time>2026-03-24T17:18:39.006Z</time></trkpt><trkpt lat="45.58210065365436" lon="10.122430876622163"><ele>155.0</ele><time>2026-03-24T17:18:42.006Z</time></trkpt><trkpt lat="45.582088408164445" lon="10.122533103480817"><ele>155.0</ele><time>2026-03-24T17:18:45.006Z</time></trkpt><trkpt lat="45.58208814862627" lon="10.122637343908286"><ele>155.0</ele><time>2026-03-24T17:18:48.006Z</time></trkpt><trkpt lat="45.58207902723219" lon="10.12274414020102"><ele>155.0</ele><time>2026-03-24T17:18:51.006Z</time></trkpt><trkpt lat="45.58206998367643" lon="10.122840186318761"><ele>155.0</ele><time>2026-03-24T17:18:54.006Z</time></trkpt><trkpt lat="45.582055814247326" lon="10.12295893558197"><ele>155.0</ele><time>2026-03-24T17:18:57.006Z</time></trkpt><trkpt lat="45.582045125279514" lon="10.123069274237611"><ele>155.0</ele><time>2026-03-24T17:19:00.006Z</time></trkpt><trkpt lat="45.58203579782029" lon="10.123174054088707"><ele>155.0</ele><time>2026-03-24T17:19:03.006Z</time></trkpt><trkpt lat="45.58202703665319" lon="10.123289049790394"><ele>155.0</ele><time>2026-03-24T17:19:06.006Z</time></trkpt><trkpt lat="45.58201930052639" lon="10.123393792506818"><ele>155.0</ele><time>2026-03-24T17:19:09.006Z</time></trkpt><trkpt lat="45.58201227548015" lon="10.123503905684547"><ele>155.0</ele><time>2026-03-24T17:19:12.006Z</time></trkpt><trkpt lat="45.582009548311525" lon="10.12361325194492"><ele>155.0</ele><time>2026-03-24T17:19:15.006Z</time></trkpt><trkpt lat="45.58198856317271" lon="10.123715398087462"><ele>154.66666666666666</ele><time>2026-03-24T17:19:18.006Z</time></trkpt><trkpt lat="45.581945616428804" lon="10.123795068571214"><ele>154.33333333333331</ele><time>2026-03-24T17:19:21.006Z</time></trkpt><trkpt lat="45.58187629314223" lon="10.123838148576176"><ele>154.0</ele><time>2026-03-24T17:19:24.006Z</time></trkpt><trkpt lat="45.581796756695994" lon="10.123853908334121"><ele>153.66666666666666</ele><time>2026-03-24T17:19:27.006Z</time></trkpt><trkpt lat="45.58172367700667" lon="10.12384411601305"><ele>153.33333333333334</ele><time>2026-03-24T17:19:30.006Z</time></trkpt><trkpt lat="45.58165057841606" lon="10.123823760944205"><ele>153.0</ele><time>2026-03-24T17:19:33.006Z</time></trkpt><trkpt lat="45.581571815787804" lon="10.123819150504131"><ele>153.0</ele><time>2026-03-24T17:19:36.006Z</time></trkpt><trkpt lat="45.58149288112071" lon="10.123817247509134"><ele>153.0</ele><time>2026-03-24T17:19:39.006Z</time></trkpt><trkpt lat="45.581421477155075" lon="10.123788797248618"><ele>153.0</ele><time>2026-03-24T17:19:42.006Z</time></trkpt><trkpt lat="45.581348142755616" lon="10.12377201530012"><ele>153.0</ele><time>2026-03-24T17:19:45.006Z</time></trkpt><trkpt lat="45.58127907416132" lon="10.12377439840003"><ele>153.0</ele><time>2026-03-24T17:19:48.006Z</time></trkpt><trkpt lat="45.58120851070791" lon="10.123756654705453"><ele>153.0</ele><time>2026-03-24T17:19:51.006Z</time></trkpt><trkpt lat="45.58113304747238" lon="10.123727258432318"><ele>153.0</ele><time>2026-03-24T17:19:54.006Z</time></trkpt><trkpt lat="45.58105545257598" lon="10.123733708886421"><ele>153.0</ele><time>2026-03-24T17:19:57.006Z</time></trkpt><trkpt lat="45.58098292104416" lon="10.123741723896101"><ele>153.0</ele><time>2026-03-24T17:20:00.006Z</time></trkpt><trkpt lat="45.580910177610335" lon="10.123750111941384"><ele>153.0</ele><time>2026-03-24T17:20:03.006Z</time></trkpt><trkpt lat="45.58083757485982" lon="10.12376807824993"><ele>153.0</ele><time>2026-03-24T17:20:06.006Z</time></trkpt><trkpt lat="45.580765724978164" lon="10.123790986430526"><ele>153.0</ele><time>2026-03-24T17:20:09.006Z</time></trkpt><trkpt lat="45.58069268098685" lon="10.123806574472212"><ele>153.0</ele><time>2026-03-24T17:20:12.006Z</time></trkpt><trkpt lat="45.58061269736048" lon="10.123803907047396"><ele>153.0</ele><time>2026-03-24T17:20:15.006Z</time></trkpt><trkpt lat="45.580536341960844" lon="10.123802553667675"><ele>153.0</ele><time>2026-03-24T17:20:18.007Z</time></trkpt><trkpt lat="45.58046034004542" lon="10.123812887665917"><ele>153.0</ele><time>2026-03-24T17:20:21.006Z</time></trkpt><trkpt lat="45.5803815457058" lon="10.123826828688946"><ele>153.0</ele><time>2026-03-24T17:20:24.006Z</time></trkpt><trkpt lat="45.58030278642879" lon="10.123831508623066"><ele>153.0</ele><time>2026-03-24T17:20:27.006Z</time></trkpt><trkpt lat="45.58023192668844" lon="10.12384332987647"><ele>153.0</ele><time>2026-03-24T17:20:30.006Z</time></trkpt><trkpt lat="45.58016841164062" lon="10.123825587580273"><ele>153.0</ele><time>2026-03-24T17:20:33.006Z</time></trkpt><trkpt lat="45.58008939745646" lon="10.123834723088837"><ele>153.0</ele><time>2026-03-24T17:20:36.006Z</time></trkpt><trkpt lat="45.58001167119315" lon="10.123822417821284"><ele>153.0</ele><time>2026-03-24T17:20:39.006Z</time></trkpt><trkpt lat="45.579936751152914" lon="10.123822660719684"><ele>153.0</ele><time>2026-03-24T17:20:42.006Z</time></trkpt><trkpt lat="45.57986630680046" lon="10.123818280542638"><ele>153.0</ele><time>2026-03-24T17:20:45.006Z</time></trkpt><trkpt lat="45.57979678224747" lon="10.123816365651628"><ele>153.0</ele><time>2026-03-24T17:20:48.006Z</time></trkpt><trkpt lat="45.57973134826731" lon="10.123809298151116"><ele>153.0</ele><time>2026-03-24T17:20:51.006Z</time></trkpt><trkpt lat="45.579655911145394" lon="10.123818397655672"><ele>153.0</ele><time>2026-03-24T17:20:54.006Z</time></trkpt><trkpt lat="45.579585645161224" lon="10.123812563611823"><ele>153.0</ele><time>2026-03-24T17:20:57.007Z</time></trkpt><trkpt lat="45.57951900896167" lon="10.123820075797322"><ele>153.0</ele><time>2026-03-24T17:21:00.007Z</time></trkpt><trkpt lat="45.57944896861695" lon="10.123819949992416"><ele>153.0</ele><time>2026-03-24T17:21:03.007Z</time></trkpt><trkpt lat="45.57937581058948" lon="10.1238184107525"><ele>153.0</ele><time>2026-03-24T17:21:06.007Z</time></trkpt><trkpt lat="45.57930822122235" lon="10.123823270063804"><ele>153.0</ele><time>2026-03-24T17:21:09.007Z</time></trkpt><trkpt lat="45.57923834854786" lon="10.12382139424401"><ele>153.0</ele><time>2026-03-24T17:21:12.007Z</time></trkpt><trkpt lat="45.57916771387239" lon="10.123806385091203"><ele>153.0</ele><time>2026-03-24T17:21:15.007Z</time></trkpt><trkpt lat="45.57909477930447" lon="10.123804650487063"><ele>152.85714285714286</ele><time>2026-03-24T17:21:18.007Z</time></trkpt><trkpt lat="45.57902302522181" lon="10.123794072001154"><ele>152.71428571428572</ele><time>2026-03-24T17:21:21.007Z</time></trkpt><trkpt lat="45.578950364916224" lon="10.123791095822703"><ele>152.57142857142856</ele><time>2026-03-24T17:21:24.007Z</time></trkpt><trkpt lat="45.57888361300012" lon="10.123781751883568"><ele>152.42857142857144</ele><time>2026-03-24T17:21:27.007Z</time></trkpt><trkpt lat="45.578815300705244" lon="10.123785986573132"><ele>152.2857142857143</ele><time>2026-03-24T17:21:30.007Z</time></trkpt><trkpt lat="45.57873177749002" lon="10.123791933795019"><ele>152.14285714285714</ele><time>2026-03-24T17:21:34.007Z</time></trkpt><trkpt lat="45.5786650066006" lon="10.123796063110685"><ele>152.0</ele><time>2026-03-24T17:21:37.007Z</time></trkpt><trkpt lat="45.57860039470128" lon="10.123807410578152"><ele>151.85714285714286</ele><time>2026-03-24T17:21:40.007Z</time></trkpt><trkpt lat="45.5785325509689" lon="10.123811795471754"><ele>151.71428571428572</ele><time>2026-03-24T17:21:43.007Z</time></trkpt><trkpt lat="45.578461371866474" lon="10.123808770796053"><ele>151.57142857142858</ele><time>2026-03-24T17:21:46.007Z</time></trkpt><trkpt lat="45.57839587181585" lon="10.123821716954712"><ele>151.42857142857144</ele><time>2026-03-24T17:21:49.007Z</time></trkpt><trkpt lat="45.57832781176926" lon="10.123831435038568"><ele>151.28571428571428</ele><time>2026-03-24T17:21:52.007Z</time></trkpt><trkpt lat="45.578260545728476" lon="10.123843037476105"><ele>151.14285714285717</ele><time>2026-03-24T17:21:55.007Z</time></trkpt><trkpt lat="45.578192907482865" lon="10.123855400688731"><ele>151.0</ele><time>2026-03-24T17:21:58.007Z</time></trkpt><trkpt lat="45.57812574533029" lon="10.123857145451131"><ele>151.00000000000003</ele><time>2026-03-24T17:22:01.007Z</time></trkpt><trkpt lat="45.57805167812354" lon="10.123867253250767"><ele>151.0</ele><time>2026-03-24T17:22:04.007Z</time></trkpt><trkpt lat="45.577977930080785" lon="10.123879415184831"><ele>151.0</ele><time>2026-03-24T17:22:07.007Z</time></trkpt><trkpt lat="45.57790970057623" lon="10.123893799965986"><ele>151.0</ele><time>2026-03-24T17:22:10.007Z</time></trkpt><trkpt lat="45.577839290732484" lon="10.12389914876439"><ele>151.0</ele><time>2026-03-24T17:22:13.007Z</time></trkpt><trkpt lat="45.577771290121945" lon="10.123907082610028"><ele>151.00000000000003</ele><time>2026-03-24T17:22:16.007Z</time></trkpt><trkpt lat="45.57770001100481" lon="10.123922149033294"><ele>151.0</ele><time>2026-03-24T17:22:19.007Z</time></trkpt><trkpt lat="45.57763488069212" lon="10.123933046310645"><ele>151.00000000000003</ele><time>2026-03-24T17:22:22.007Z</time></trkpt><trkpt lat="45.5775643417651" lon="10.123953577261235"><ele>151.0</ele><time>2026-03-24T17:22:25.007Z</time></trkpt><trkpt lat="45.57749582731342" lon="10.123968966866192"><ele>151.0</ele><time>2026-03-24T17:22:28.006Z</time></trkpt><trkpt lat="45.57743276933249" lon="10.123994924498712"><ele>151.0</ele><time>2026-03-24T17:22:31.006Z</time></trkpt><trkpt lat="45.57736960470634" lon="10.124017603433492"><ele>151.0</ele><time>2026-03-24T17:22:34.007Z</time></trkpt><trkpt lat="45.577306999800605" lon="10.124056841332315"><ele>151.00000000000003</ele><time>2026-03-24T17:22:37.007Z</time></trkpt><trkpt lat="45.577225971151194" lon="10.12410414566138"><ele>151.0</ele><time>2026-03-24T17:22:41.007Z</time></trkpt><trkpt lat="45.57715891209231" lon="10.124125876514947"><ele>150.83333333333334</ele><time>2026-03-24T17:22:45.007Z</time></trkpt><trkpt lat="45.57709304386395" lon="10.124152417035436"><ele>150.66666666666669</ele><time>2026-03-24T17:22:48.007Z</time></trkpt><trkpt lat="45.57702853919307" lon="10.124188789249274"><ele>150.5</ele><time>2026-03-24T17:22:51.007Z</time></trkpt><trkpt lat="45.57695234410846" lon="10.124212305815032"><ele>150.33333333333334</ele><time>2026-03-24T17:22:54.007Z</time></trkpt><trkpt lat="45.576868910312676" lon="10.124227412963874"><ele>150.16666666666666</ele><time>2026-03-24T17:22:58.007Z</time></trkpt><trkpt lat="45.57679560745698" lon="10.124242800083158"><ele>150.0</ele><time>2026-03-24T17:23:01.007Z</time></trkpt><trkpt lat="45.57672574334758" lon="10.124285537711515"><ele>149.83333333333334</ele><time>2026-03-24T17:23:04.007Z</time></trkpt><trkpt lat="45.5766444904883" lon="10.124318026955294"><ele>149.66666666666666</ele><time>2026-03-24T17:23:07.007Z</time></trkpt><trkpt lat="45.576566923630565" lon="10.12434639007513"><ele>149.5</ele><time>2026-03-24T17:23:10.007Z</time></trkpt><trkpt lat="45.57649583222814" lon="10.124368106994721"><ele>149.33333333333331</ele><time>2026-03-24T17:23:13.007Z</time></trkpt><trkpt lat="45.57641581145287" lon="10.124369851794585"><ele>149.16666666666666</ele><time>2026-03-24T17:23:16.007Z</time></trkpt><trkpt lat="45.57633659774874" lon="10.124395444206675"><ele>149.0</ele><time>2026-03-24T17:23:19.007Z</time></trkpt><trkpt lat="45.57627394193924" lon="10.124423994988454"><ele>149.0</ele><time>2026-03-24T17:23:22.007Z</time></trkpt><trkpt lat="45.576207259806694" lon="10.124398198848526"><ele>149.0</ele><time>2026-03-24T17:23:25.007Z</time></trkpt><trkpt lat="45.57612886094769" lon="10.124361111634709"><ele>149.0</ele><time>2026-03-24T17:23:28.007Z</time></trkpt><trkpt lat="45.57605694433402" lon="10.124350920294232"><ele>149.0</ele><time>2026-03-24T17:23:31.007Z</time></trkpt><trkpt lat="45.57599331702958" lon="10.124358224891434"><ele>149.0</ele><time>2026-03-24T17:23:34.008Z</time></trkpt><trkpt lat="45.57591100181023" lon="10.12437468828769"><ele>149.0</ele><time>2026-03-24T17:23:37.008Z</time></trkpt><trkpt lat="45.5758341962338" lon="10.124373481837774"><ele>149.0</ele><time>2026-03-24T17:23:40.008Z</time></trkpt><trkpt lat="45.575766999383674" lon="10.124375993811793"><ele>148.83333333333331</ele><time>2026-03-24T17:23:43.008Z</time></trkpt><trkpt lat="45.575696508867786" lon="10.12438555538615"><ele>148.66666666666666</ele><time>2026-03-24T17:23:46.008Z</time></trkpt><trkpt lat="45.57562452141447" lon="10.124397668811183"><ele>148.5</ele><time>2026-03-24T17:23:49.008Z</time></trkpt><trkpt lat="45.575544246239566" lon="10.124414081000019"><ele>148.33333333333334</ele><time>2026-03-24T17:23:53.008Z</time></trkpt><trkpt lat="45.57546729626748" lon="10.124461657159188"><ele>148.16666666666669</ele><time>2026-03-24T17:23:56.008Z</time></trkpt><trkpt lat="45.57539967350057" lon="10.124514796879382"><ele>148.0</ele><time>2026-03-24T17:23:59.008Z</time></trkpt><trkpt lat="45.575329094217885" lon="10.124587769373385"><ele>148.0</ele><time>2026-03-24T17:24:02.008Z</time></trkpt><trkpt lat="45.57528378892466" lon="10.124657774517578"><ele>148.0</ele><time>2026-03-24T17:24:05.008Z</time></trkpt><trkpt lat="45.57523401373396" lon="10.12473037525692"><ele>148.0</ele><time>2026-03-24T17:24:08.008Z</time></trkpt><trkpt lat="45.57515852216964" lon="10.124789620895612"><ele>148.0</ele><time>2026-03-24T17:24:11.008Z</time></trkpt><trkpt lat="45.57508679465412" lon="10.124808863064553"><ele>148.0</ele><time>2026-03-24T17:24:14.008Z</time></trkpt><trkpt lat="45.57501411755397" lon="10.124836640649175"><ele>148.0</ele><time>2026-03-24T17:24:17.008Z</time></trkpt><trkpt lat="45.57494294719006" lon="10.124863123177187"><ele>148.0</ele><time>2026-03-24T17:24:20.008Z</time></trkpt><trkpt lat="45.57486329912111" lon="10.124883836658856"><ele>148.0</ele><time>2026-03-24T17:24:23.008Z</time></trkpt><trkpt lat="45.574788482491044" lon="10.124893745274578"><ele>148.0</ele><time>2026-03-24T17:24:26.008Z</time></trkpt><trkpt lat="45.57471755627992" lon="10.124914587165218"><ele>148.0</ele><time>2026-03-24T17:24:29.008Z</time></trkpt><trkpt lat="45.574649641503676" lon="10.124939818778877"><ele>148.0</ele><time>2026-03-24T17:24:32.008Z</time></trkpt><trkpt lat="45.57456747356508" lon="10.124948353646756"><ele>148.0</ele><time>2026-03-24T17:24:35.007Z</time></trkpt><trkpt lat="45.57448928485132" lon="10.124955505584133"><ele>148.0</ele><time>2026-03-24T17:24:38.007Z</time></trkpt><trkpt lat="45.57440690970724" lon="10.124955378240983"><ele>147.66666666666669</ele><time>2026-03-24T17:24:41.008Z</time></trkpt><trkpt lat="45.57432762972143" lon="10.124971090131435"><ele>147.33333333333334</ele><time>2026-03-24T17:24:44.008Z</time></trkpt><trkpt lat="45.57425072876424" lon="10.124999591140442"><ele>147.0</ele><time>2026-03-24T17:24:47.008Z</time></trkpt><trkpt lat="45.574179960472506" lon="10.125004635935433"><ele>146.66666666666666</ele><time>2026-03-24T17:24:50.008Z</time></trkpt><trkpt lat="45.57410766410531" lon="10.125009842975143"><ele>146.33333333333331</ele><time>2026-03-24T17:24:53.008Z</time></trkpt><trkpt lat="45.57402555235221" lon="10.125025949130768"><ele>146.0</ele><time>2026-03-24T17:24:56.008Z</time></trkpt><trkpt lat="45.573942545788135" lon="10.125033710504011"><ele>146.0</ele><time>2026-03-24T17:24:59.008Z</time></trkpt><trkpt lat="45.573861228185855" lon="10.125044057601666"><ele>146.0</ele><time>2026-03-24T17:25:02.008Z</time></trkpt><trkpt lat="45.57378537073762" lon="10.125069591500267"><ele>146.0</ele><time>2026-03-24T17:25:05.008Z</time></trkpt><trkpt lat="45.573713995177776" lon="10.125138413980205"><ele>146.0</ele><time>2026-03-24T17:25:08.008Z</time></trkpt><trkpt lat="45.57366190844622" lon="10.12521404426207"><ele>146.0</ele><time>2026-03-24T17:25:11.008Z</time></trkpt><trkpt lat="45.57363213996902" lon="10.125302801938915"><ele>146.0</ele><time>2026-03-24T17:25:15.008Z</time></trkpt><trkpt lat="45.57359932203965" lon="10.12539347415085"><ele>146.0</ele><time>2026-03-24T17:25:20.008Z</time></trkpt><trkpt lat="45.57357467367975" lon="10.125483796104534"><ele>146.0</ele><time>2026-03-24T17:25:24.008Z</time></trkpt><trkpt lat="45.57357504599221" lon="10.12558306623825"><ele>146.0</ele><time>2026-03-24T17:25:27.008Z</time></trkpt><trkpt lat="45.573580331676595" lon="10.1256966894445"><ele>146.0</ele><time>2026-03-24T17:25:30.008Z</time></trkpt><trkpt lat="45.57357795877467" lon="10.125805335838503"><ele>146.0</ele><time>2026-03-24T17:25:33.008Z</time></trkpt><trkpt lat="45.57357379902865" lon="10.125931174689637"><ele>146.0</ele><time>2026-03-24T17:25:36.008Z</time></trkpt><trkpt lat="45.57357609923803" lon="10.126048033486715"><ele>145.85714285714286</ele><time>2026-03-24T17:25:39.008Z</time></trkpt><trkpt lat="45.573580725799815" lon="10.126153705398906"><ele>145.71428571428572</ele><time>2026-03-24T17:25:42.008Z</time></trkpt><trkpt lat="45.57358072809759" lon="10.126246809346314"><ele>145.57142857142858</ele><time>2026-03-24T17:25:45.008Z</time></trkpt><trkpt lat="45.573592301162506" lon="10.126353262384514"><ele>145.42857142857144</ele><time>2026-03-24T17:25:48.008Z</time></trkpt><trkpt lat="45.57359880863779" lon="10.126457185336742"><ele>145.2857142857143</ele><time>2026-03-24T17:25:51.008Z</time></trkpt><trkpt lat="45.573602724833535" lon="10.126570616698736"><ele>145.14285714285714</ele><time>2026-03-24T17:25:54.008Z</time></trkpt><trkpt lat="45.57361588218583" lon="10.1266741419738"><ele>145.0</ele><time>2026-03-24T17:25:57.008Z</time></trkpt><trkpt lat="45.57361771124462" lon="10.126784266290505"><ele>145.0</ele><time>2026-03-24T17:26:00.008Z</time></trkpt><trkpt lat="45.57362151674758" lon="10.126885509260065"><ele>145.0</ele><time>2026-03-24T17:26:03.005Z</time></trkpt><trkpt lat="45.57363319373201" lon="10.126975678834432"><ele>145.0</ele><time>2026-03-24T17:26:06.002Z</time></trkpt><trkpt lat="45.57363924058535" lon="10.127083912220476"><ele>145.0</ele><time>2026-03-24T17:26:09Z</time></trkpt><trkpt lat="45.57366666192384" lon="10.127178283603154"><ele>145.0</ele><time>2026-03-24T17:26:11.999Z</time></trkpt><trkpt lat="45.573679648506115" lon="10.127283469842002"><ele>145.0</ele><time>2026-03-24T17:26:14.997Z</time></trkpt><trkpt lat="45.5736845210569" lon="10.127397038843807"><ele>145.0</ele><time>2026-03-24T17:26:17.996Z</time></trkpt><trkpt lat="45.573695841801346" lon="10.127506311774683"><ele>145.0</ele><time>2026-03-24T17:26:20.995Z</time></trkpt><trkpt lat="45.573700525763634" lon="10.127621930253248"><ele>145.0</ele><time>2026-03-24T17:26:23.994Z</time></trkpt><trkpt lat="45.57371558268215" lon="10.127723448051409"><ele>145.0</ele><time>2026-03-24T17:26:26.993Z</time></trkpt><trkpt lat="45.5737168015429" lon="10.127833343810419"><ele>145.0</ele><time>2026-03-24T17:26:29.993Z</time></trkpt><trkpt lat="45.57372090199392" lon="10.127934641723993"><ele>145.0</ele><time>2026-03-24T17:26:32.992Z</time></trkpt><trkpt lat="45.57372557944422" lon="10.128045369765774"><ele>145.0</ele><time>2026-03-24T17:26:35.991Z</time></trkpt><trkpt lat="45.57370970941182" lon="10.128162338280772"><ele>144.83333333333334</ele><time>2026-03-24T17:26:39.991Z</time></trkpt><trkpt lat="45.573712828933665" lon="10.12828212609807"><ele>144.66666666666669</ele><time>2026-03-24T17:26:42.99Z</time></trkpt><trkpt lat="45.57372113316539" lon="10.128398452583767"><ele>144.5</ele><time>2026-03-24T17:26:45.991Z</time></trkpt><trkpt lat="45.573735255365506" lon="10.128503271343202"><ele>144.33333333333334</ele><time>2026-03-24T17:26:48.99Z</time></trkpt><trkpt lat="45.57374645509998" lon="10.128596159565861"><ele>144.16666666666666</ele><time>2026-03-24T17:26:50.99Z</time></trkpt><trkpt lat="45.57376025796362" lon="10.128716001669682"><ele>144.0</ele><time>2026-03-24T17:26:53.99Z</time></trkpt><trkpt lat="45.57376634969475" lon="10.128836003442958"><ele>144.00000000000003</ele><time>2026-03-24T17:26:56.99Z</time></trkpt><trkpt lat="45.57378824502238" lon="10.128937714515212"><ele>144.0</ele><time>2026-03-24T17:26:59.99Z</time></trkpt><trkpt lat="45.57380083318463" lon="10.12902963712096"><ele>144.0</ele><time>2026-03-24T17:27:02.99Z</time></trkpt><trkpt lat="45.57379831558795" lon="10.129125806214045"><ele>144.0</ele><time>2026-03-24T17:27:05.989Z</time></trkpt><trkpt lat="45.573845788922696" lon="10.129216532325245"><ele>144.0</ele><time>2026-03-24T17:27:09.989Z</time></trkpt><trkpt lat="45.57389490172161" lon="10.129275544151946"><ele>144.00000000000003</ele><time>2026-03-24T17:27:12.989Z</time></trkpt><trkpt lat="45.573933768616136" lon="10.129355736873215"><ele>144.0</ele><time>2026-03-24T17:27:15.989Z</time></trkpt><trkpt lat="45.573943813923584" lon="10.129457422402151"><ele>144.14285714285717</ele><time>2026-03-24T17:27:18.989Z</time></trkpt><trkpt lat="45.573913909098074" lon="10.12954395928194"><ele>144.28571428571428</ele><time>2026-03-24T17:27:21.989Z</time></trkpt><trkpt lat="45.57385794811826" lon="10.129596255908602"><ele>144.42857142857144</ele><time>2026-03-24T17:27:24.989Z</time></trkpt><trkpt lat="45.57379104542108" lon="10.129614882446097"><ele>144.57142857142858</ele><time>2026-03-24T17:27:27.989Z</time></trkpt><trkpt lat="45.57371769467343" lon="10.129595171732532"><ele>144.71428571428572</ele><time>2026-03-24T17:27:30.989Z</time></trkpt><trkpt lat="45.57365312375102" lon="10.129554173375453"><ele>144.85714285714286</ele><time>2026-03-24T17:27:33.989Z</time></trkpt><trkpt lat="45.57359080395552" lon="10.1295118906674"><ele>145.0</ele><time>2026-03-24T17:27:36.989Z</time></trkpt><trkpt lat="45.57351086756967" lon="10.129483550540169"><ele>145.0</ele><time>2026-03-24T17:27:39.989Z</time></trkpt><trkpt lat="45.57344079140991" lon="10.129489784887106"><ele>145.0</ele><time>2026-03-24T17:27:42.989Z</time></trkpt><trkpt lat="45.5733650557119" lon="10.12949970395321"><ele>145.0</ele><time>2026-03-24T17:27:45.989Z</time></trkpt><trkpt lat="45.57329820785018" lon="10.12950392338659"><ele>145.0</ele><time>2026-03-24T17:27:48.989Z</time></trkpt><trkpt lat="45.5732316511323" lon="10.129518960412122"><ele>145.0</ele><time>2026-03-24T17:27:51.989Z</time></trkpt><trkpt lat="45.573161408860216" lon="10.129534038685211"><ele>145.0</ele><time>2026-03-24T17:27:54.989Z</time></trkpt><trkpt lat="45.573090302433904" lon="10.129542212835576"><ele>145.0</ele><time>2026-03-24T17:27:57.989Z</time></trkpt><trkpt lat="45.57300798330357" lon="10.129551423342624"><ele>145.0</ele><time>2026-03-24T17:28:01.989Z</time></trkpt><trkpt lat="45.57293842362145" lon="10.129559338324967"><ele>145.0</ele><time>2026-03-24T17:28:04.989Z</time></trkpt><trkpt lat="45.57286495798108" lon="10.129565348192036"><ele>145.0</ele><time>2026-03-24T17:28:07.989Z</time></trkpt><trkpt lat="45.572797575251016" lon="10.129575088578827"><ele>145.0</ele><time>2026-03-24T17:28:10.989Z</time></trkpt><trkpt lat="45.57272552301448" lon="10.129579008974256"><ele>145.0</ele><time>2026-03-24T17:28:13.989Z</time></trkpt><trkpt lat="45.572654306767404" lon="10.129590714347259"><ele>145.0</ele><time>2026-03-24T17:28:16.989Z</time></trkpt><trkpt lat="45.57258477878245" lon="10.129612779029003"><ele>145.0</ele><time>2026-03-24T17:28:19.989Z</time></trkpt><trkpt lat="45.57251668053418" lon="10.129632379890783"><ele>145.14285714285714</ele><time>2026-03-24T17:28:22.989Z</time></trkpt><trkpt lat="45.57244338014399" lon="10.129651519322099"><ele>145.2857142857143</ele><time>2026-03-24T17:28:25.989Z</time></trkpt><trkpt lat="45.57237979015781" lon="10.12967970905864"><ele>145.42857142857144</ele><time>2026-03-24T17:28:28.989Z</time></trkpt><trkpt lat="45.572305257222325" lon="10.129706975269155"><ele>145.57142857142858</ele><time>2026-03-24T17:28:31.989Z</time></trkpt><trkpt lat="45.572231646398365" lon="10.12973016952048"><ele>145.71428571428572</ele><time>2026-03-24T17:28:34.989Z</time></trkpt><trkpt lat="45.57216357097865" lon="10.129750470362012"><ele>145.85714285714286</ele><time>2026-03-24T17:28:37.989Z</time></trkpt><trkpt lat="45.5720928576367" lon="10.129764237513205"><ele>146.0</ele><time>2026-03-24T17:28:40.989Z</time></trkpt><trkpt lat="45.57202179103773" lon="10.129790284841501"><ele>145.71428571428572</ele><time>2026-03-24T17:28:43.989Z</time></trkpt><trkpt lat="45.57195020481124" lon="10.129806810315635"><ele>145.42857142857144</ele><time>2026-03-24T17:28:46.989Z</time></trkpt><trkpt lat="45.571877047084854" lon="10.129808986008737"><ele>145.14285714285717</ele><time>2026-03-24T17:28:49.989Z</time></trkpt><trkpt lat="45.571804301662745" lon="10.129817859653727"><ele>144.85714285714286</ele><time>2026-03-24T17:28:52.988Z</time></trkpt><trkpt lat="45.571733612811194" lon="10.12982895717066"><ele>144.57142857142858</ele><time>2026-03-24T17:28:55.988Z</time></trkpt><trkpt lat="45.57165936049684" lon="10.129848621680553"><ele>144.2857142857143</ele><time>2026-03-24T17:28:58.988Z</time></trkpt><trkpt lat="45.57158880332023" lon="10.129866762420802"><ele>144.0</ele><time>2026-03-24T17:29:01.988Z</time></trkpt><trkpt lat="45.57151388667644" lon="10.129889302160358"><ele>144.00000000000003</ele><time>2026-03-24T17:29:04.988Z</time></trkpt><trkpt lat="45.5714385016983" lon="10.12991367564261"><ele>144.0</ele><time>2026-03-24T17:29:07.988Z</time></trkpt><trkpt lat="45.57136619525509" lon="10.129947908422766"><ele>144.0</ele><time>2026-03-24T17:29:10.988Z</time></trkpt><trkpt lat="45.571297133554054" lon="10.129992338244412"><ele>144.0</ele><time>2026-03-24T17:29:13.988Z</time></trkpt><trkpt lat="45.57125814748276" lon="10.130078449633457"><ele>144.0</ele><time>2026-03-24T17:29:16.988Z</time></trkpt><trkpt lat="45.571285204986175" lon="10.130171277099643"><ele>144.00000000000003</ele><time>2026-03-24T17:29:19.988Z</time></trkpt><trkpt lat="45.57130652053815" lon="10.130270147327524"><ele>144.0</ele><time>2026-03-24T17:29:22.988Z</time></trkpt><trkpt lat="45.571339146272166" lon="10.130358693786837"><ele>144.0</ele><time>2026-03-24T17:29:25.988Z</time></trkpt><trkpt lat="45.57136118555387" lon="10.130467862261009"><ele>144.0</ele><time>2026-03-24T17:29:28.988Z</time></trkpt><trkpt lat="45.57137899354949" lon="10.130583578941245"><ele>144.0</ele><time>2026-03-24T17:29:31.988Z</time></trkpt><trkpt lat="45.571396863723564" lon="10.130698140801714"><ele>144.0</ele><time>2026-03-24T17:29:34.988Z</time></trkpt><trkpt lat="45.57141394457525" lon="10.13080945616844"><ele>144.0</ele><time>2026-03-24T17:29:37.988Z</time></trkpt><trkpt lat="45.5714350521464" lon="10.130919110200033"><ele>144.0</ele><time>2026-03-24T17:29:40.988Z</time></trkpt><trkpt lat="45.57145903157032" lon="10.131031669994748"><ele>144.0</ele><time>2026-03-24T17:29:43.988Z</time></trkpt><trkpt lat="45.571484733689765" lon="10.131140596482824"><ele>144.0</ele><time>2026-03-24T17:29:46.988Z</time></trkpt><trkpt lat="45.57149960528297" lon="10.131247953388877"><ele>144.0</ele><time>2026-03-24T17:29:49.988Z</time></trkpt><trkpt lat="45.571521876977464" lon="10.131355512168684"><ele>144.0</ele><time>2026-03-24T17:29:52.988Z</time></trkpt><trkpt lat="45.571547671065254" lon="10.131444164422582"><ele>144.0</ele><time>2026-03-24T17:29:55.988Z</time></trkpt><trkpt lat="45.57157037507834" lon="10.131546819113547"><ele>144.0</ele><time>2026-03-24T17:29:58.988Z</time></trkpt><trkpt lat="45.57160435721441" lon="10.131656139454407"><ele>144.0</ele><time>2026-03-24T17:30:01.988Z</time></trkpt><trkpt lat="45.57162953619152" lon="10.131765656985852"><ele>144.0</ele><time>2026-03-24T17:30:04.988Z</time></trkpt><trkpt lat="45.571647486402874" lon="10.131880645887215"><ele>144.0</ele><time>2026-03-24T17:30:07.988Z</time></trkpt><trkpt lat="45.57167236011796" lon="10.13197995659088"><ele>144.0</ele><time>2026-03-24T17:30:10.988Z</time></trkpt><trkpt lat="45.571702147257525" lon="10.13208312039721"><ele>144.0</ele><time>2026-03-24T17:30:13.988Z</time></trkpt><trkpt lat="45.57173849052542" lon="10.132166866941928"><ele>144.0</ele><time>2026-03-24T17:30:16.988Z</time></trkpt><trkpt lat="45.571767626667395" lon="10.13225760192356"><ele>144.00000000000003</ele><time>2026-03-24T17:30:19.988Z</time></trkpt><trkpt lat="45.571831346334996" lon="10.132290644075965"><ele>144.0</ele><time>2026-03-24T17:30:22.988Z</time></trkpt><trkpt lat="45.57189691102473" lon="10.132274854910026"><ele>144.0</ele><time>2026-03-24T17:30:25.988Z</time></trkpt><trkpt lat="45.57196152603858" lon="10.13225248162933"><ele>144.0</ele><time>2026-03-24T17:30:28.988Z</time></trkpt><trkpt lat="45.57203143179922" lon="10.132220464959028"><ele>144.0</ele><time>2026-03-24T17:30:31.988Z</time></trkpt><trkpt lat="45.57209772526871" lon="10.132208222633599"><ele>144.00000000000003</ele><time>2026-03-24T17:30:34.988Z</time></trkpt><trkpt lat="45.57216848329756" lon="10.132197788869824"><ele>144.0</ele><time>2026-03-24T17:30:37.988Z</time></trkpt><trkpt lat="45.57223724442277" lon="10.132181203317835"><ele>144.00000000000003</ele><time>2026-03-24T17:30:40.988Z</time></trkpt><trkpt lat="45.5723025217181" lon="10.132168609483221"><ele>144.0</ele><time>2026-03-24T17:30:43.988Z</time></trkpt><trkpt lat="45.57236897380592" lon="10.132161228510865"><ele>144.0</ele><time>2026-03-24T17:30:46.989Z</time></trkpt><trkpt lat="45.572447821740546" lon="10.132162165608786"><ele>144.0</ele><time>2026-03-24T17:30:49.988Z</time></trkpt><trkpt lat="45.572523927283626" lon="10.132158152657615"><ele>144.0</ele><time>2026-03-24T17:30:52.988Z</time></trkpt><trkpt lat="45.5725964010159" lon="10.132155538648504"><ele>144.00000000000003</ele><time>2026-03-24T17:30:55.988Z</time></trkpt><trkpt lat="45.57266035259142" lon="10.132157232001669"><ele>144.0</ele><time>2026-03-24T17:30:58.988Z</time></trkpt><trkpt lat="45.57273606017329" lon="10.132153243602462"><ele>144.00000000000003</ele><time>2026-03-24T17:31:01.988Z</time></trkpt><trkpt lat="45.57280826218852" lon="10.132154387382293"><ele>144.0</ele><time>2026-03-24T17:31:04.988Z</time></trkpt><trkpt lat="45.572880546399205" lon="10.132153722100135"><ele>144.0</ele><time>2026-03-24T17:31:07.988Z</time></trkpt><trkpt lat="45.57295619329709" lon="10.132145256827611"><ele>144.0</ele><time>2026-03-24T17:31:10.988Z</time></trkpt><trkpt lat="45.573029509912985" lon="10.132138494215317"><ele>144.0</ele><time>2026-03-24T17:31:13.988Z</time></trkpt><trkpt lat="45.573105415046854" lon="10.132123689483894"><ele>144.00000000000003</ele><time>2026-03-24T17:31:16.988Z</time></trkpt><trkpt lat="45.57317635526367" lon="10.132110346700538"><ele>144.0</ele><time>2026-03-24T17:31:19.988Z</time></trkpt><trkpt lat="45.57324240821948" lon="10.132091907385906"><ele>143.85714285714286</ele><time>2026-03-24T17:31:22.988Z</time></trkpt><trkpt lat="45.573311433808634" lon="10.132078448788363"><ele>143.71428571428572</ele><time>2026-03-24T17:31:25.988Z</time></trkpt><trkpt lat="45.573377073239115" lon="10.132060462453172"><ele>143.57142857142856</ele><time>2026-03-24T17:31:28.988Z</time></trkpt><trkpt lat="45.57344227638335" lon="10.132040164795589"><ele>143.42857142857144</ele><time>2026-03-24T17:31:31.988Z</time></trkpt><trkpt lat="45.573509957127236" lon="10.13201248884192"><ele>143.28571428571428</ele><time>2026-03-24T17:31:34.988Z</time></trkpt><trkpt lat="45.57357604925802" lon="10.131986810156953"><ele>143.14285714285714</ele><time>2026-03-24T17:31:37.988Z</time></trkpt><trkpt lat="45.57363787807303" lon="10.131958382602503"><ele>143.0</ele><time>2026-03-24T17:31:40.988Z</time></trkpt><trkpt lat="45.57370078754529" lon="10.131935198702513"><ele>142.99999999999997</ele><time>2026-03-24T17:31:43.988Z</time></trkpt><trkpt lat="45.573764256937494" lon="10.131909958268988"><ele>143.0</ele><time>2026-03-24T17:31:46.988Z</time></trkpt><trkpt lat="45.57383077017976" lon="10.131894062341395"><ele>143.0</ele><time>2026-03-24T17:31:49.988Z</time></trkpt><trkpt lat="45.57390095432282" lon="10.131876821537917"><ele>143.0</ele><time>2026-03-24T17:31:52.988Z</time></trkpt><trkpt lat="45.57396626059666" lon="10.131868744483963"><ele>143.0</ele><time>2026-03-24T17:31:55.988Z</time></trkpt><trkpt lat="45.574034344028675" lon="10.131880655178884"><ele>142.99999999999997</ele><time>2026-03-24T17:31:58.988Z</time></trkpt><trkpt lat="45.57409862848691" lon="10.131903071986294"><ele>143.0</ele><time>2026-03-24T17:32:01.988Z</time></trkpt><trkpt lat="45.57417262020349" lon="10.13193253092605"><ele>142.99999999999997</ele><time>2026-03-24T17:32:04.988Z</time></trkpt><trkpt lat="45.57423389710793" lon="10.131964869942946"><ele>143.0</ele><time>2026-03-24T17:32:07.988Z</time></trkpt><trkpt lat="45.57430339735122" lon="10.131995414645653"><ele>143.0</ele><time>2026-03-24T17:32:10.988Z</time></trkpt><trkpt lat="45.57436899383575" lon="10.132034824614722"><ele>143.0</ele><time>2026-03-24T17:32:13.988Z</time></trkpt><trkpt lat="45.57443839130977" lon="10.132075050915265"><ele>143.0</ele><time>2026-03-24T17:32:16.988Z</time></trkpt><trkpt lat="45.57450084893448" lon="10.132111856474523"><ele>142.99999999999997</ele><time>2026-03-24T17:32:19.988Z</time></trkpt><trkpt lat="45.57456363991332" lon="10.132146347970565"><ele>143.0</ele><time>2026-03-24T17:32:22.988Z</time></trkpt><trkpt lat="45.57463757023695" lon="10.132187684739257"><ele>143.14285714285714</ele><time>2026-03-24T17:32:25.988Z</time></trkpt><trkpt lat="45.57471137276679" lon="10.132211609057045"><ele>143.28571428571428</ele><time>2026-03-24T17:32:28.988Z</time></trkpt><trkpt lat="45.5747804491991" lon="10.132245206429777"><ele>143.42857142857144</ele><time>2026-03-24T17:32:31.988Z</time></trkpt><trkpt lat="45.57485203218191" lon="10.132281780971097"><ele>143.57142857142856</ele><time>2026-03-24T17:32:34.988Z</time></trkpt><trkpt lat="45.57491975863991" lon="10.132312777678653"><ele>143.71428571428572</ele><time>2026-03-24T17:32:37.988Z</time></trkpt><trkpt lat="45.574991881488025" lon="10.132342803470827"><ele>143.85714285714286</ele><time>2026-03-24T17:32:40.988Z</time></trkpt><trkpt lat="45.575063610839315" lon="10.13236793808502"><ele>144.0</ele><time>2026-03-24T17:32:43.988Z</time></trkpt><trkpt lat="45.57513681847401" lon="10.132386967047912"><ele>143.85714285714286</ele><time>2026-03-24T17:32:46.988Z</time></trkpt><trkpt lat="45.575209695901265" lon="10.132406866299396"><ele>143.71428571428572</ele><time>2026-03-24T17:32:49.988Z</time></trkpt><trkpt lat="45.575284480168406" lon="10.132422741181369"><ele>143.57142857142856</ele><time>2026-03-24T17:32:52.987Z</time></trkpt><trkpt lat="45.57535298898625" lon="10.132445978300403"><ele>143.42857142857144</ele><time>2026-03-24T17:32:55.987Z</time></trkpt><trkpt lat="45.575416954022124" lon="10.132469431335304"><ele>143.28571428571428</ele><time>2026-03-24T17:32:58.988Z</time></trkpt><trkpt lat="45.5754819908235" lon="10.132510296262485"><ele>143.14285714285714</ele><time>2026-03-24T17:33:01.987Z</time></trkpt><trkpt lat="45.57555791571364" lon="10.132544032697844"><ele>143.0</ele><time>2026-03-24T17:33:04.987Z</time></trkpt><trkpt lat="45.575629613678984" lon="10.132573935125214"><ele>143.28571428571428</ele><time>2026-03-24T17:33:07.987Z</time></trkpt><trkpt lat="45.57570666085252" lon="10.132593726166704"><ele>143.57142857142856</ele><time>2026-03-24T17:33:10.987Z</time></trkpt><trkpt lat="45.57578283307088" lon="10.132606040479194"><ele>143.85714285714286</ele><time>2026-03-24T17:33:13.987Z</time></trkpt><trkpt lat="45.57585804316715" lon="10.132610336785776"><ele>144.14285714285714</ele><time>2026-03-24T17:33:16.987Z</time></trkpt><trkpt lat="45.575933164415936" lon="10.132615748483602"><ele>144.42857142857144</ele><time>2026-03-24T17:33:19.987Z</time></trkpt><trkpt lat="45.57600455094246" lon="10.132614434518455"><ele>144.71428571428572</ele><time>2026-03-24T17:33:22.987Z</time></trkpt><trkpt lat="45.57607135609354" lon="10.132617053719143"><ele>145.0</ele><time>2026-03-24T17:33:25.987Z</time></trkpt><trkpt lat="45.57614177876617" lon="10.132625195189293"><ele>144.85714285714286</ele><time>2026-03-24T17:33:28.987Z</time></trkpt><trkpt lat="45.576214793578764" lon="10.132626620584487"><ele>144.71428571428572</ele><time>2026-03-24T17:33:31.987Z</time></trkpt><trkpt lat="45.57628118173107" lon="10.13263156444587"><ele>144.57142857142858</ele><time>2026-03-24T17:33:34.987Z</time></trkpt><trkpt lat="45.576355049586304" lon="10.132632309521277"><ele>144.42857142857144</ele><time>2026-03-24T17:33:37.987Z</time></trkpt><trkpt lat="45.576422458383675" lon="10.132629790498683"><ele>144.28571428571428</ele><time>2026-03-24T17:33:40.987Z</time></trkpt><trkpt lat="45.57649188689643" lon="10.132643173455014"><ele>144.14285714285717</ele><time>2026-03-24T17:33:43.987Z</time></trkpt><trkpt lat="45.57655778631955" lon="10.132668865465405"><ele>144.0</ele><time>2026-03-24T17:33:46.987Z</time></trkpt><trkpt lat="45.57662200629064" lon="10.132682327293109"><ele>144.0</ele><time>2026-03-24T17:33:49.987Z</time></trkpt><trkpt lat="45.576692379123365" lon="10.13269731048874"><ele>144.0</ele><time>2026-03-24T17:33:52.987Z</time></trkpt><trkpt lat="45.5767660119297" lon="10.132718431529966"><ele>144.0</ele><time>2026-03-24T17:33:55.987Z</time></trkpt><trkpt lat="45.57686324957719" lon="10.132748943907897"><ele>144.0</ele><time>2026-03-24T17:33:59.987Z</time></trkpt><trkpt lat="45.57693639881667" lon="10.132777697336161"><ele>144.0</ele><time>2026-03-24T17:34:02.987Z</time></trkpt><trkpt lat="45.57700701441485" lon="10.132798365700728"><ele>144.0</ele><time>2026-03-24T17:34:05.987Z</time></trkpt><trkpt lat="45.57708042491168" lon="10.132817569384589"><ele>144.14285714285717</ele><time>2026-03-24T17:34:08.987Z</time></trkpt><trkpt lat="45.57715016651486" lon="10.132848089068192"><ele>144.28571428571428</ele><time>2026-03-24T17:34:11.987Z</time></trkpt><trkpt lat="45.57722012035604" lon="10.13287665465641"><ele>144.42857142857144</ele><time>2026-03-24T17:34:14.987Z</time></trkpt><trkpt lat="45.577288553514" lon="10.13288150759124"><ele>144.57142857142858</ele><time>2026-03-24T17:34:17.987Z</time></trkpt><trkpt lat="45.57736016370371" lon="10.132885197090037"><ele>144.71428571428572</ele><time>2026-03-24T17:34:20.987Z</time></trkpt><trkpt lat="45.57742780224027" lon="10.13288556416281"><ele>144.85714285714286</ele><time>2026-03-24T17:34:23.987Z</time></trkpt><trkpt lat="45.5774984392373" lon="10.132896809473023"><ele>145.0</ele><time>2026-03-24T17:34:26.987Z</time></trkpt><trkpt lat="45.57756581901271" lon="10.132902502442883"><ele>145.0</ele><time>2026-03-24T17:34:29.987Z</time></trkpt><trkpt lat="45.577640776348915" lon="10.13290123871804"><ele>145.0</ele><time>2026-03-24T17:34:32.987Z</time></trkpt><trkpt lat="45.57771189983426" lon="10.132902831618615"><ele>145.0</ele><time>2026-03-24T17:34:35.987Z</time></trkpt><trkpt lat="45.577784489517526" lon="10.132902306720219"><ele>145.0</ele><time>2026-03-24T17:34:38.987Z</time></trkpt><trkpt lat="45.57785373976105" lon="10.132903892978373"><ele>145.0</ele><time>2026-03-24T17:34:41.987Z</time></trkpt><trkpt lat="45.5779258969772" lon="10.132904640737683"><ele>145.0</ele><time>2026-03-24T17:34:44.987Z</time></trkpt><trkpt lat="45.577995353059855" lon="10.132900773695441"><ele>145.0</ele><time>2026-03-24T17:34:47.987Z</time></trkpt><trkpt lat="45.57806925636859" lon="10.132899552179047"><ele>145.42857142857144</ele><time>2026-03-24T17:34:50.987Z</time></trkpt><trkpt lat="45.578140186503596" lon="10.132886608223147"><ele>145.85714285714286</ele><time>2026-03-24T17:34:53.987Z</time></trkpt><trkpt lat="45.57820717560235" lon="10.13287868834192"><ele>146.28571428571428</ele><time>2026-03-24T17:34:56.987Z</time></trkpt><trkpt lat="45.57827848898588" lon="10.132865532451095"><ele>146.71428571428572</ele><time>2026-03-24T17:34:59.986Z</time></trkpt><trkpt lat="45.57834954925994" lon="10.132855351458865"><ele>147.14285714285714</ele><time>2026-03-24T17:35:02.986Z</time></trkpt><trkpt lat="45.578420117671875" lon="10.132848996843324"><ele>147.57142857142858</ele><time>2026-03-24T17:35:05.986Z</time></trkpt><trkpt lat="45.5784905219863" lon="10.132847803031234"><ele>148.0</ele><time>2026-03-24T17:35:08.986Z</time></trkpt><trkpt lat="45.57856292366518" lon="10.132844796589797"><ele>148.0</ele><time>2026-03-24T17:35:11.987Z</time></trkpt><trkpt lat="45.57863144319874" lon="10.13283200123885"><ele>148.0</ele><time>2026-03-24T17:35:14.987Z</time></trkpt><trkpt lat="45.57870411020791" lon="10.132829984504227"><ele>148.0</ele><time>2026-03-24T17:35:17.987Z</time></trkpt><trkpt lat="45.57877363680597" lon="10.132828193149379"><ele>148.0</ele><time>2026-03-24T17:35:20.987Z</time></trkpt><trkpt lat="45.57886369046198" lon="10.132835246834727"><ele>148.0</ele><time>2026-03-24T17:35:24.987Z</time></trkpt><trkpt lat="45.57893535293836" lon="10.132833969807677"><ele>148.0</ele><time>2026-03-24T17:35:27.987Z</time></trkpt><trkpt lat="45.579006894736104" lon="10.132814350644951"><ele>148.0</ele><time>2026-03-24T17:35:30.987Z</time></trkpt><trkpt lat="45.579080516497314" lon="10.132802727764926"><ele>148.0</ele><time>2026-03-24T17:35:33.987Z</time></trkpt><trkpt lat="45.57915226444713" lon="10.132802966215932"><ele>148.0</ele><time>2026-03-24T17:35:36.987Z</time></trkpt><trkpt lat="45.57922578637306" lon="10.132805249672776"><ele>148.0</ele><time>2026-03-24T17:35:39.987Z</time></trkpt><trkpt lat="45.57929821612115" lon="10.13280089075669"><ele>148.0</ele><time>2026-03-24T17:35:42.987Z</time></trkpt><trkpt lat="45.57936926964883" lon="10.132785599318478"><ele>148.0</ele><time>2026-03-24T17:35:45.987Z</time></trkpt><trkpt lat="45.57942969108859" lon="10.132758574833217"><ele>148.0</ele><time>2026-03-24T17:35:48.987Z</time></trkpt><trkpt lat="45.57949988224839" lon="10.13272544149276"><ele>148.0</ele><time>2026-03-24T17:35:51.987Z</time></trkpt><trkpt lat="45.57957234479362" lon="10.132693486500774"><ele>148.0</ele><time>2026-03-24T17:35:54.987Z</time></trkpt><trkpt lat="45.579639190910385" lon="10.132646631115337"><ele>148.0</ele><time>2026-03-24T17:35:57.987Z</time></trkpt><trkpt lat="45.57970796484957" lon="10.132620330888747"><ele>148.0</ele><time>2026-03-24T17:36:00.987Z</time></trkpt><trkpt lat="45.579772410175515" lon="10.132584824565056"><ele>148.0</ele><time>2026-03-24T17:36:03.987Z</time></trkpt><trkpt lat="45.579841639152434" lon="10.132548473116112"><ele>148.0</ele><time>2026-03-24T17:36:06.987Z</time></trkpt><trkpt lat="45.57990988249434" lon="10.132520075294922"><ele>148.0</ele><time>2026-03-24T17:36:09.987Z</time></trkpt><trkpt lat="45.579980830526" lon="10.132485595423715"><ele>148.0</ele><time>2026-03-24T17:36:12.987Z</time></trkpt><trkpt lat="45.58005179519546" lon="10.132456191213677"><ele>148.0</ele><time>2026-03-24T17:36:15.987Z</time></trkpt><trkpt lat="45.580122675490244" lon="10.132414229707638"><ele>148.0</ele><time>2026-03-24T17:36:18.987Z</time></trkpt><trkpt lat="45.58019258958733" lon="10.132381313443211"><ele>148.0</ele><time>2026-03-24T17:36:21.986Z</time></trkpt><trkpt lat="45.5802607928512" lon="10.1323503605556"><ele>148.0</ele><time>2026-03-24T17:36:24.986Z</time></trkpt><trkpt lat="45.5803265039576" lon="10.132301467542996"><ele>148.0</ele><time>2026-03-24T17:36:27.986Z</time></trkpt><trkpt lat="45.58038967339631" lon="10.132252208425772"><ele>148.0</ele><time>2026-03-24T17:36:30.986Z</time></trkpt><trkpt lat="45.58045216610096" lon="10.13220196512388"><ele>148.0</ele><time>2026-03-24T17:36:33.986Z</time></trkpt><trkpt lat="45.58050826391416" lon="10.13214217877048"><ele>147.57142857142858</ele><time>2026-03-24T17:36:36.986Z</time></trkpt><trkpt lat="45.58056375928435" lon="10.132078851707451"><ele>147.14285714285714</ele><time>2026-03-24T17:36:39.986Z</time></trkpt><trkpt lat="45.580624939072024" lon="10.132026046597606"><ele>146.71428571428572</ele><time>2026-03-24T17:36:42.986Z</time></trkpt><trkpt lat="45.58068772820722" lon="10.131971929036114"><ele>146.28571428571428</ele><time>2026-03-24T17:36:45.986Z</time></trkpt><trkpt lat="45.580747680805715" lon="10.131915397727104"><ele>145.85714285714286</ele><time>2026-03-24T17:36:48.986Z</time></trkpt><trkpt lat="45.58080695197287" lon="10.131855414125532"><ele>145.42857142857144</ele><time>2026-03-24T17:36:51.986Z</time></trkpt><trkpt lat="45.58086503142545" lon="10.131791565596885"><ele>145.0</ele><time>2026-03-24T17:36:54.986Z</time></trkpt><trkpt lat="45.58092632051649" lon="10.131732426969096"><ele>145.0</ele><time>2026-03-24T17:36:57.986Z</time></trkpt><trkpt lat="45.58098679119984" lon="10.131673435848954"><ele>145.0</ele><time>2026-03-24T17:37:00.986Z</time></trkpt><trkpt lat="45.5810469021215" lon="10.131622307243532"><ele>145.0</ele><time>2026-03-24T17:37:03.985Z</time></trkpt><trkpt lat="45.58110797303772" lon="10.131564067436965"><ele>145.0</ele><time>2026-03-24T17:37:06.985Z</time></trkpt><trkpt lat="45.58117069780283" lon="10.131511235873047"><ele>145.0</ele><time>2026-03-24T17:37:09.985Z</time></trkpt><trkpt lat="45.58122749127004" lon="10.13144724542649"><ele>145.0</ele><time>2026-03-24T17:37:12.986Z</time></trkpt><trkpt lat="45.581284883570866" lon="10.131379750749591"><ele>145.0</ele><time>2026-03-24T17:37:15.986Z</time></trkpt><trkpt lat="45.58134195755927" lon="10.131322398933719"><ele>145.57142857142858</ele><time>2026-03-24T17:37:18.986Z</time></trkpt><trkpt lat="45.581400035542785" lon="10.131262071116078"><ele>146.14285714285717</ele><time>2026-03-24T17:37:21.986Z</time></trkpt><trkpt lat="45.58145301766971" lon="10.131194175588762"><ele>146.71428571428572</ele><time>2026-03-24T17:37:24.986Z</time></trkpt><trkpt lat="45.58150982334005" lon="10.13113166478969"><ele>147.28571428571428</ele><time>2026-03-24T17:37:27.986Z</time></trkpt><trkpt lat="45.581563327213686" lon="10.131072850190504"><ele>147.85714285714283</ele><time>2026-03-24T17:37:30.986Z</time></trkpt><trkpt lat="45.58161836591605" lon="10.131021482132521"><ele>148.42857142857142</ele><time>2026-03-24T17:37:33.986Z</time></trkpt><trkpt lat="45.581675114271405" lon="10.130973446062782"><ele>149.0</ele><time>2026-03-24T17:37:36.986Z</time></trkpt><trkpt lat="45.5817372677904" lon="10.130931196541125"><ele>149.0</ele><time>2026-03-24T17:37:39.986Z</time></trkpt><trkpt lat="45.58179976254437" lon="10.130887443810762"><ele>149.0</ele><time>2026-03-24T17:37:42.986Z</time></trkpt><trkpt lat="45.581868075985014" lon="10.130838450670934"><ele>149.0</ele><time>2026-03-24T17:37:45.986Z</time></trkpt><trkpt lat="45.58192865102736" lon="10.130785078409673"><ele>149.0</ele><time>2026-03-24T17:37:48.986Z</time></trkpt><trkpt lat="45.5819999827825" lon="10.13073767435409"><ele>149.0</ele><time>2026-03-24T17:37:51.986Z</time></trkpt><trkpt lat="45.582066292876945" lon="10.130695525140052"><ele>149.0</ele><time>2026-03-24T17:37:54.986Z</time></trkpt><trkpt lat="45.58213843223446" lon="10.130676190367367"><ele>149.0</ele><time>2026-03-24T17:37:57.986Z</time></trkpt><trkpt lat="45.58221511773784" lon="10.130658835464965"><ele>149.57142857142856</ele><time>2026-03-24T17:38:00.986Z</time></trkpt><trkpt lat="45.582288789665846" lon="10.130651350432696"><ele>150.14285714285714</ele><time>2026-03-24T17:38:03.986Z</time></trkpt><trkpt lat="45.58236402582585" lon="10.130645964245357"><ele>150.71428571428572</ele><time>2026-03-24T17:38:06.986Z</time></trkpt><trkpt lat="45.58243932191183" lon="10.13064065424724"><ele>151.28571428571428</ele><time>2026-03-24T17:38:09.986Z</time></trkpt><trkpt lat="45.582509954298565" lon="10.130640230189274"><ele>151.85714285714286</ele><time>2026-03-24T17:38:12.986Z</time></trkpt><trkpt lat="45.58258412573955" lon="10.130632088353982"><ele>152.42857142857142</ele><time>2026-03-24T17:38:15.986Z</time></trkpt><trkpt lat="45.58265760334551" lon="10.13062523427742"><ele>153.0</ele><time>2026-03-24T17:38:18.986Z</time></trkpt><trkpt lat="45.58272898524273" lon="10.130614560487306"><ele>153.0</ele><time>2026-03-24T17:38:21.986Z</time></trkpt><trkpt lat="45.58280097656507" lon="10.130612259310917"><ele>153.0</ele><time>2026-03-24T17:38:24.986Z</time></trkpt><trkpt lat="45.58287422234976" lon="10.13060302944301"><ele>153.0</ele><time>2026-03-24T17:38:27.986Z</time></trkpt><trkpt lat="45.58294372348492" lon="10.130594862270017"><ele>153.0</ele><time>2026-03-24T17:38:30.986Z</time></trkpt><trkpt lat="45.583017760481994" lon="10.130584636003324"><ele>153.0</ele><time>2026-03-24T17:38:33.986Z</time></trkpt><trkpt lat="45.583092225516246" lon="10.130577836004285"><ele>153.0</ele><time>2026-03-24T17:38:36.986Z</time></trkpt><trkpt lat="45.583162116427786" lon="10.130578730719652"><ele>153.0</ele><time>2026-03-24T17:38:39.986Z</time></trkpt><trkpt lat="45.58323139516368" lon="10.130563390183061"><ele>152.85714285714286</ele><time>2026-03-24T17:38:42.986Z</time></trkpt><trkpt lat="45.58330549811278" lon="10.130550629042636"><ele>152.71428571428572</ele><time>2026-03-24T17:38:45.986Z</time></trkpt><trkpt lat="45.58337628473715" lon="10.130526481762441"><ele>152.57142857142856</ele><time>2026-03-24T17:38:48.986Z</time></trkpt><trkpt lat="45.583448095225855" lon="10.130503879387547"><ele>152.42857142857144</ele><time>2026-03-24T17:38:51.986Z</time></trkpt><trkpt lat="45.58351733425798" lon="10.130470954032038"><ele>152.2857142857143</ele><time>2026-03-24T17:38:54.986Z</time></trkpt><trkpt lat="45.58358018095531" lon="10.130424194033612"><ele>152.14285714285714</ele><time>2026-03-24T17:38:57.986Z</time></trkpt><trkpt lat="45.58364554105247" lon="10.130379237310375"><ele>152.0</ele><time>2026-03-24T17:39:00.986Z</time></trkpt><trkpt lat="45.58370589462609" lon="10.130331743230286"><ele>152.0</ele><time>2026-03-24T17:39:03.986Z</time></trkpt><trkpt lat="45.583773183297694" lon="10.130285955436523"><ele>152.0</ele><time>2026-03-24T17:39:06.986Z</time></trkpt><trkpt lat="45.58384141323305" lon="10.130268120879617"><ele>152.0</ele><time>2026-03-24T17:39:09.985Z</time></trkpt><trkpt lat="45.58391247213246" lon="10.130262283007353"><ele>152.0</ele><time>2026-03-24T17:39:12.985Z</time></trkpt><trkpt lat="45.58393835401712" lon="10.1303565561859"><ele>152.0</ele><time>2026-03-24T17:39:15.985Z</time></trkpt><trkpt lat="45.5839321069862" lon="10.130449705073458"><ele>152.0</ele><time>2026-03-24T17:39:18.985Z</time></trkpt><trkpt lat="45.58393641412321" lon="10.13056730259403"><ele>152.0</ele><time>2026-03-24T17:39:22.985Z</time></trkpt><trkpt lat="45.58394109423361" lon="10.13066132434843"><ele>151.85714285714286</ele><time>2026-03-24T17:39:25.985Z</time></trkpt><trkpt lat="45.58393593103921" lon="10.130761047710298"><ele>151.71428571428572</ele><time>2026-03-24T17:39:28.985Z</time></trkpt><trkpt lat="45.58393717482644" lon="10.130869077964201"><ele>151.57142857142858</ele><time>2026-03-24T17:39:31.985Z</time></trkpt><trkpt lat="45.58393952636934" lon="10.13096942017208"><ele>151.42857142857144</ele><time>2026-03-24T17:39:34.985Z</time></trkpt><trkpt lat="45.58394504310334" lon="10.131064591447341"><ele>151.28571428571428</ele><time>2026-03-24T17:39:37.985Z</time></trkpt><trkpt lat="45.58393766418481" lon="10.131165398850955"><ele>151.14285714285717</ele><time>2026-03-24T17:39:40.985Z</time></trkpt><trkpt lat="45.583934129603115" lon="10.131285115203115"><ele>151.0</ele><time>2026-03-24T17:39:43.985Z</time></trkpt><trkpt lat="45.58393442891706" lon="10.131400095440615"><ele>151.00000000000003</ele><time>2026-03-24T17:39:46.985Z</time></trkpt><trkpt lat="45.5839356145445" lon="10.131510161924492"><ele>151.0</ele><time>2026-03-24T17:39:49.985Z</time></trkpt><trkpt lat="45.58394044115287" lon="10.131617357851132"><ele>151.0</ele><time>2026-03-24T17:39:52.985Z</time></trkpt><trkpt lat="45.583940778894295" lon="10.13172101455707"><ele>151.0</ele><time>2026-03-24T17:39:55.985Z</time></trkpt><trkpt lat="45.58393935512469" lon="10.131824487425723"><ele>151.0</ele><time>2026-03-24T17:39:58.985Z</time></trkpt><trkpt lat="45.583951062413995" lon="10.131924023987974"><ele>151.00000000000003</ele><time>2026-03-24T17:40:01.985Z</time></trkpt><trkpt lat="45.58394739202616" lon="10.132023576290509"><ele>151.0</ele><time>2026-03-24T17:40:04.985Z</time></trkpt><trkpt lat="45.583949817665506" lon="10.132128237235651"><ele>151.14285714285717</ele><time>2026-03-24T17:40:07.985Z</time></trkpt><trkpt lat="45.58395655219259" lon="10.132230636701193"><ele>151.28571428571428</ele><time>2026-03-24T17:40:10.985Z</time></trkpt><trkpt lat="45.5839623491112" lon="10.132332200158565"><ele>151.42857142857144</ele><time>2026-03-24T17:40:13.985Z</time></trkpt><trkpt lat="45.58397015723361" lon="10.132434074685957"><ele>151.57142857142858</ele><time>2026-03-24T17:40:16.985Z</time></trkpt><trkpt lat="45.58397480776387" lon="10.132541315957324"><ele>151.71428571428572</ele><time>2026-03-24T17:40:19.985Z</time></trkpt><trkpt lat="45.58398339832959" lon="10.132649657120249"><ele>151.85714285714286</ele><time>2026-03-24T17:40:22.985Z</time></trkpt><trkpt lat="45.583989685148076" lon="10.132754758053121"><ele>152.0</ele><time>2026-03-24T17:40:25.985Z</time></trkpt><trkpt lat="45.5839954791041" lon="10.132859468648306"><ele>152.0</ele><time>2026-03-24T17:40:28.985Z</time></trkpt><trkpt lat="45.58399508073864" lon="10.13296731020733"><ele>152.0</ele><time>2026-03-24T17:40:31.985Z</time></trkpt><trkpt lat="45.583977693325345" lon="10.133067048946508"><ele>152.0</ele><time>2026-03-24T17:40:34.985Z</time></trkpt><trkpt lat="45.58395625456187" lon="10.133155835809454"><ele>152.0</ele><time>2026-03-24T17:40:37.985Z</time></trkpt><trkpt lat="45.58393429683591" lon="10.133255428028992"><ele>152.0</ele><time>2026-03-24T17:40:40.985Z</time></trkpt><trkpt lat="45.58390837573026" lon="10.133353851518857"><ele>152.0</ele><time>2026-03-24T17:40:43.985Z</time></trkpt><trkpt lat="45.58388051555664" lon="10.133438534296424"><ele>152.0</ele><time>2026-03-24T17:40:46.985Z</time></trkpt><trkpt lat="45.58386560984832" lon="10.133530318919027"><ele>152.0</ele><time>2026-03-24T17:40:49.985Z</time></trkpt><trkpt lat="45.58384850864198" lon="10.133626675307623"><ele>152.0</ele><time>2026-03-24T17:40:52.985Z</time></trkpt><trkpt lat="45.58384738249105" lon="10.13372374210696"><ele>152.0</ele><time>2026-03-24T17:40:55.985Z</time></trkpt><trkpt lat="45.58383664647624" lon="10.133821642983541"><ele>152.0</ele><time>2026-03-24T17:40:58.985Z</time></trkpt><trkpt lat="45.58381736941281" lon="10.133911958845252"><ele>152.0</ele><time>2026-03-24T17:41:01.985Z</time></trkpt><trkpt lat="45.58380306453852" lon="10.134021828479451"><ele>152.0</ele><time>2026-03-24T17:41:04.985Z</time></trkpt><trkpt lat="45.583794452625305" lon="10.134118930137344"><ele>152.0</ele><time>2026-03-24T17:41:07.985Z</time></trkpt><trkpt lat="45.58378194571992" lon="10.134215110389059"><ele>151.7142857142857</ele><time>2026-03-24T17:41:10.985Z</time></trkpt><trkpt lat="45.58377351820598" lon="10.134320397724586"><ele>151.42857142857144</ele><time>2026-03-24T17:41:13.985Z</time></trkpt><trkpt lat="45.583758917552075" lon="10.134422699301489"><ele>151.14285714285714</ele><time>2026-03-24T17:41:16.984Z</time></trkpt><trkpt lat="45.5837456116189" lon="10.134521829664111"><ele>150.85714285714283</ele><time>2026-03-24T17:41:19.984Z</time></trkpt><trkpt lat="45.58373824869782" lon="10.1346224371772"><ele>150.57142857142856</ele><time>2026-03-24T17:41:22.985Z</time></trkpt><trkpt lat="45.58372348753783" lon="10.134719490810108"><ele>150.28571428571428</ele><time>2026-03-24T17:41:25.984Z</time></trkpt><trkpt lat="45.58370821224912" lon="10.134808819762316"><ele>150.0</ele><time>2026-03-24T17:41:28.984Z</time></trkpt><trkpt lat="45.5836902714284" lon="10.134910501396936"><ele>149.99999999999997</ele><time>2026-03-24T17:41:31.984Z</time></trkpt><trkpt lat="45.58367032176817" lon="10.13500399344663"><ele>150.0</ele><time>2026-03-24T17:41:34.984Z</time></trkpt><trkpt lat="45.58364895582426" lon="10.135101623803415"><ele>150.0</ele><time>2026-03-24T17:41:37.984Z</time></trkpt><trkpt lat="45.58362478705357" lon="10.135187238451403"><ele>150.0</ele><time>2026-03-24T17:41:40.984Z</time></trkpt><trkpt lat="45.58360122140001" lon="10.135271203202052"><ele>150.0</ele><time>2026-03-24T17:41:43.984Z</time></trkpt><trkpt lat="45.583570296387535" lon="10.135375541584436"><ele>149.99999999999997</ele><time>2026-03-24T17:41:47.984Z</time></trkpt><trkpt lat="45.58354159174188" lon="10.13546239295577"><ele>150.0</ele><time>2026-03-24T17:41:50.984Z</time></trkpt><trkpt lat="45.583523293033714" lon="10.135553520058604"><ele>149.99999999999997</ele><time>2026-03-24T17:41:53.984Z</time></trkpt><trkpt lat="45.583492896484785" lon="10.135665600328373"><ele>150.0</ele><time>2026-03-24T17:41:57.984Z</time></trkpt><trkpt lat="45.583472745494944" lon="10.135763470279242"><ele>150.0</ele><time>2026-03-24T17:42:00.984Z</time></trkpt><trkpt lat="45.58345436300928" lon="10.135862240744329"><ele>150.0</ele><time>2026-03-24T17:42:03.984Z</time></trkpt><trkpt lat="45.583433952837474" lon="10.135962197267352"><ele>150.0</ele><time>2026-03-24T17:42:06.984Z</time></trkpt><trkpt lat="45.58342486539178" lon="10.136062480194619"><ele>149.99999999999997</ele><time>2026-03-24T17:42:09.984Z</time></trkpt><trkpt lat="45.58341078620079" lon="10.136167945762816"><ele>150.0</ele><time>2026-03-24T17:42:12.984Z</time></trkpt><trkpt lat="45.58339960932231" lon="10.136265426950818"><ele>149.85714285714283</ele><time>2026-03-24T17:42:15.984Z</time></trkpt><trkpt lat="45.58338632186192" lon="10.136375826573527"><ele>149.71428571428572</ele><time>2026-03-24T17:42:18.984Z</time></trkpt><trkpt lat="45.58337571933291" lon="10.136480903887822"><ele>149.57142857142856</ele><time>2026-03-24T17:42:21.984Z</time></trkpt><trkpt lat="45.5833565039102" lon="10.136589177654583"><ele>149.42857142857142</ele><time>2026-03-24T17:42:24.984Z</time></trkpt><trkpt lat="45.58334179799177" lon="10.136685461331059"><ele>149.28571428571428</ele><time>2026-03-24T17:42:27.984Z</time></trkpt><trkpt lat="45.58332791351447" lon="10.136779567387899"><ele>149.14285714285714</ele><time>2026-03-24T17:42:30.984Z</time></trkpt><trkpt lat="45.583305498953685" lon="10.136876844135733"><ele>149.0</ele><time>2026-03-24T17:42:33.984Z</time></trkpt><trkpt lat="45.58329163210679" lon="10.136979921903505"><ele>148.83333333333331</ele><time>2026-03-24T17:42:36.984Z</time></trkpt><trkpt lat="45.58327728821835" lon="10.137094499652147"><ele>148.66666666666666</ele><time>2026-03-24T17:42:39.984Z</time></trkpt><trkpt lat="45.583267262451486" lon="10.13720168826487"><ele>148.5</ele><time>2026-03-24T17:42:42.984Z</time></trkpt><trkpt lat="45.583232777973286" lon="10.137302077411709"><ele>148.33333333333334</ele><time>2026-03-24T17:42:45.984Z</time></trkpt><trkpt lat="45.583197078164226" lon="10.137412826983454"><ele>148.16666666666669</ele><time>2026-03-24T17:42:48.984Z</time></trkpt><trkpt lat="45.58316983078307" lon="10.137515774675515"><ele>148.0</ele><time>2026-03-24T17:42:51.984Z</time></trkpt><trkpt lat="45.58312179176452" lon="10.137613831572414"><ele>148.0</ele><time>2026-03-24T17:42:54.984Z</time></trkpt><trkpt lat="45.58308071157311" lon="10.137720445994276"><ele>148.0</ele><time>2026-03-24T17:42:57.984Z</time></trkpt><trkpt lat="45.58304972332377" lon="10.137823387243792"><ele>148.0</ele><time>2026-03-24T17:43:00.984Z</time></trkpt><trkpt lat="45.583009284930654" lon="10.137921592643487"><ele>148.0</ele><time>2026-03-24T17:43:03.984Z</time></trkpt><trkpt lat="45.582972592523575" lon="10.138021907430371"><ele>148.0</ele><time>2026-03-24T17:43:06.984Z</time></trkpt><trkpt lat="45.5829355049598" lon="10.138108797713702"><ele>148.0</ele><time>2026-03-24T17:43:09.984Z</time></trkpt><trkpt lat="45.582896415823164" lon="10.138197031564234"><ele>147.85714285714286</ele><time>2026-03-24T17:43:12.984Z</time></trkpt><trkpt lat="45.58285896167427" lon="10.138277671487447"><ele>147.71428571428572</ele><time>2026-03-24T17:43:15.984Z</time></trkpt><trkpt lat="45.58282256566096" lon="10.13836295396057"><ele>147.57142857142856</ele><time>2026-03-24T17:43:18.984Z</time></trkpt><trkpt lat="45.582786304575414" lon="10.138452285558648"><ele>147.42857142857144</ele><time>2026-03-24T17:43:21.984Z</time></trkpt><trkpt lat="45.58274243099233" lon="10.138547230851"><ele>147.28571428571428</ele><time>2026-03-24T17:43:25.984Z</time></trkpt><trkpt lat="45.58270376225458" lon="10.138623987664916"><ele>147.14285714285714</ele><time>2026-03-24T17:43:28.984Z</time></trkpt><trkpt lat="45.58265913469922" lon="10.138704261354453"><ele>147.0</ele><time>2026-03-24T17:43:31.984Z</time></trkpt><trkpt lat="45.582623171845405" lon="10.138790207439605"><ele>147.0</ele><time>2026-03-24T17:43:34.984Z</time></trkpt><trkpt lat="45.582596180297735" lon="10.138880645649417"><ele>147.0</ele><time>2026-03-24T17:43:37.984Z</time></trkpt><trkpt lat="45.58257174064365" lon="10.138969298391126"><ele>147.0</ele><time>2026-03-24T17:43:40.984Z</time></trkpt><trkpt lat="45.582549021191504" lon="10.139057757555692"><ele>147.0</ele><time>2026-03-24T17:43:43.984Z</time></trkpt><trkpt lat="45.582522929001364" lon="10.139157491658693"><ele>147.0</ele><time>2026-03-24T17:43:46.984Z</time></trkpt><trkpt lat="45.58249808893402" lon="10.139252094151345"><ele>147.0</ele><time>2026-03-24T17:43:49.984Z</time></trkpt><trkpt lat="45.58248245618993" lon="10.13936141379831"><ele>147.0</ele><time>2026-03-24T17:43:52.984Z</time></trkpt><trkpt lat="45.58244802183732" lon="10.139479733327969"><ele>147.0</ele><time>2026-03-24T17:43:55.984Z</time></trkpt><trkpt lat="45.582425731239894" lon="10.13958345697868"><ele>147.0</ele><time>2026-03-24T17:43:58.984Z</time></trkpt><trkpt lat="45.58240863451501" lon="10.139689370036375"><ele>147.0</ele><time>2026-03-24T17:44:01.984Z</time></trkpt><trkpt lat="45.58238536702864" lon="10.139802693277616"><ele>147.0</ele><time>2026-03-24T17:44:04.984Z</time></trkpt><trkpt lat="45.582367419578965" lon="10.139897983561232"><ele>147.0</ele><time>2026-03-24T17:44:07.984Z</time></trkpt><trkpt lat="45.58234142355187" lon="10.14000727951075"><ele>147.0</ele><time>2026-03-24T17:44:10.984Z</time></trkpt><trkpt lat="45.58232375215491" lon="10.140114368619159"><ele>147.0</ele><time>2026-03-24T17:44:13.984Z</time></trkpt><trkpt lat="45.58229993317135" lon="10.140223301122209"><ele>147.0</ele><time>2026-03-24T17:44:16.984Z</time></trkpt><trkpt lat="45.58228092915957" lon="10.140329672238183"><ele>147.0</ele><time>2026-03-24T17:44:19.984Z</time></trkpt><trkpt lat="45.58226298316533" lon="10.140428714043795"><ele>147.0</ele><time>2026-03-24T17:44:22.984Z</time></trkpt><trkpt lat="45.582249843949" lon="10.140540064334747"><ele>147.0</ele><time>2026-03-24T17:44:25.984Z</time></trkpt><trkpt lat="45.58223466846363" lon="10.140640770524692"><ele>147.0</ele><time>2026-03-24T17:44:28.984Z</time></trkpt><trkpt lat="45.58222232056495" lon="10.140744352510382"><ele>147.14285714285714</ele><time>2026-03-24T17:44:31.984Z</time></trkpt><trkpt lat="45.58220809790641" lon="10.140844861904997"><ele>147.28571428571428</ele><time>2026-03-24T17:44:34.984Z</time></trkpt><trkpt lat="45.58220060400968" lon="10.140947595542983"><ele>147.42857142857144</ele><time>2026-03-24T17:44:37.984Z</time></trkpt><trkpt lat="45.58219301684854" lon="10.141051725335146"><ele>147.57142857142856</ele><time>2026-03-24T17:44:40.984Z</time></trkpt><trkpt lat="45.58218601614668" lon="10.14114872963582"><ele>147.71428571428572</ele><time>2026-03-24T17:44:43.984Z</time></trkpt><trkpt lat="45.58218495859842" lon="10.141246397818811"><ele>147.85714285714286</ele><time>2026-03-24T17:44:46.984Z</time></trkpt><trkpt lat="45.58218807905858" lon="10.14134342848267"><ele>148.0</ele><time>2026-03-24T17:44:49.984Z</time></trkpt><trkpt lat="45.58218407701125" lon="10.141442737433433"><ele>148.0</ele><time>2026-03-24T17:44:52.984Z</time></trkpt><trkpt lat="45.5821836535014" lon="10.141546285322802"><ele>148.0</ele><time>2026-03-24T17:44:55.984Z</time></trkpt><trkpt lat="45.582178458390594" lon="10.141646163025086"><ele>148.0</ele><time>2026-03-24T17:44:58.984Z</time></trkpt><trkpt lat="45.582174441620325" lon="10.14174294792971"><ele>148.0</ele><time>2026-03-24T17:45:01.984Z</time></trkpt><trkpt lat="45.582168288974096" lon="10.141851064046314"><ele>148.0</ele><time>2026-03-24T17:45:04.984Z</time></trkpt><trkpt lat="45.58216257164486" lon="10.141951036479853"><ele>148.0</ele><time>2026-03-24T17:45:07.984Z</time></trkpt><trkpt lat="45.58216451653207" lon="10.142059059120017"><ele>148.0</ele><time>2026-03-24T17:45:10.984Z</time></trkpt><trkpt lat="45.58215955135283" lon="10.142170808903112"><ele>147.85714285714286</ele><time>2026-03-24T17:45:13.984Z</time></trkpt><trkpt lat="45.58214813484748" lon="10.142269844155022"><ele>147.71428571428572</ele><time>2026-03-24T17:45:16.984Z</time></trkpt><trkpt lat="45.58214701248621" lon="10.142371363857375"><ele>147.57142857142856</ele><time>2026-03-24T17:45:19.984Z</time></trkpt><trkpt lat="45.582140514908936" lon="10.142476009946234"><ele>147.42857142857144</ele><time>2026-03-24T17:45:22.984Z</time></trkpt><trkpt lat="45.582131764636884" lon="10.142580669213075"><ele>147.28571428571428</ele><time>2026-03-24T17:45:25.984Z</time></trkpt><trkpt lat="45.582121210290495" lon="10.1426760635257"><ele>147.14285714285714</ele><time>2026-03-24T17:45:28.983Z</time></trkpt><trkpt lat="45.58211688686566" lon="10.142781577335452"><ele>147.0</ele><time>2026-03-24T17:45:31.983Z</time></trkpt><trkpt lat="45.58209861210613" lon="10.14287102631865"><ele>146.85714285714286</ele><time>2026-03-24T17:45:34.983Z</time></trkpt><trkpt lat="45.58208946741194" lon="10.142967770003235"><ele>146.71428571428572</ele><time>2026-03-24T17:45:37.983Z</time></trkpt><trkpt lat="45.58208017766277" lon="10.143070281063121"><ele>146.57142857142856</ele><time>2026-03-24T17:45:40.983Z</time></trkpt><trkpt lat="45.58206842759546" lon="10.143174878495529"><ele>146.42857142857144</ele><time>2026-03-24T17:45:43.983Z</time></trkpt><trkpt lat="45.58205614481418" lon="10.143272433156838"><ele>146.28571428571428</ele><time>2026-03-24T17:45:46.983Z</time></trkpt><trkpt lat="45.58205068860873" lon="10.14337743263228"><ele>146.14285714285714</ele><time>2026-03-24T17:45:49.983Z</time></trkpt><trkpt lat="45.582031507774275" lon="10.14347760988476"><ele>146.0</ele><time>2026-03-24T17:45:52.983Z</time></trkpt><trkpt lat="45.58202227421634" lon="10.143573250054777"><ele>145.71428571428572</ele><time>2026-03-24T17:45:55.983Z</time></trkpt><trkpt lat="45.58201325279889" lon="10.14366685025413"><ele>145.42857142857144</ele><time>2026-03-24T17:45:58.983Z</time></trkpt><trkpt lat="45.58198984936452" lon="10.143758954043921"><ele>145.14285714285717</ele><time>2026-03-24T17:46:01.983Z</time></trkpt><trkpt lat="45.58198346281102" lon="10.143859336232618"><ele>144.85714285714286</ele><time>2026-03-24T17:46:04.983Z</time></trkpt><trkpt lat="45.58198870168927" lon="10.143964453114426"><ele>144.57142857142858</ele><time>2026-03-24T17:46:07.983Z</time></trkpt><trkpt lat="45.581985882243" lon="10.144056612138089"><ele>144.2857142857143</ele><time>2026-03-24T17:46:10.983Z</time></trkpt><trkpt lat="45.58198927585462" lon="10.1441506949085"><ele>144.0</ele><time>2026-03-24T17:46:13.983Z</time></trkpt><trkpt lat="45.5819949781367" lon="10.144244305404085"><ele>144.00000000000003</ele><time>2026-03-24T17:46:16.983Z</time></trkpt><trkpt lat="45.58199985959866" lon="10.14433569275062"><ele>144.0</ele><time>2026-03-24T17:46:19.983Z</time></trkpt><trkpt lat="45.582001850501236" lon="10.144430343815765"><ele>144.0</ele><time>2026-03-24T17:46:22.983Z</time></trkpt><trkpt lat="45.58201028781542" lon="10.144529354013658"><ele>144.0</ele><time>2026-03-24T17:46:25.983Z</time></trkpt><trkpt lat="45.582023349317495" lon="10.144634988480338"><ele>144.0</ele><time>2026-03-24T17:46:28.983Z</time></trkpt><trkpt lat="45.58202333308785" lon="10.144733485853482"><ele>144.00000000000003</ele><time>2026-03-24T17:46:31.983Z</time></trkpt><trkpt lat="45.582030618821456" lon="10.14483088729846"><ele>144.0</ele><time>2026-03-24T17:46:34.983Z</time></trkpt><trkpt lat="45.58204357695158" lon="10.144928569617194"><ele>144.14285714285717</ele><time>2026-03-24T17:46:37.983Z</time></trkpt><trkpt lat="45.58204943390304" lon="10.145037882671618"><ele>144.28571428571428</ele><time>2026-03-24T17:46:40.983Z</time></trkpt><trkpt lat="45.582047534661136" lon="10.145139905329346"><ele>144.42857142857144</ele><time>2026-03-24T17:46:43.983Z</time></trkpt><trkpt lat="45.58204490314447" lon="10.145244107274369"><ele>144.57142857142858</ele><time>2026-03-24T17:46:46.983Z</time></trkpt><trkpt lat="45.58203244253245" lon="10.145354455802439"><ele>144.71428571428572</ele><time>2026-03-24T17:46:49.983Z</time></trkpt><trkpt lat="45.5820095386747" lon="10.145456299133716"><ele>144.85714285714286</ele><time>2026-03-24T17:46:52.983Z</time></trkpt><trkpt lat="45.582053710785885" lon="10.145523242331583"><ele>145.0</ele><time>2026-03-24T17:46:54.983Z</time></trkpt><trkpt lat="45.58211666003228" lon="10.145588859333548"><ele>145.28571428571428</ele><time>2026-03-24T17:46:57.983Z</time></trkpt><trkpt lat="45.582170840884245" lon="10.145670619436086"><ele>145.57142857142858</ele><time>2026-03-24T17:47:00.983Z</time></trkpt><trkpt lat="45.58222552394047" lon="10.145741259725652"><ele>145.85714285714286</ele><time>2026-03-24T17:47:03.983Z</time></trkpt><trkpt lat="45.582265233231965" lon="10.14581494654179"><ele>146.14285714285714</ele><time>2026-03-24T17:47:06.983Z</time></trkpt><trkpt lat="45.58228446089894" lon="10.145903810001998"><ele>146.42857142857144</ele><time>2026-03-24T17:47:09.983Z</time></trkpt><trkpt lat="45.58228878348773" lon="10.145993745986639"><ele>146.71428571428572</ele><time>2026-03-24T17:47:12.983Z</time></trkpt><trkpt lat="45.58229474864098" lon="10.146089146152635"><ele>147.0</ele><time>2026-03-24T17:47:15.983Z</time></trkpt><trkpt lat="45.58229461582463" lon="10.1461840936944"><ele>147.0</ele><time>2026-03-24T17:47:18.983Z</time></trkpt><trkpt lat="45.58229973530586" lon="10.146274158418704"><ele>147.0</ele><time>2026-03-24T17:47:21.983Z</time></trkpt><trkpt lat="45.58230109233993" lon="10.146381909952403"><ele>147.0</ele><time>2026-03-24T17:47:24.983Z</time></trkpt><trkpt lat="45.58230035565996" lon="10.146479349076444"><ele>147.0</ele><time>2026-03-24T17:47:27.983Z</time></trkpt><trkpt lat="45.582297870603256" lon="10.14658302748029"><ele>147.0</ele><time>2026-03-24T17:47:30.983Z</time></trkpt><trkpt lat="45.582300868382305" lon="10.14667756002062"><ele>147.0</ele><time>2026-03-24T17:47:33.982Z</time></trkpt><trkpt lat="45.582308364678596" lon="10.146780452675463"><ele>147.0</ele><time>2026-03-24T17:47:36.983Z</time></trkpt><trkpt lat="45.582314589850476" lon="10.146881617833811"><ele>146.85714285714286</ele><time>2026-03-24T17:47:39.983Z</time></trkpt><trkpt lat="45.582316024080505" lon="10.146995730280047"><ele>146.71428571428572</ele><time>2026-03-24T17:47:42.982Z</time></trkpt><trkpt lat="45.58231463363974" lon="10.147109062760562"><ele>146.57142857142856</ele><time>2026-03-24T17:47:45.982Z</time></trkpt><trkpt lat="45.5823171156072" lon="10.147215406556363"><ele>146.42857142857144</ele><time>2026-03-24T17:47:48.982Z</time></trkpt><trkpt lat="45.582354863992336" lon="10.147299153492378"><ele>146.28571428571428</ele><time>2026-03-24T17:47:51.982Z</time></trkpt><trkpt lat="45.58242219443058" lon="10.147320095948851"><ele>146.14285714285714</ele><time>2026-03-24T17:47:54.982Z</time></trkpt><trkpt lat="45.58248836541911" lon="10.147332208492887"><ele>146.0</ele><time>2026-03-24T17:47:57.982Z</time></trkpt><trkpt lat="45.58255750344427" lon="10.14734832251151"><ele>146.0</ele><time>2026-03-24T17:48:00.982Z</time></trkpt><trkpt lat="45.58262073115766" lon="10.147355071265448"><ele>146.0</ele><time>2026-03-24T17:48:03.982Z</time></trkpt><trkpt lat="45.58269023982667" lon="10.147362037027358"><ele>146.0</ele><time>2026-03-24T17:48:06.982Z</time></trkpt><trkpt lat="45.5827556307979" lon="10.147374536505758"><ele>146.0</ele><time>2026-03-24T17:48:09.982Z</time></trkpt><trkpt lat="45.58282673936254" lon="10.147407782651639"><ele>146.0</ele><time>2026-03-24T17:48:12.982Z</time></trkpt><trkpt lat="45.58290560120277" lon="10.147423604346914"><ele>146.0</ele><time>2026-03-24T17:48:15.982Z</time></trkpt><trkpt lat="45.58298318387415" lon="10.147479438835964"><ele>146.0</ele><time>2026-03-24T17:48:18.982Z</time></trkpt><trkpt lat="45.583052231145366" lon="10.147550085604601"><ele>146.16666666666666</ele><time>2026-03-24T17:48:21.982Z</time></trkpt><trkpt lat="45.58311234968847" lon="10.147637549388985"><ele>146.33333333333331</ele><time>2026-03-24T17:48:24.982Z</time></trkpt><trkpt lat="45.5831748998183" lon="10.147708790680698"><ele>146.5</ele><time>2026-03-24T17:48:27.982Z</time></trkpt><trkpt lat="45.58324451252599" lon="10.147771403781919"><ele>146.66666666666666</ele><time>2026-03-24T17:48:30.982Z</time></trkpt><trkpt lat="45.58330461954021" lon="10.147849727878866"><ele>146.83333333333334</ele><time>2026-03-24T17:48:33.982Z</time></trkpt><trkpt lat="45.58335469713243" lon="10.147941077421226"><ele>147.0</ele><time>2026-03-24T17:48:36.982Z</time></trkpt><trkpt lat="45.58341205036373" lon="10.148017414247636"><ele>147.0</ele><time>2026-03-24T17:48:39.982Z</time></trkpt><trkpt lat="45.58347455887905" lon="10.148098149809599"><ele>147.0</ele><time>2026-03-24T17:48:42.982Z</time></trkpt><trkpt lat="45.5835402138504" lon="10.148166303826756"><ele>147.0</ele><time>2026-03-24T17:48:45.982Z</time></trkpt><trkpt lat="45.58360819785001" lon="10.148234860567618"><ele>147.0</ele><time>2026-03-24T17:48:48.982Z</time></trkpt><trkpt lat="45.583680142336675" lon="10.148311870098125"><ele>147.0</ele><time>2026-03-24T17:48:52.982Z</time></trkpt><trkpt lat="45.58376010326288" lon="10.148364487036254"><ele>147.0</ele><time>2026-03-24T17:48:55.982Z</time></trkpt><trkpt lat="45.58382885591953" lon="10.148414736435985"><ele>148.0</ele><time>2026-03-24T17:48:58.982Z</time></trkpt><trkpt lat="45.58389692895348" lon="10.148481624118771"><ele>149.0</ele><time>2026-03-24T17:49:01.982Z</time></trkpt><trkpt lat="45.58396095052702" lon="10.148541508389728"><ele>150.0</ele><time>2026-03-24T17:49:04.982Z</time></trkpt><trkpt lat="45.58402162687934" lon="10.148610397792375"><ele>151.0</ele><time>2026-03-24T17:49:07.982Z</time></trkpt><trkpt lat="45.584080663288645" lon="10.148683268908185"><ele>152.0</ele><time>2026-03-24T17:49:10.982Z</time></trkpt><trkpt lat="45.58414254610436" lon="10.148756226455681"><ele>153.0</ele><time>2026-03-24T17:49:13.982Z</time></trkpt><trkpt lat="45.584207247687985" lon="10.148819948696197"><ele>153.0</ele><time>2026-03-24T17:49:16.982Z</time></trkpt><trkpt lat="45.58426816966528" lon="10.148888416360464"><ele>153.0</ele><time>2026-03-24T17:49:19.982Z</time></trkpt><trkpt lat="45.58432753106779" lon="10.148953054638499"><ele>153.0</ele><time>2026-03-24T17:49:22.982Z</time></trkpt><trkpt lat="45.58439344144688" lon="10.148981234038551"><ele>153.0</ele><time>2026-03-24T17:49:25.982Z</time></trkpt><trkpt lat="45.58446661072187" lon="10.149007784793223"><ele>153.0</ele><time>2026-03-24T17:49:28.982Z</time></trkpt><trkpt lat="45.584537290663036" lon="10.149031445425681"><ele>153.0</ele><time>2026-03-24T17:49:31.982Z</time></trkpt><trkpt lat="45.58461534733283" lon="10.149060563435642"><ele>153.16666666666666</ele><time>2026-03-24T17:49:34.982Z</time></trkpt><trkpt lat="45.58467939193681" lon="10.149084251691361"><ele>153.33333333333334</ele><time>2026-03-24T17:49:37.982Z</time></trkpt><trkpt lat="45.58476080895026" lon="10.149098786339685"><ele>153.5</ele><time>2026-03-24T17:49:40.982Z</time></trkpt><trkpt lat="45.58483898514913" lon="10.149125570694398"><ele>153.66666666666669</ele><time>2026-03-24T17:49:43.981Z</time></trkpt><trkpt lat="45.58491281779776" lon="10.149131474422585"><ele>153.83333333333334</ele><time>2026-03-24T17:49:46.981Z</time></trkpt><trkpt lat="45.584988044061625" lon="10.149139592090508"><ele>154.0</ele><time>2026-03-24T17:49:49.981Z</time></trkpt><trkpt lat="45.58506884602796" lon="10.149140568334687"><ele>154.0</ele><time>2026-03-24T17:49:52.982Z</time></trkpt><trkpt lat="45.58514243048205" lon="10.149146947928564"><ele>154.0</ele><time>2026-03-24T17:49:55.982Z</time></trkpt><trkpt lat="45.58521333297374" lon="10.149151249654384"><ele>154.0</ele><time>2026-03-24T17:49:58.982Z</time></trkpt><trkpt lat="45.58529459780935" lon="10.149164489089575"><ele>154.0</ele><time>2026-03-24T17:50:01.982Z</time></trkpt><trkpt lat="45.58535974090368" lon="10.14917983240987"><ele>154.0</ele><time>2026-03-24T17:50:04.982Z</time></trkpt><trkpt lat="45.585439578773226" lon="10.149183780663204"><ele>154.0</ele><time>2026-03-24T17:50:07.982Z</time></trkpt><trkpt lat="45.58552493904625" lon="10.149173308152495"><ele>154.14285714285714</ele><time>2026-03-24T17:50:10.982Z</time></trkpt><trkpt lat="45.58560456068875" lon="10.149178573908207"><ele>154.28571428571428</ele><time>2026-03-24T17:50:13.982Z</time></trkpt><trkpt lat="45.5856733748984" lon="10.149197953218618"><ele>154.42857142857144</ele><time>2026-03-24T17:50:16.982Z</time></trkpt><trkpt lat="45.58574548904668" lon="10.149213639432396"><ele>154.57142857142856</ele><time>2026-03-24T17:50:19.982Z</time></trkpt><trkpt lat="45.58581910485792" lon="10.14922400188367"><ele>154.71428571428572</ele><time>2026-03-24T17:50:22.982Z</time></trkpt><trkpt lat="45.58588974627931" lon="10.149258132412324"><ele>154.85714285714286</ele><time>2026-03-24T17:50:25.982Z</time></trkpt><trkpt lat="45.58596145950241" lon="10.149272744674112"><ele>155.0</ele><time>2026-03-24T17:50:28.982Z</time></trkpt><trkpt lat="45.58603930962528" lon="10.1492792271321"><ele>155.0</ele><time>2026-03-24T17:50:31.982Z</time></trkpt><trkpt lat="45.586112366782736" lon="10.149288728850523"><ele>155.0</ele><time>2026-03-24T17:50:34.982Z</time></trkpt><trkpt lat="45.586185535225354" lon="10.149291538190605"><ele>155.0</ele><time>2026-03-24T17:50:37.982Z</time></trkpt><trkpt lat="45.58626130371926" lon="10.149302757378411"><ele>155.0</ele><time>2026-03-24T17:50:40.982Z</time></trkpt><trkpt lat="45.58633879918384" lon="10.14930133870785"><ele>155.0</ele><time>2026-03-24T17:50:43.982Z</time></trkpt><trkpt lat="45.586414676919816" lon="10.149295609308915"><ele>155.0</ele><time>2026-03-24T17:50:46.982Z</time></trkpt><trkpt lat="45.586481663913986" lon="10.149277838248334"><ele>155.0</ele><time>2026-03-24T17:50:49.982Z</time></trkpt><trkpt lat="45.58655498267441" lon="10.149249106536704"><ele>154.66666666666666</ele><time>2026-03-24T17:50:52.982Z</time></trkpt><trkpt lat="45.58662333744035" lon="10.149211401209666"><ele>154.33333333333331</ele><time>2026-03-24T17:50:55.982Z</time></trkpt><trkpt lat="45.58669199623202" lon="10.149166653183066"><ele>154.0</ele><time>2026-03-24T17:50:58.982Z</time></trkpt><trkpt lat="45.586761590408145" lon="10.149129602231298"><ele>153.66666666666666</ele><time>2026-03-24T17:51:01.982Z</time></trkpt><trkpt lat="45.58683265818998" lon="10.149096374438162"><ele>153.33333333333334</ele><time>2026-03-24T17:51:04.982Z</time></trkpt><trkpt lat="45.586914803066406" lon="10.149074345322902"><ele>153.0</ele><time>2026-03-24T17:51:07.982Z</time></trkpt><trkpt lat="45.586989696694616" lon="10.149060211412229"><ele>153.33333333333334</ele><time>2026-03-24T17:51:10.982Z</time></trkpt><trkpt lat="45.58706854942438" lon="10.14905429065043"><ele>153.66666666666666</ele><time>2026-03-24T17:51:13.982Z</time></trkpt><trkpt lat="45.587139264984174" lon="10.149050747969435"><ele>154.0</ele><time>2026-03-24T17:51:16.982Z</time></trkpt><trkpt lat="45.58721235147313" lon="10.14906551964221"><ele>154.33333333333331</ele><time>2026-03-24T17:51:19.982Z</time></trkpt><trkpt lat="45.587292783354016" lon="10.14907602372062"><ele>154.66666666666666</ele><time>2026-03-24T17:51:22.982Z</time></trkpt><trkpt lat="45.58736783895955" lon="10.149095880568696"><ele>155.0</ele><time>2026-03-24T17:51:25.982Z</time></trkpt><trkpt lat="45.58744393240034" lon="10.149109032392062"><ele>155.0</ele><time>2026-03-24T17:51:28.982Z</time></trkpt><trkpt lat="45.587513583747864" lon="10.149107719722812"><ele>155.0</ele><time>2026-03-24T17:51:31.982Z</time></trkpt><trkpt lat="45.58759316593499" lon="10.149102901039749"><ele>155.0</ele><time>2026-03-24T17:51:34.982Z</time></trkpt><trkpt lat="45.587666000361224" lon="10.14909498823531"><ele>155.0</ele><time>2026-03-24T17:51:37.982Z</time></trkpt><trkpt lat="45.587734992830306" lon="10.149079574032637"><ele>155.0</ele><time>2026-03-24T17:51:40.981Z</time></trkpt><trkpt lat="45.58781264919306" lon="10.149036604142834"><ele>155.0</ele><time>2026-03-24T17:51:44.981Z</time></trkpt><trkpt lat="45.58788602818917" lon="10.149018656491549"><ele>156.14285714285714</ele><time>2026-03-24T17:51:47.981Z</time></trkpt><trkpt lat="45.587954155837636" lon="10.148990703306213"><ele>157.28571428571428</ele><time>2026-03-24T17:51:50.981Z</time></trkpt><trkpt lat="45.58801710306579" lon="10.14894358137256"><ele>158.42857142857144</ele><time>2026-03-24T17:51:53.981Z</time></trkpt><trkpt lat="45.5880796535816" lon="10.148889330840019"><ele>159.57142857142856</ele><time>2026-03-24T17:51:56.981Z</time></trkpt><trkpt lat="45.588145974232404" lon="10.148826812345106"><ele>160.7142857142857</ele><time>2026-03-24T17:51:59.981Z</time></trkpt><trkpt lat="45.58820748958144" lon="10.148781024540536"><ele>161.85714285714286</ele><time>2026-03-24T17:52:02.981Z</time></trkpt><trkpt lat="45.58826952583104" lon="10.148727892330706"><ele>163.0</ele><time>2026-03-24T17:52:05.981Z</time></trkpt><trkpt lat="45.5883328799852" lon="10.14867712753121"><ele>163.0</ele><time>2026-03-24T17:52:08.981Z</time></trkpt><trkpt lat="45.58839089501657" lon="10.148620097082144"><ele>163.0</ele><time>2026-03-24T17:52:11.981Z</time></trkpt><trkpt lat="45.588460311118155" lon="10.14856813649415"><ele>163.0</ele><time>2026-03-24T17:52:14.981Z</time></trkpt><trkpt lat="45.58851970131266" lon="10.148532182397565"><ele>163.0</ele><time>2026-03-24T17:52:17.981Z</time></trkpt><trkpt lat="45.588612400984225" lon="10.148528563428506"><ele>163.0</ele><time>2026-03-24T17:52:20.981Z</time></trkpt><trkpt lat="45.58869253133807" lon="10.148549495108236"><ele>163.0</ele><time>2026-03-24T17:52:23.981Z</time></trkpt><trkpt lat="45.58876459271475" lon="10.1485680454543"><ele>164.14285714285714</ele><time>2026-03-24T17:52:26.981Z</time></trkpt><trkpt lat="45.58884413947195" lon="10.148577034558016"><ele>165.28571428571428</ele><time>2026-03-24T17:52:30.981Z</time></trkpt><trkpt lat="45.58890335042263" lon="10.148622832691089"><ele>166.42857142857142</ele><time>2026-03-24T17:52:33.981Z</time></trkpt><trkpt lat="45.58896262575654" lon="10.148673432900544"><ele>167.57142857142856</ele><time>2026-03-24T17:52:36.981Z</time></trkpt><trkpt lat="45.589019410694654" lon="10.148720133746387"><ele>168.71428571428572</ele><time>2026-03-24T17:52:39.981Z</time></trkpt><trkpt lat="45.589085935182396" lon="10.14875127318057"><ele>169.85714285714283</ele><time>2026-03-24T17:52:42.981Z</time></trkpt><trkpt lat="45.58915119288605" lon="10.14878188169472"><ele>171.0</ele><time>2026-03-24T17:52:45.981Z</time></trkpt><trkpt lat="45.589208827570246" lon="10.148829398186983"><ele>170.99999999999997</ele><time>2026-03-24T17:52:48.981Z</time></trkpt><trkpt lat="45.589248417376915" lon="10.1489175483177"><ele>171.0</ele><time>2026-03-24T17:52:51.981Z</time></trkpt><trkpt lat="45.58927087393693" lon="10.149004194809548"><ele>171.0</ele><time>2026-03-24T17:52:54.981Z</time></trkpt><trkpt lat="45.589301537175075" lon="10.149101431271388"><ele>171.0</ele><time>2026-03-24T17:52:57.981Z</time></trkpt><trkpt lat="45.5893460049414" lon="10.14918055160756"><ele>171.0</ele><time>2026-03-24T17:53:00.981Z</time></trkpt><trkpt lat="45.58939950302382" lon="10.149242251054599"><ele>170.99999999999997</ele><time>2026-03-24T17:53:03.981Z</time></trkpt><trkpt lat="45.58944724029976" lon="10.149314263451457"><ele>171.0</ele><time>2026-03-24T17:53:06.981Z</time></trkpt><trkpt lat="45.58949917264951" lon="10.14937474361358"><ele>171.85714285714283</ele><time>2026-03-24T17:53:09.981Z</time></trkpt><trkpt lat="45.58956233712509" lon="10.14944656215047"><ele>172.71428571428572</ele><time>2026-03-24T17:53:13.981Z</time></trkpt><trkpt lat="45.58960228274066" lon="10.149519208503271"><ele>173.57142857142856</ele><time>2026-03-24T17:53:16.981Z</time></trkpt><trkpt lat="45.58961888181981" lon="10.149608923425781"><ele>174.42857142857142</ele><time>2026-03-24T17:53:19.981Z</time></trkpt><trkpt lat="45.58963141250086" lon="10.149712325453086"><ele>175.28571428571428</ele><time>2026-03-24T17:53:22.981Z</time></trkpt><trkpt lat="45.58961584324744" lon="10.149816048197561"><ele>176.14285714285714</ele><time>2026-03-24T17:53:25.981Z</time></trkpt><trkpt lat="45.58959609967662" lon="10.14991500121977"><ele>177.0</ele><time>2026-03-24T17:53:28.981Z</time></trkpt><trkpt lat="45.58958388773041" lon="10.150028176088083"><ele>177.71428571428572</ele><time>2026-03-24T17:53:31.981Z</time></trkpt><trkpt lat="45.58958341014579" lon="10.150149418760119"><ele>178.42857142857142</ele><time>2026-03-24T17:53:35.981Z</time></trkpt><trkpt lat="45.589565243479335" lon="10.150249214956125"><ele>179.14285714285714</ele><time>2026-03-24T17:53:38.981Z</time></trkpt><trkpt lat="45.58954946655937" lon="10.150343492461586"><ele>179.85714285714286</ele><time>2026-03-24T17:53:41.981Z</time></trkpt><trkpt lat="45.58954236352064" lon="10.150442502762028"><ele>180.57142857142856</ele><time>2026-03-24T17:53:44.981Z</time></trkpt><trkpt lat="45.589551603688335" lon="10.150541598277528"><ele>181.28571428571428</ele><time>2026-03-24T17:53:47.981Z</time></trkpt><trkpt lat="45.589605605105255" lon="10.150592091371717"><ele>182.0</ele><time>2026-03-24T17:53:50.981Z</time></trkpt><trkpt lat="45.58967361591955" lon="10.1506625233465"><ele>182.0</ele><time>2026-03-24T17:53:54.98Z</time></trkpt><trkpt lat="45.5897341019687" lon="10.150710232071267"><ele>182.0</ele><time>2026-03-24T17:53:57.98Z</time></trkpt><trkpt lat="45.589791822046" lon="10.150765412410811"><ele>182.0</ele><time>2026-03-24T17:54:00.981Z</time></trkpt><trkpt lat="45.589824208488686" lon="10.150877982700356"><ele>182.0</ele><time>2026-03-24T17:54:04.98Z</time></trkpt><trkpt lat="45.58987051235653" lon="10.150985956337504"><ele>182.0</ele><time>2026-03-24T17:54:09.98Z</time></trkpt><trkpt lat="45.58991194240243" lon="10.151102463587048"><ele>182.0</ele><time>2026-03-24T17:54:12.98Z</time></trkpt><trkpt lat="45.589959711956965" lon="10.15117885379422"><ele>182.0</ele><time>2026-03-24T17:54:15.98Z</time></trkpt><trkpt lat="45.59001727194865" lon="10.151236904682063"><ele>182.0</ele><time>2026-03-24T17:54:18.98Z</time></trkpt><trkpt lat="45.59007734259257" lon="10.151285408693916"><ele>182.0</ele><time>2026-03-24T17:54:21.98Z</time></trkpt><trkpt lat="45.590122868481494" lon="10.151352357311437"><ele>182.0</ele><time>2026-03-24T17:54:24.98Z</time></trkpt><trkpt lat="45.59017434848871" lon="10.151419174964719"><ele>182.0</ele><time>2026-03-24T17:54:27.98Z</time></trkpt><trkpt lat="45.59022106410456" lon="10.151495206850067"><ele>182.0</ele><time>2026-03-24T17:54:30.98Z</time></trkpt><trkpt lat="45.590280436372396" lon="10.151541269812999"><ele>182.0</ele><time>2026-03-24T17:54:33.98Z</time></trkpt><trkpt lat="45.5903333350908" lon="10.151596458620796"><ele>182.28571428571428</ele><time>2026-03-24T17:54:36.98Z</time></trkpt><trkpt lat="45.59039602009857" lon="10.151637496448076"><ele>182.57142857142856</ele><time>2026-03-24T17:54:39.98Z</time></trkpt><trkpt lat="45.59046181847774" lon="10.151673759555877"><ele>182.85714285714286</ele><time>2026-03-24T17:54:42.98Z</time></trkpt><trkpt lat="45.59051854090085" lon="10.151714111554456"><ele>183.14285714285714</ele><time>2026-03-24T17:54:45.98Z</time></trkpt><trkpt lat="45.590570892352595" lon="10.151773254816524"><ele>183.42857142857142</ele><time>2026-03-24T17:54:48.98Z</time></trkpt><trkpt lat="45.59064587264756" lon="10.151812209404499"><ele>183.71428571428572</ele><time>2026-03-24T17:54:51.98Z</time></trkpt><trkpt lat="45.59071686434505" lon="10.151834620173828"><ele>184.0</ele><time>2026-03-24T17:54:54.98Z</time></trkpt><trkpt lat="45.59078557289645" lon="10.1518488207192"><ele>184.0</ele><time>2026-03-24T17:54:57.98Z</time></trkpt><trkpt lat="45.59084901229332" lon="10.151872677627827"><ele>184.0</ele><time>2026-03-24T17:55:00.98Z</time></trkpt><trkpt lat="45.590916623131356" lon="10.15187082299448"><ele>184.0</ele><time>2026-03-24T17:55:03.98Z</time></trkpt><trkpt lat="45.59099108930433" lon="10.151911723043973"><ele>184.0</ele><time>2026-03-24T17:55:06.98Z</time></trkpt><trkpt lat="45.59106789950715" lon="10.151922022870034"><ele>184.0</ele><time>2026-03-24T17:55:09.98Z</time></trkpt><trkpt lat="45.59113325811176" lon="10.151928413752058"><ele>184.0</ele><time>2026-03-24T17:55:12.98Z</time></trkpt><trkpt lat="45.59120229593216" lon="10.151909180490277"><ele>184.0</ele><time>2026-03-24T17:55:15.98Z</time></trkpt><trkpt lat="45.591271992863625" lon="10.151929163269811"><ele>184.5</ele><time>2026-03-24T17:55:18.98Z</time></trkpt><trkpt lat="45.59134294964442" lon="10.15193727062209"><ele>185.0</ele><time>2026-03-24T17:55:21.98Z</time></trkpt><trkpt lat="45.591426004769026" lon="10.151961724058205"><ele>185.5</ele><time>2026-03-24T17:55:25.98Z</time></trkpt><trkpt lat="45.591504244261145" lon="10.151994406791538"><ele>186.0</ele><time>2026-03-24T17:55:28.98Z</time></trkpt><trkpt lat="45.59157611769194" lon="10.152032395282019"><ele>186.5</ele><time>2026-03-24T17:55:31.98Z</time></trkpt><trkpt lat="45.59164923783768" lon="10.152088502413738"><ele>187.0</ele><time>2026-03-24T17:55:34.98Z</time></trkpt><trkpt lat="45.59173008787062" lon="10.15209862681827"><ele>187.0</ele><time>2026-03-24T17:55:37.98Z</time></trkpt><trkpt lat="45.59179670251662" lon="10.152144482959654"><ele>187.0</ele><time>2026-03-24T17:55:40.98Z</time></trkpt><trkpt lat="45.59185789471779" lon="10.152189006445928"><ele>187.0</ele><time>2026-03-24T17:55:43.98Z</time></trkpt><trkpt lat="45.59192196638983" lon="10.152227348819704"><ele>187.0</ele><time>2026-03-24T17:55:46.98Z</time></trkpt><trkpt lat="45.59199379018657" lon="10.152256838067077"><ele>187.0</ele><time>2026-03-24T17:55:49.98Z</time></trkpt><trkpt lat="45.59207081840333" lon="10.152266485911312"><ele>187.0</ele><time>2026-03-24T17:55:52.98Z</time></trkpt><trkpt lat="45.59213886081443" lon="10.152293349885621"><ele>187.0</ele><time>2026-03-24T17:55:55.98Z</time></trkpt><trkpt lat="45.59222057498858" lon="10.152341287409646"><ele>186.14285714285714</ele><time>2026-03-24T17:55:58.98Z</time></trkpt><trkpt lat="45.592237950996804" lon="10.152437941443257"><ele>185.2857142857143</ele><time>2026-03-24T17:56:00.979Z</time></trkpt><trkpt lat="45.592262853063254" lon="10.152541033820157"><ele>184.42857142857144</ele><time>2026-03-24T17:56:03.98Z</time></trkpt><trkpt lat="45.5923353253606" lon="10.152563493000326"><ele>183.57142857142856</ele><time>2026-03-24T17:56:06.98Z</time></trkpt><trkpt lat="45.59240538827455" lon="10.152563922921814"><ele>182.71428571428572</ele><time>2026-03-24T17:56:09.98Z</time></trkpt><trkpt lat="45.59247482415382" lon="10.152591419860281"><ele>181.85714285714286</ele><time>2026-03-24T17:56:12.98Z</time></trkpt><trkpt lat="45.59254082332258" lon="10.152617583862012"><ele>181.0</ele><time>2026-03-24T17:56:15.98Z</time></trkpt><trkpt lat="45.59261275703047" lon="10.152632141131802"><ele>181.0</ele><time>2026-03-24T17:56:18.98Z</time></trkpt><trkpt lat="45.59268399199407" lon="10.152669524883672"><ele>181.0</ele><time>2026-03-24T17:56:21.98Z</time></trkpt><trkpt lat="45.59276210562361" lon="10.152662145239656"><ele>181.0</ele><time>2026-03-24T17:56:24.98Z</time></trkpt><trkpt lat="45.59283768731635" lon="10.152652532403401"><ele>181.0</ele><time>2026-03-24T17:56:27.98Z</time></trkpt><trkpt lat="45.59298782521351" lon="10.15266532194098"><ele>181.0</ele><time>2026-03-24T17:56:33.98Z</time></trkpt><trkpt lat="45.59305418704032" lon="10.152657375858448"><ele>181.0</ele><time>2026-03-24T17:56:36.98Z</time></trkpt><trkpt lat="45.5931167653933" lon="10.15261857327946"><ele>181.0</ele><time>2026-03-24T17:56:39.98Z</time></trkpt><trkpt lat="45.59319114264238" lon="10.15261211589274"><ele>181.0</ele><time>2026-03-24T17:56:42.98Z</time></trkpt><trkpt lat="45.59324198487576" lon="10.152522751589284"><ele>181.0</ele><time>2026-03-24T17:56:47.98Z</time></trkpt><trkpt lat="45.59325756824057" lon="10.152426136367454"><ele>181.0</ele><time>2026-03-24T17:56:50.98Z</time></trkpt><trkpt lat="45.59326614659034" lon="10.152317064347214"><ele>181.0</ele><time>2026-03-24T17:56:53.98Z</time></trkpt><trkpt lat="45.59325157236587" lon="10.152208982557378"><ele>181.0</ele><time>2026-03-24T17:56:56.98Z</time></trkpt><trkpt lat="45.59330260387605" lon="10.152111613941763"><ele>180.83333333333334</ele><time>2026-03-24T17:56:59.98Z</time></trkpt><trkpt lat="45.593332477771575" lon="10.15201902871828"><ele>180.66666666666669</ele><time>2026-03-24T17:57:02.98Z</time></trkpt><trkpt lat="45.593347682969274" lon="10.151923812295346"><ele>180.5</ele><time>2026-03-24T17:57:05.98Z</time></trkpt><trkpt lat="45.5933660357295" lon="10.151823629771492"><ele>180.33333333333334</ele><time>2026-03-24T17:57:08.98Z</time></trkpt><trkpt lat="45.59340166589088" lon="10.151729077858274"><ele>180.16666666666666</ele><time>2026-03-24T17:57:11.98Z</time></trkpt><trkpt lat="45.59347029175096" lon="10.151652134143706"><ele>180.0</ele><time>2026-03-24T17:57:14.98Z</time></trkpt><trkpt lat="45.593511141029424" lon="10.151559644706388"><ele>180.0</ele><time>2026-03-24T17:57:17.98Z</time></trkpt><trkpt lat="45.593525257072194" lon="10.15143642786224"><ele>180.0</ele><time>2026-03-24T17:57:21.976Z</time></trkpt><trkpt lat="45.59354867501104" lon="10.151326524813854"><ele>180.0</ele><time>2026-03-24T17:57:24.974Z</time></trkpt><trkpt lat="45.59357200295287" lon="10.151227582063173"><ele>180.0</ele><time>2026-03-24T17:57:27.972Z</time></trkpt><trkpt lat="45.59360373496101" lon="10.151130882185289"><ele>180.0</ele><time>2026-03-24T17:57:30.971Z</time></trkpt><trkpt lat="45.59363693346008" lon="10.151026685329471"><ele>180.0</ele><time>2026-03-24T17:57:33.969Z</time></trkpt><trkpt lat="45.59367363141414" lon="10.150926504345927"><ele>180.0</ele><time>2026-03-24T17:57:36.968Z</time></trkpt><trkpt lat="45.5937050153804" lon="10.15083248097753"><ele>180.0</ele><time>2026-03-24T17:57:39.967Z</time></trkpt><trkpt lat="45.59372842205723" lon="10.150740991617972"><ele>180.0</ele><time>2026-03-24T17:57:42.967Z</time></trkpt><trkpt lat="45.593747701262" lon="10.150634905024553"><ele>180.0</ele><time>2026-03-24T17:57:45.966Z</time></trkpt><trkpt lat="45.59376274620685" lon="10.150540348725796"><ele>180.0</ele><time>2026-03-24T17:57:48.965Z</time></trkpt><trkpt lat="45.59377880757734" lon="10.15044636789016"><ele>180.0</ele><time>2026-03-24T17:57:51.965Z</time></trkpt><trkpt lat="45.59379078851238" lon="10.150345757461055"><ele>180.0</ele><time>2026-03-24T17:57:54.965Z</time></trkpt><trkpt lat="45.59380738574799" lon="10.150252119367424"><ele>180.28571428571428</ele><time>2026-03-24T17:57:57.964Z</time></trkpt><trkpt lat="45.59383343014172" lon="10.150160947891147"><ele>180.57142857142858</ele><time>2026-03-24T17:58:00.964Z</time></trkpt><trkpt lat="45.59386656777516" lon="10.150076177085438"><ele>180.85714285714286</ele><time>2026-03-24T17:58:03.964Z</time></trkpt><trkpt lat="45.59388861415555" lon="10.149987649657485"><ele>181.14285714285714</ele><time>2026-03-24T17:58:06.963Z</time></trkpt><trkpt lat="45.593910132088475" lon="10.149896677190023"><ele>181.42857142857144</ele><time>2026-03-24T17:58:09.963Z</time></trkpt><trkpt lat="45.59393577890561" lon="10.149808346102494"><ele>181.71428571428572</ele><time>2026-03-24T17:58:12.963Z</time></trkpt><trkpt lat="45.59396183961117" lon="10.149714618831917"><ele>182.0</ele><time>2026-03-24T17:58:15.963Z</time></trkpt><trkpt lat="45.59398835686995" lon="10.149622789959258"><ele>182.28571428571428</ele><time>2026-03-24T17:58:18.963Z</time></trkpt><trkpt lat="45.5940273237741" lon="10.149533764500296"><ele>182.57142857142856</ele><time>2026-03-24T17:58:21.963Z</time></trkpt><trkpt lat="45.594062364348076" lon="10.149449758973486"><ele>182.85714285714286</ele><time>2026-03-24T17:58:24.963Z</time></trkpt><trkpt lat="45.59410657997579" lon="10.149371141850667"><ele>183.14285714285714</ele><time>2026-03-24T17:58:27.963Z</time></trkpt><trkpt lat="45.59415549615209" lon="10.149304120576913"><ele>183.42857142857142</ele><time>2026-03-24T17:58:30.963Z</time></trkpt><trkpt lat="45.59419954022262" lon="10.149235637384075"><ele>183.71428571428572</ele><time>2026-03-24T17:58:33.963Z</time></trkpt><trkpt lat="45.594236461293384" lon="10.149154445634519"><ele>184.0</ele><time>2026-03-24T17:58:36.963Z</time></trkpt><trkpt lat="45.59425866555383" lon="10.149068764791544"><ele>184.2857142857143</ele><time>2026-03-24T17:58:39.963Z</time></trkpt><trkpt lat="45.594264591219165" lon="10.14896350678439"><ele>184.57142857142856</ele><time>2026-03-24T17:58:42.963Z</time></trkpt><trkpt lat="45.59427308502709" lon="10.14886703117604"><ele>184.85714285714286</ele><time>2026-03-24T17:58:45.962Z</time></trkpt><trkpt lat="45.59427497349957" lon="10.148765184416995"><ele>185.14285714285717</ele><time>2026-03-24T17:58:48.962Z</time></trkpt><trkpt lat="45.59428981279596" lon="10.14865530326711"><ele>185.42857142857144</ele><time>2026-03-24T17:58:51.962Z</time></trkpt><trkpt lat="45.59429414828735" lon="10.148557982725803"><ele>185.71428571428572</ele><time>2026-03-24T17:58:54.962Z</time></trkpt><trkpt lat="45.5942966115432" lon="10.148455092192274"><ele>186.0</ele><time>2026-03-24T17:58:57.962Z</time></trkpt><trkpt lat="45.59430617278083" lon="10.148347519048789"><ele>186.0</ele><time>2026-03-24T17:59:00.962Z</time></trkpt><trkpt lat="45.59431017073983" lon="10.148237837968237"><ele>186.0</ele><time>2026-03-24T17:59:03.962Z</time></trkpt><trkpt lat="45.59432069102723" lon="10.148130332408916"><ele>186.0</ele><time>2026-03-24T17:59:06.962Z</time></trkpt><trkpt lat="45.59432893481782" lon="10.148026768405046"><ele>186.0</ele><time>2026-03-24T17:59:09.962Z</time></trkpt><trkpt lat="45.59434228180094" lon="10.147928001576998"><ele>186.0</ele><time>2026-03-24T17:59:12.962Z</time></trkpt><trkpt lat="45.59434997641971" lon="10.147825416918833"><ele>186.0</ele><time>2026-03-24T17:59:15.962Z</time></trkpt><trkpt lat="45.59436128892876" lon="10.147704477401636"><ele>185.42857142857144</ele><time>2026-03-24T17:59:19.962Z</time></trkpt><trkpt lat="45.5943722665547" lon="10.147604043261333"><ele>184.85714285714286</ele><time>2026-03-24T17:59:22.962Z</time></trkpt><trkpt lat="45.594375556569254" lon="10.147499324426125"><ele>184.28571428571428</ele><time>2026-03-24T17:59:25.962Z</time></trkpt><trkpt lat="45.59439033797249" lon="10.14740215525055"><ele>183.71428571428572</ele><time>2026-03-24T17:59:28.962Z</time></trkpt><trkpt lat="45.59442770080374" lon="10.147320506400117"><ele>183.14285714285714</ele><time>2026-03-24T17:59:31.962Z</time></trkpt><trkpt lat="45.594494403648554" lon="10.147303731358049"><ele>182.57142857142858</ele><time>2026-03-24T17:59:34.962Z</time></trkpt><trkpt lat="45.59456251403488" lon="10.147308026995825"><ele>182.0</ele><time>2026-03-24T17:59:37.962Z</time></trkpt><trkpt lat="45.59463069502853" lon="10.14732047104714"><ele>182.0</ele><time>2026-03-24T17:59:40.962Z</time></trkpt><trkpt lat="45.59470879642918" lon="10.1473252781731"><ele>182.0</ele><time>2026-03-24T17:59:43.962Z</time></trkpt><trkpt lat="45.59477273119804" lon="10.147326779192792"><ele>182.0</ele><time>2026-03-24T17:59:46.962Z</time></trkpt><trkpt lat="45.59485247310434" lon="10.147348934728345"><ele>182.0</ele><time>2026-03-24T17:59:50.962Z</time></trkpt><trkpt lat="45.59491813525376" lon="10.147365137435738"><ele>182.0</ele><time>2026-03-24T17:59:53.962Z</time></trkpt><trkpt lat="45.594984027096714" lon="10.147377833851486"><ele>182.0</ele><time>2026-03-24T17:59:56.962Z</time></trkpt><trkpt lat="45.59505057062007" lon="10.147391254357778"><ele>182.0</ele><time>2026-03-24T17:59:59.962Z</time></trkpt><trkpt lat="45.59512649065663" lon="10.147390577315104"><ele>182.0</ele><time>2026-03-24T18:00:02.962Z</time></trkpt><trkpt lat="45.59519482360888" lon="10.147338553306843"><ele>182.0</ele><time>2026-03-24T18:00:05.962Z</time></trkpt><trkpt lat="45.59521086241977" lon="10.147250081996406"><ele>182.0</ele><time>2026-03-24T18:00:08.962Z</time></trkpt><trkpt lat="45.59521331013001" lon="10.147130304864563"><ele>182.0</ele><time>2026-03-24T18:00:12.961Z</time></trkpt><trkpt lat="45.595203691300895" lon="10.147039212619292"><ele>182.0</ele><time>2026-03-24T18:00:15.961Z</time></trkpt><trkpt lat="45.595204610018904" lon="10.146940460944501"><ele>182.0</ele><time>2026-03-24T18:00:18.961Z</time></trkpt><trkpt lat="45.5952068739268" lon="10.146835039876764"><ele>182.0</ele><time>2026-03-24T18:00:21.961Z</time></trkpt><trkpt lat="45.595202553151566" lon="10.146740498864883"><ele>182.0</ele><time>2026-03-24T18:00:24.961Z</time></trkpt><trkpt lat="45.595200084697346" lon="10.146637287060628"><ele>182.0</ele><time>2026-03-24T18:00:27.961Z</time></trkpt><trkpt lat="45.595199565069834" lon="10.14653949093919"><ele>182.0</ele><time>2026-03-24T18:00:30.961Z</time></trkpt><trkpt lat="45.59519628402062" lon="10.146439142261038"><ele>182.0</ele><time>2026-03-24T18:00:33.961Z</time></trkpt><trkpt lat="45.59518940293949" lon="10.146340941545928"><ele>182.0</ele><time>2026-03-24T18:00:36.961Z</time></trkpt><trkpt lat="45.59518536427591" lon="10.146228868394852"><ele>182.0</ele><time>2026-03-24T18:00:39.961Z</time></trkpt><trkpt lat="45.59518339999744" lon="10.146128105604744"><ele>182.0</ele><time>2026-03-24T18:00:42.961Z</time></trkpt><trkpt lat="45.595178772055" lon="10.14603215980894"><ele>181.14285714285714</ele><time>2026-03-24T18:00:45.961Z</time></trkpt><trkpt lat="45.59517101429317" lon="10.145933140152772"><ele>180.28571428571428</ele><time>2026-03-24T18:00:48.961Z</time></trkpt><trkpt lat="45.59517554757117" lon="10.145832555536641"><ele>179.42857142857144</ele><time>2026-03-24T18:00:51.961Z</time></trkpt><trkpt lat="45.595173244401295" lon="10.145728996179844"><ele>178.57142857142856</ele><time>2026-03-24T18:00:54.961Z</time></trkpt><trkpt lat="45.59517258580943" lon="10.145622997653836"><ele>177.71428571428572</ele><time>2026-03-24T18:00:57.961Z</time></trkpt><trkpt lat="45.5951733356924" lon="10.145521410502074"><ele>176.85714285714286</ele><time>2026-03-24T18:01:00.961Z</time></trkpt><trkpt lat="45.59517550093944" lon="10.14540870110262"><ele>176.0</ele><time>2026-03-24T18:01:03.961Z</time></trkpt><trkpt lat="45.59518022761509" lon="10.145311215796099"><ele>175.42857142857144</ele><time>2026-03-24T18:01:06.961Z</time></trkpt><trkpt lat="45.59519048058791" lon="10.145214642522081"><ele>174.85714285714286</ele><time>2026-03-24T18:01:09.961Z</time></trkpt><trkpt lat="45.595192230251456" lon="10.145111198958423"><ele>174.28571428571428</ele><time>2026-03-24T18:01:12.961Z</time></trkpt><trkpt lat="45.5951992632552" lon="10.145007390733033"><ele>173.71428571428572</ele><time>2026-03-24T18:01:15.961Z</time></trkpt><trkpt lat="45.59521125910157" lon="10.144909938677818"><ele>173.14285714285714</ele><time>2026-03-24T18:01:18.961Z</time></trkpt><trkpt lat="45.59523042016323" lon="10.144816482260724"><ele>172.57142857142858</ele><time>2026-03-24T18:01:21.961Z</time></trkpt><trkpt lat="45.59525709282708" lon="10.14473142661764"><ele>172.0</ele><time>2026-03-24T18:01:24.961Z</time></trkpt><trkpt lat="45.59528479179565" lon="10.144641652162722"><ele>171.71428571428572</ele><time>2026-03-24T18:01:27.961Z</time></trkpt><trkpt lat="45.59530202414769" lon="10.144544633754313"><ele>171.42857142857144</ele><time>2026-03-24T18:01:30.961Z</time></trkpt><trkpt lat="45.59531680650371" lon="10.144452784446177"><ele>171.14285714285717</ele><time>2026-03-24T18:01:33.961Z</time></trkpt><trkpt lat="45.59533958306803" lon="10.1443547048323"><ele>170.85714285714286</ele><time>2026-03-24T18:01:36.961Z</time></trkpt><trkpt lat="45.59536497063528" lon="10.144271292969641"><ele>170.57142857142856</ele><time>2026-03-24T18:01:39.961Z</time></trkpt><trkpt lat="45.595384566389164" lon="10.144167778529866"><ele>170.2857142857143</ele><time>2026-03-24T18:01:42.961Z</time></trkpt><trkpt lat="45.59540377219708" lon="10.1440726030175"><ele>170.0</ele><time>2026-03-24T18:01:45.961Z</time></trkpt><trkpt lat="45.59543798557477" lon="10.14398068594965"><ele>170.71428571428572</ele><time>2026-03-24T18:01:48.96Z</time></trkpt><trkpt lat="45.5954682624641" lon="10.143879187740211"><ele>171.42857142857142</ele><time>2026-03-24T18:01:51.96Z</time></trkpt><trkpt lat="45.59548868617036" lon="10.143778036224534"><ele>172.14285714285714</ele><time>2026-03-24T18:01:54.96Z</time></trkpt><trkpt lat="45.59551310888068" lon="10.143675646066786"><ele>172.85714285714286</ele><time>2026-03-24T18:01:57.96Z</time></trkpt><trkpt lat="45.59554355173711" lon="10.143583925030642"><ele>173.57142857142856</ele><time>2026-03-24T18:02:00.96Z</time></trkpt><trkpt lat="45.595557715156886" lon="10.14347999138871"><ele>174.28571428571428</ele><time>2026-03-24T18:02:03.96Z</time></trkpt><trkpt lat="45.59557443058069" lon="10.143372726277725"><ele>175.0</ele><time>2026-03-24T18:02:06.96Z</time></trkpt><trkpt lat="45.595593363134356" lon="10.14326201403257"><ele>174.0</ele><time>2026-03-24T18:02:09.96Z</time></trkpt><trkpt lat="45.59562030055128" lon="10.143147980658854"><ele>173.0</ele><time>2026-03-24T18:02:12.96Z</time></trkpt><trkpt lat="45.59563629475475" lon="10.143028234284456"><ele>172.0</ele><time>2026-03-24T18:02:15.96Z</time></trkpt><trkpt lat="45.595652217699865" lon="10.142915945148474"><ele>171.0</ele><time>2026-03-24T18:02:18.96Z</time></trkpt><trkpt lat="45.59566324919046" lon="10.142819253087664"><ele>170.0</ele><time>2026-03-24T18:02:21.96Z</time></trkpt><trkpt lat="45.59568543251359" lon="10.142729775910539"><ele>169.0</ele><time>2026-03-24T18:02:24.96Z</time></trkpt><trkpt lat="45.595691012551214" lon="10.142620762587566"><ele>169.0</ele><time>2026-03-24T18:02:27.96Z</time></trkpt><trkpt lat="45.59570502482893" lon="10.142514466467183"><ele>169.0</ele><time>2026-03-24T18:02:30.96Z</time></trkpt><trkpt lat="45.59571198788022" lon="10.1424140645788"><ele>169.0</ele><time>2026-03-24T18:02:33.96Z</time></trkpt><trkpt lat="45.59572938408341" lon="10.142309070840511"><ele>169.0</ele><time>2026-03-24T18:02:36.96Z</time></trkpt><trkpt lat="45.595728062581806" lon="10.142200107965737"><ele>169.0</ele><time>2026-03-24T18:02:39.96Z</time></trkpt><trkpt lat="45.59573195842018" lon="10.142095012332849"><ele>169.0</ele><time>2026-03-24T18:02:42.96Z</time></trkpt><trkpt lat="45.595736730699464" lon="10.141981674626171"><ele>168.66666666666669</ele><time>2026-03-24T18:02:45.96Z</time></trkpt><trkpt lat="45.595732684423794" lon="10.141868618967598"><ele>168.33333333333334</ele><time>2026-03-24T18:02:48.96Z</time></trkpt><trkpt lat="45.595711047657254" lon="10.141768809662427"><ele>168.0</ele><time>2026-03-24T18:02:52.96Z</time></trkpt><trkpt lat="45.59569843684553" lon="10.141654283226968"><ele>167.66666666666666</ele><time>2026-03-24T18:02:55.96Z</time></trkpt><trkpt lat="45.5956806717404" lon="10.141548057614482"><ele>167.33333333333331</ele><time>2026-03-24T18:02:58.96Z</time></trkpt><trkpt lat="45.59566533481414" lon="10.141448619647717"><ele>167.0</ele><time>2026-03-24T18:03:02.96Z</time></trkpt><trkpt lat="45.59563425177657" lon="10.141356704470466"><ele>166.85714285714286</ele><time>2026-03-24T18:03:05.96Z</time></trkpt><trkpt lat="45.595602887480226" lon="10.141257940556144"><ele>166.71428571428572</ele><time>2026-03-24T18:03:08.96Z</time></trkpt><trkpt lat="45.59557588571018" lon="10.141151879700889"><ele>166.57142857142856</ele><time>2026-03-24T18:03:11.96Z</time></trkpt><trkpt lat="45.59554941387096" lon="10.141055788582394"><ele>166.42857142857144</ele><time>2026-03-24T18:03:14.96Z</time></trkpt><trkpt lat="45.59552095749003" lon="10.140966744302844"><ele>166.2857142857143</ele><time>2026-03-24T18:03:17.96Z</time></trkpt><trkpt lat="45.59549570835299" lon="10.140871799641726"><ele>166.14285714285714</ele><time>2026-03-24T18:03:20.96Z</time></trkpt><trkpt lat="45.59546720167722" lon="10.140773972595111"><ele>166.0</ele><time>2026-03-24T18:03:23.96Z</time></trkpt><trkpt lat="45.59544883043796" lon="10.14067316647575"><ele>165.66666666666669</ele><time>2026-03-24T18:03:26.96Z</time></trkpt><trkpt lat="45.59543667291081" lon="10.140558106124864"><ele>165.33333333333334</ele><time>2026-03-24T18:03:29.96Z</time></trkpt><trkpt lat="45.59545017148523" lon="10.140444894437136"><ele>165.0</ele><time>2026-03-24T18:03:32.96Z</time></trkpt><trkpt lat="45.595448875378665" lon="10.140333796845637"><ele>164.66666666666666</ele><time>2026-03-24T18:03:35.96Z</time></trkpt><trkpt lat="45.59544344985245" lon="10.140208750329373"><ele>164.33333333333331</ele><time>2026-03-24T18:03:38.96Z</time></trkpt><trkpt lat="45.59543018813355" lon="10.140097091033297"><ele>164.0</ele><time>2026-03-24T18:03:41.959Z</time></trkpt><trkpt lat="45.59542465060951" lon="10.13998352391392"><ele>164.14285714285714</ele><time>2026-03-24T18:03:44.959Z</time></trkpt><trkpt lat="45.595420238979855" lon="10.139877177872332"><ele>164.28571428571428</ele><time>2026-03-24T18:03:47.959Z</time></trkpt><trkpt lat="45.59542229428064" lon="10.139765362555927"><ele>164.42857142857144</ele><time>2026-03-24T18:03:50.959Z</time></trkpt><trkpt lat="45.595418327613494" lon="10.139654165153916"><ele>164.57142857142856</ele><time>2026-03-24T18:03:53.959Z</time></trkpt><trkpt lat="45.59542884058126" lon="10.139546436639085"><ele>164.71428571428572</ele><time>2026-03-24T18:03:56.959Z</time></trkpt><trkpt lat="45.59542124340377" lon="10.13945418069934"><ele>164.85714285714286</ele><time>2026-03-24T18:03:59.959Z</time></trkpt><trkpt lat="45.595406026512826" lon="10.139353544596492"><ele>165.0</ele><time>2026-03-24T18:04:02.959Z</time></trkpt><trkpt lat="45.59538931771997" lon="10.139240487002029"><ele>165.00000000000003</ele><time>2026-03-24T18:04:05.959Z</time></trkpt><trkpt lat="45.595381171669366" lon="10.139149159860171"><ele>165.0</ele><time>2026-03-24T18:04:07.959Z</time></trkpt><trkpt lat="45.59536938799366" lon="10.13905539626515"><ele>165.0</ele><time>2026-03-24T18:04:10.959Z</time></trkpt><trkpt lat="45.5953600724181" lon="10.138949372417896"><ele>165.0</ele><time>2026-03-24T18:04:13.959Z</time></trkpt><trkpt lat="45.595345975203834" lon="10.13885364451408"><ele>165.0</ele><time>2026-03-24T18:04:16.959Z</time></trkpt><trkpt lat="45.595296363627" lon="10.138759586115995"><ele>165.00000000000003</ele><time>2026-03-24T18:04:19.959Z</time></trkpt><trkpt lat="45.59525978560615" lon="10.1386715373708"><ele>165.0</ele><time>2026-03-24T18:04:22.959Z</time></trkpt><trkpt lat="45.595234223266594" lon="10.138576890030334"><ele>164.57142857142858</ele><time>2026-03-24T18:04:25.959Z</time></trkpt><trkpt lat="45.59523489389033" lon="10.138482272720726"><ele>164.14285714285714</ele><time>2026-03-24T18:04:28.959Z</time></trkpt><trkpt lat="45.595227067793175" lon="10.138382844979176"><ele>163.71428571428572</ele><time>2026-03-24T18:04:31.958Z</time></trkpt><trkpt lat="45.59522066097243" lon="10.138270201494787"><ele>163.28571428571428</ele><time>2026-03-24T18:04:34.959Z</time></trkpt><trkpt lat="45.59522414335761" lon="10.138155722696764"><ele>162.85714285714286</ele><time>2026-03-24T18:04:37.959Z</time></trkpt><trkpt lat="45.595216115930505" lon="10.138045728635266"><ele>162.42857142857144</ele><time>2026-03-24T18:04:40.959Z</time></trkpt><trkpt lat="45.59521603002427" lon="10.137951959112767"><ele>162.0</ele><time>2026-03-24T18:04:43.959Z</time></trkpt><trkpt lat="45.5952143218505" lon="10.137848053029053"><ele>162.0</ele><time>2026-03-24T18:04:46.959Z</time></trkpt><trkpt lat="45.595215565336744" lon="10.137748663585818"><ele>162.0</ele><time>2026-03-24T18:04:49.959Z</time></trkpt><trkpt lat="45.5952139344069" lon="10.137644700924092"><ele>162.0</ele><time>2026-03-24T18:04:52.959Z</time></trkpt><trkpt lat="45.59522726409576" lon="10.13754426381568"><ele>162.0</ele><time>2026-03-24T18:04:55.959Z</time></trkpt><trkpt lat="45.5952342652993" lon="10.137437917193534"><ele>162.0</ele><time>2026-03-24T18:04:58.959Z</time></trkpt><trkpt lat="45.59523964070571" lon="10.137341691809548"><ele>162.0</ele><time>2026-03-24T18:05:01.959Z</time></trkpt><trkpt lat="45.595243774003784" lon="10.137232531297109"><ele>162.0</ele><time>2026-03-24T18:05:04.959Z</time></trkpt><trkpt lat="45.59526416951303" lon="10.137129406786741"><ele>162.0</ele><time>2026-03-24T18:05:07.959Z</time></trkpt><trkpt lat="45.59527208868712" lon="10.137023481927459"><ele>162.0</ele><time>2026-03-24T18:05:10.959Z</time></trkpt><trkpt lat="45.59528885221805" lon="10.13692193561649"><ele>162.0</ele><time>2026-03-24T18:05:13.959Z</time></trkpt><trkpt lat="45.59530885152936" lon="10.136824505435854"><ele>162.0</ele><time>2026-03-24T18:05:16.958Z</time></trkpt><trkpt lat="45.59532900002731" lon="10.136715875423896"><ele>162.0</ele><time>2026-03-24T18:05:19.958Z</time></trkpt><trkpt lat="45.595356986140544" lon="10.136623307865424"><ele>162.0</ele><time>2026-03-24T18:05:22.958Z</time></trkpt><trkpt lat="45.59538961244297" lon="10.136518989830465"><ele>162.0</ele><time>2026-03-24T18:05:25.958Z</time></trkpt><trkpt lat="45.59541503078635" lon="10.136427198702751"><ele>162.85714285714286</ele><time>2026-03-24T18:05:28.958Z</time></trkpt><trkpt lat="45.59546043131158" lon="10.136345746769436"><ele>163.71428571428572</ele><time>2026-03-24T18:05:31.958Z</time></trkpt><trkpt lat="45.59549671890118" lon="10.136266019829437"><ele>164.57142857142856</ele><time>2026-03-24T18:05:34.958Z</time></trkpt><trkpt lat="45.59551649321608" lon="10.136167024849343"><ele>165.42857142857144</ele><time>2026-03-24T18:05:37.958Z</time></trkpt><trkpt lat="45.5955300188716" lon="10.136069068562334"><ele>166.28571428571428</ele><time>2026-03-24T18:05:40.958Z</time></trkpt><trkpt lat="45.59554443866701" lon="10.135971467816475"><ele>167.14285714285714</ele><time>2026-03-24T18:05:43.958Z</time></trkpt><trkpt lat="45.595565430623914" lon="10.135880566746614"><ele>168.0</ele><time>2026-03-24T18:05:46.958Z</time></trkpt><trkpt lat="45.5955863995466" lon="10.135789845441682"><ele>168.14285714285714</ele><time>2026-03-24T18:05:49.958Z</time></trkpt><trkpt lat="45.59558786099376" lon="10.13567511537319"><ele>168.28571428571428</ele><time>2026-03-24T18:05:53.958Z</time></trkpt><trkpt lat="45.595607313643505" lon="10.135570069957415"><ele>168.42857142857144</ele><time>2026-03-24T18:05:56.958Z</time></trkpt><trkpt lat="45.59562373581324" lon="10.135455580194872"><ele>168.57142857142856</ele><time>2026-03-24T18:05:59.958Z</time></trkpt><trkpt lat="45.595626490286065" lon="10.135364114374793"><ele>168.71428571428572</ele><time>2026-03-24T18:06:02.958Z</time></trkpt><trkpt lat="45.59562960863419" lon="10.135263551909832"><ele>168.85714285714286</ele><time>2026-03-24T18:06:05.958Z</time></trkpt><trkpt lat="45.59566484268008" lon="10.135169920152398"><ele>169.0</ele><time>2026-03-24T18:06:08.958Z</time></trkpt><trkpt lat="45.59568463482905" lon="10.135069087597385"><ele>169.0</ele><time>2026-03-24T18:06:11.958Z</time></trkpt><trkpt lat="45.59570531729976" lon="10.134953402893519"><ele>169.0</ele><time>2026-03-24T18:06:15.958Z</time></trkpt><trkpt lat="45.595716815161126" lon="10.134846493552764"><ele>169.0</ele><time>2026-03-24T18:06:19.958Z</time></trkpt><trkpt lat="45.59574403750312" lon="10.134743569575718"><ele>169.0</ele><time>2026-03-24T18:06:22.958Z</time></trkpt><trkpt lat="45.59577467876042" lon="10.134655826600415"><ele>169.0</ele><time>2026-03-24T18:06:25.958Z</time></trkpt><trkpt lat="45.59578575691085" lon="10.134533439329356"><ele>169.0</ele><time>2026-03-24T18:06:28.957Z</time></trkpt><trkpt lat="45.59579151980921" lon="10.134415780028837"><ele>168.83333333333334</ele><time>2026-03-24T18:06:31.958Z</time></trkpt><trkpt lat="45.59581610912758" lon="10.134290478522503"><ele>168.66666666666669</ele><time>2026-03-24T18:06:34.958Z</time></trkpt><trkpt lat="45.59585806746204" lon="10.134189865972091"><ele>168.5</ele><time>2026-03-24T18:06:37.958Z</time></trkpt><trkpt lat="45.59588625088404" lon="10.134086413607422"><ele>168.33333333333334</ele><time>2026-03-24T18:06:40.957Z</time></trkpt><trkpt lat="45.59590037790261" lon="10.133974430862875"><ele>168.16666666666666</ele><time>2026-03-24T18:06:43.957Z</time></trkpt><trkpt lat="45.595924196167616" lon="10.133873222416195"><ele>168.0</ele><time>2026-03-24T18:06:46.957Z</time></trkpt><trkpt lat="45.595938146847146" lon="10.133759266479732"><ele>167.71428571428572</ele><time>2026-03-24T18:06:49.957Z</time></trkpt><trkpt lat="45.59595526327983" lon="10.133661886182153"><ele>167.42857142857144</ele><time>2026-03-24T18:06:52.957Z</time></trkpt><trkpt lat="45.59597324637111" lon="10.133566299383043"><ele>167.14285714285714</ele><time>2026-03-24T18:06:55.957Z</time></trkpt><trkpt lat="45.59598812691245" lon="10.133476826857134"><ele>166.85714285714286</ele><time>2026-03-24T18:06:58.957Z</time></trkpt><trkpt lat="45.59600586355518" lon="10.133383726762771"><ele>166.57142857142858</ele><time>2026-03-24T18:07:01.957Z</time></trkpt><trkpt lat="45.59602050986936" lon="10.133292908147109"><ele>166.28571428571428</ele><time>2026-03-24T18:07:04.957Z</time></trkpt><trkpt lat="45.59604197169706" lon="10.133202099985116"><ele>166.0</ele><time>2026-03-24T18:07:07.957Z</time></trkpt><trkpt lat="45.59604738137253" lon="10.133097761433085"><ele>165.85714285714286</ele><time>2026-03-24T18:07:10.957Z</time></trkpt><trkpt lat="45.59605711283044" lon="10.132989724282428"><ele>165.71428571428572</ele><time>2026-03-24T18:07:13.957Z</time></trkpt><trkpt lat="45.59608895042559" lon="10.132894048811963"><ele>165.57142857142858</ele><time>2026-03-24T18:07:16.957Z</time></trkpt><trkpt lat="45.59610842802643" lon="10.132790170522668"><ele>165.42857142857144</ele><time>2026-03-24T18:07:19.957Z</time></trkpt><trkpt lat="45.59612292946767" lon="10.132683583468943"><ele>165.28571428571428</ele><time>2026-03-24T18:07:22.957Z</time></trkpt><trkpt lat="45.59615419033498" lon="10.13259829051031"><ele>165.14285714285717</ele><time>2026-03-24T18:07:24.957Z</time></trkpt><trkpt lat="45.59618726071821" lon="10.132496709924707"><ele>165.0</ele><time>2026-03-24T18:07:27.957Z</time></trkpt><trkpt lat="45.59622943155914" lon="10.13241289247337"><ele>165.00000000000003</ele><time>2026-03-24T18:07:30.957Z</time></trkpt><trkpt lat="45.596282518843026" lon="10.132344449995772"><ele>165.0</ele><time>2026-03-24T18:07:33.957Z</time></trkpt><trkpt lat="45.59631433670494" lon="10.13224991104175"><ele>165.0</ele><time>2026-03-24T18:07:36.957Z</time></trkpt><trkpt lat="45.596262819735195" lon="10.132161616393484"><ele>165.0</ele><time>2026-03-24T18:07:39.957Z</time></trkpt><trkpt lat="45.59620512947588" lon="10.132094322770254"><ele>165.0</ele><time>2026-03-24T18:07:42.957Z</time></trkpt><trkpt lat="45.59614358408277" lon="10.132027580764655"><ele>165.00000000000003</ele><time>2026-03-24T18:07:45.957Z</time></trkpt><trkpt lat="45.59608606044803" lon="10.131983744330329"><ele>165.0</ele><time>2026-03-24T18:07:48.957Z</time></trkpt><trkpt lat="45.59602780976478" lon="10.131941407721683"><ele>165.0</ele><time>2026-03-24T18:07:51.957Z</time></trkpt><trkpt lat="45.59597021318115" lon="10.131854351294646"><ele>165.0</ele><time>2026-03-24T18:07:54.957Z</time></trkpt><trkpt lat="45.59590429525133" lon="10.131792691381635"><ele>165.0</ele><time>2026-03-24T18:07:57.957Z</time></trkpt><trkpt lat="45.595837165365" lon="10.131726297226995"><ele>165.0</ele><time>2026-03-24T18:08:00.957Z</time></trkpt><trkpt lat="45.5957799790036" lon="10.131664113476793"><ele>165.0</ele><time>2026-03-24T18:08:03.956Z</time></trkpt><trkpt lat="45.595715799996434" lon="10.131607842515091"><ele>165.0</ele><time>2026-03-24T18:08:06.956Z</time></trkpt><trkpt lat="45.5956310527691" lon="10.131585605095855"><ele>165.00000000000003</ele><time>2026-03-24T18:08:10.956Z</time></trkpt><trkpt lat="45.59555855612314" lon="10.131617768194364"><ele>165.0</ele><time>2026-03-24T18:08:14.956Z</time></trkpt><trkpt lat="45.59548957002855" lon="10.131628702603178"><ele>165.0</ele><time>2026-03-24T18:08:17.956Z</time></trkpt><trkpt lat="45.59542111061206" lon="10.131619801155015"><ele>165.0</ele><time>2026-03-24T18:08:20.956Z</time></trkpt><trkpt lat="45.59535401430956" lon="10.131602869244675"><ele>165.0</ele><time>2026-03-24T18:08:23.956Z</time></trkpt><trkpt lat="45.59527204863124" lon="10.131589526516365"><ele>165.00000000000003</ele><time>2026-03-24T18:08:26.956Z</time></trkpt><trkpt lat="45.595194074082706" lon="10.131588311677456"><ele>165.0</ele><time>2026-03-24T18:08:29.956Z</time></trkpt><trkpt lat="45.59511582928675" lon="10.131594284120148"><ele>164.16666666666666</ele><time>2026-03-24T18:08:32.956Z</time></trkpt><trkpt lat="45.59504048021443" lon="10.131612811616645"><ele>163.33333333333334</ele><time>2026-03-24T18:08:35.957Z</time></trkpt><trkpt lat="45.59499893285214" lon="10.131684690898254"><ele>162.5</ele><time>2026-03-24T18:08:38.957Z</time></trkpt><trkpt lat="45.594987119476244" lon="10.131799790263688"><ele>161.66666666666669</ele><time>2026-03-24T18:08:42.956Z</time></trkpt><trkpt lat="45.594977930083466" lon="10.13191437873607"><ele>160.83333333333334</ele><time>2026-03-24T18:08:46.957Z</time></trkpt><trkpt lat="45.59497844906709" lon="10.132039357240611"><ele>160.0</ele><time>2026-03-24T18:08:50.957Z</time></trkpt><trkpt lat="45.594937066617646" lon="10.132124837857702"><ele>160.0</ele><time>2026-03-24T18:08:53.957Z</time></trkpt><trkpt lat="45.59489774333006" lon="10.132218656272357"><ele>160.0</ele><time>2026-03-24T18:08:56.957Z</time></trkpt><trkpt lat="45.594877493813094" lon="10.13232826345848"><ele>160.0</ele><time>2026-03-24T18:08:59.956Z</time></trkpt><trkpt lat="45.59486445226669" lon="10.132429395909968"><ele>160.0</ele><time>2026-03-24T18:09:02.956Z</time></trkpt><trkpt lat="45.59485734096669" lon="10.132544241444755"><ele>160.0</ele><time>2026-03-24T18:09:05.956Z</time></trkpt><trkpt lat="45.59485049414982" lon="10.132638330439814"><ele>160.0</ele><time>2026-03-24T18:09:08.956Z</time></trkpt><trkpt lat="45.594833439479345" lon="10.132742844459598"><ele>160.14285714285714</ele><time>2026-03-24T18:09:11.956Z</time></trkpt><trkpt lat="45.59481673299943" lon="10.132843761211022"><ele>160.28571428571428</ele><time>2026-03-24T18:09:14.956Z</time></trkpt><trkpt lat="45.59479906716022" lon="10.132954453656644"><ele>160.42857142857144</ele><time>2026-03-24T18:09:17.956Z</time></trkpt><trkpt lat="45.59476862442886" lon="10.133057122887866"><ele>160.57142857142856</ele><time>2026-03-24T18:09:20.956Z</time></trkpt><trkpt lat="45.59474031648827" lon="10.13314262753614"><ele>160.71428571428572</ele><time>2026-03-24T18:09:23.956Z</time></trkpt><trkpt lat="45.59472269709566" lon="10.13324141267543"><ele>160.85714285714286</ele><time>2026-03-24T18:09:26.956Z</time></trkpt><trkpt lat="45.59471700699716" lon="10.13333778824003"><ele>161.0</ele><time>2026-03-24T18:09:29.956Z</time></trkpt><trkpt lat="45.59470567922642" lon="10.133427900722127"><ele>161.42857142857142</ele><time>2026-03-24T18:09:32.956Z</time></trkpt><trkpt lat="45.594684821686215" lon="10.133534644832876"><ele>161.85714285714286</ele><time>2026-03-24T18:09:35.956Z</time></trkpt><trkpt lat="45.59466074171369" lon="10.133631959601555"><ele>162.28571428571428</ele><time>2026-03-24T18:09:38.956Z</time></trkpt><trkpt lat="45.59463237086883" lon="10.13373927496375"><ele>162.71428571428572</ele><time>2026-03-24T18:09:41.956Z</time></trkpt><trkpt lat="45.59462224967008" lon="10.133834462240586"><ele>163.14285714285714</ele><time>2026-03-24T18:09:44.956Z</time></trkpt><trkpt lat="45.5945994885916" lon="10.133935007165526"><ele>163.57142857142856</ele><time>2026-03-24T18:09:47.956Z</time></trkpt><trkpt lat="45.594584554999926" lon="10.134037058075373"><ele>164.0</ele><time>2026-03-24T18:09:50.956Z</time></trkpt><trkpt lat="45.59456957721129" lon="10.134140678918468"><ele>164.0</ele><time>2026-03-24T18:09:53.956Z</time></trkpt><trkpt lat="45.59455762928835" lon="10.134246280134073"><ele>164.0</ele><time>2026-03-24T18:09:56.956Z</time></trkpt><trkpt lat="45.59453955188087" lon="10.134347248424165"><ele>164.0</ele><time>2026-03-24T18:09:59.956Z</time></trkpt><trkpt lat="45.594508034047195" lon="10.134444225110231"><ele>164.0</ele><time>2026-03-24T18:10:02.956Z</time></trkpt><trkpt lat="45.594492307210295" lon="10.134534934671864"><ele>160.0</ele><time>2026-03-24T18:10:08.956Z</time></trkpt></trkseg></trk></gpx>